<?xml version="1.0" encoding="UTF-8" standalone="no" ?>
<gpx xmlns="http://www.topografix.com/GPX/1/1" xmlns:xsi="http://www.w3.org/2001/XMLSchema-instance" xsi:schemaLocation="http://www.topografix.com/GPX/1/1 http://www.topografix.com/GPX/1/1/gpx.xsd" version="1.1" creator="VisuGPX - https://www.visugpx.com">
  <metadata>
    <name>Sortie de Pâques</name>
  </metadata>
  <trk>
    <name><![CDATA[Sortie de Pâques]]></name>
    <extensions>
      <line xmlns="http://www.topografix.com/GPX/gpx_style/0/2">
        <color>0000FF</color>
        <width>4</width>
      </line>
    </extensions>
    <trkseg>
      <trkpt lat="49.32737" lon="-0.45779">
        <ele>15.8</ele>
        <time>2021-04-04T07:37:19Z</time>
      </trkpt>
      <trkpt lat="49.32737" lon="-0.45779">
        <ele>15.8</ele>
        <time>2021-04-04T07:37:20Z</time>
      </trkpt>
      <trkpt lat="49.32737" lon="-0.45782">
        <ele>15.8</ele>
        <time>2021-04-04T07:37:22Z</time>
      </trkpt>
      <trkpt lat="49.32738" lon="-0.45788">
        <ele>15.8</ele>
        <time>2021-04-04T07:37:24Z</time>
      </trkpt>
      <trkpt lat="49.32742" lon="-0.45811">
        <ele>15.9</ele>
        <time>2021-04-04T07:37:30Z</time>
      </trkpt>
      <trkpt lat="49.32743" lon="-0.45814">
        <ele>15.9</ele>
        <time>2021-04-04T07:37:31Z</time>
      </trkpt>
      <trkpt lat="49.32744" lon="-0.45821">
        <ele>15.9</ele>
        <time>2021-04-04T07:37:33Z</time>
      </trkpt>
      <trkpt lat="49.32745" lon="-0.45827">
        <ele>16</ele>
        <time>2021-04-04T07:37:35Z</time>
      </trkpt>
      <trkpt lat="49.32746" lon="-0.45835">
        <ele>16</ele>
        <time>2021-04-04T07:37:37Z</time>
      </trkpt>
      <trkpt lat="49.32748" lon="-0.45846">
        <ele>16</ele>
        <time>2021-04-04T07:37:40Z</time>
      </trkpt>
      <trkpt lat="49.32751" lon="-0.4587">
        <ele>16.1</ele>
        <time>2021-04-04T07:37:47Z</time>
      </trkpt>
      <trkpt lat="49.32753" lon="-0.45881">
        <ele>16.1</ele>
        <time>2021-04-04T07:37:50Z</time>
      </trkpt>
      <trkpt lat="49.32755" lon="-0.45888">
        <ele>16.2</ele>
        <time>2021-04-04T07:37:52Z</time>
      </trkpt>
      <trkpt lat="49.32755" lon="-0.45895">
        <ele>16.2</ele>
        <time>2021-04-04T07:37:54Z</time>
      </trkpt>
      <trkpt lat="49.32757" lon="-0.45905">
        <ele>16.2</ele>
        <time>2021-04-04T07:37:57Z</time>
      </trkpt>
      <trkpt lat="49.32759" lon="-0.45918">
        <ele>16.3</ele>
        <time>2021-04-04T07:38:01Z</time>
      </trkpt>
      <trkpt lat="49.32761" lon="-0.45928">
        <ele>16.3</ele>
        <time>2021-04-04T07:38:04Z</time>
      </trkpt>
      <trkpt lat="49.32765" lon="-0.4595">
        <ele>16.4</ele>
        <time>2021-04-04T07:38:10Z</time>
      </trkpt>
      <trkpt lat="49.32767" lon="-0.45963">
        <ele>16.4</ele>
        <time>2021-04-04T07:38:14Z</time>
      </trkpt>
      <trkpt lat="49.3277" lon="-0.45984">
        <ele>16.4</ele>
        <time>2021-04-04T07:38:20Z</time>
      </trkpt>
      <trkpt lat="49.3277" lon="-0.45988">
        <ele>16.4</ele>
        <time>2021-04-04T07:38:21Z</time>
      </trkpt>
      <trkpt lat="49.3277" lon="-0.45992">
        <ele>16.4</ele>
        <time>2021-04-04T07:38:22Z</time>
      </trkpt>
      <trkpt lat="49.32773" lon="-0.46014">
        <ele>16.3</ele>
        <time>2021-04-04T07:38:28Z</time>
      </trkpt>
      <trkpt lat="49.32774" lon="-0.46017">
        <ele>16.3</ele>
        <time>2021-04-04T07:38:29Z</time>
      </trkpt>
      <trkpt lat="49.32777" lon="-0.46038">
        <ele>16.5</ele>
        <time>2021-04-04T07:38:35Z</time>
      </trkpt>
      <trkpt lat="49.32778" lon="-0.46049">
        <ele>16.6</ele>
        <time>2021-04-04T07:38:38Z</time>
      </trkpt>
      <trkpt lat="49.32782" lon="-0.46069">
        <ele>16.8</ele>
        <time>2021-04-04T07:38:44Z</time>
      </trkpt>
      <trkpt lat="49.32786" lon="-0.46079">
        <ele>16.8</ele>
        <time>2021-04-04T07:38:47Z</time>
      </trkpt>
      <trkpt lat="49.32787" lon="-0.46096">
        <ele>16.9</ele>
        <time>2021-04-04T07:38:52Z</time>
      </trkpt>
      <trkpt lat="49.32788" lon="-0.46103">
        <ele>16.8</ele>
        <time>2021-04-04T07:38:54Z</time>
      </trkpt>
      <trkpt lat="49.32795" lon="-0.4612">
        <ele>16.3</ele>
        <time>2021-04-04T07:39:00Z</time>
      </trkpt>
      <trkpt lat="49.32799" lon="-0.4614">
        <ele>16.1</ele>
        <time>2021-04-04T07:39:06Z</time>
      </trkpt>
      <trkpt lat="49.32795" lon="-0.4616">
        <ele>16</ele>
        <time>2021-04-04T07:39:12Z</time>
      </trkpt>
      <trkpt lat="49.32781" lon="-0.4618">
        <ele>15.7</ele>
        <time>2021-04-04T07:39:20Z</time>
      </trkpt>
      <trkpt lat="49.32763" lon="-0.46195">
        <ele>14.5</ele>
        <time>2021-04-04T07:39:28Z</time>
      </trkpt>
      <trkpt lat="49.32759" lon="-0.46199">
        <ele>14.2</ele>
        <time>2021-04-04T07:39:30Z</time>
      </trkpt>
      <trkpt lat="49.32744" lon="-0.46208">
        <ele>13.4</ele>
        <time>2021-04-04T07:39:37Z</time>
      </trkpt>
      <trkpt lat="49.32732" lon="-0.46219">
        <ele>12.6</ele>
        <time>2021-04-04T07:39:43Z</time>
      </trkpt>
      <trkpt lat="49.32727" lon="-0.46225">
        <ele>12.3</ele>
        <time>2021-04-04T07:39:46Z</time>
      </trkpt>
      <trkpt lat="49.32717" lon="-0.46233">
        <ele>11.5</ele>
        <time>2021-04-04T07:39:51Z</time>
      </trkpt>
      <trkpt lat="49.327" lon="-0.46249">
        <ele>10.2</ele>
        <time>2021-04-04T07:39:59Z</time>
      </trkpt>
      <trkpt lat="49.32698" lon="-0.46251">
        <ele>10.1</ele>
        <time>2021-04-04T07:40:00Z</time>
      </trkpt>
      <trkpt lat="49.32681" lon="-0.46267">
        <ele>9</ele>
        <time>2021-04-04T07:40:08Z</time>
      </trkpt>
      <trkpt lat="49.32679" lon="-0.4627">
        <ele>8.9</ele>
        <time>2021-04-04T07:40:09Z</time>
      </trkpt>
      <trkpt lat="49.32663" lon="-0.46288">
        <ele>8</ele>
        <time>2021-04-04T07:40:17Z</time>
      </trkpt>
      <trkpt lat="49.32648" lon="-0.46309">
        <ele>7.3</ele>
        <time>2021-04-04T07:40:25Z</time>
      </trkpt>
      <trkpt lat="49.32636" lon="-0.46325">
        <ele>6.8</ele>
        <time>2021-04-04T07:40:32Z</time>
      </trkpt>
      <trkpt lat="49.3262" lon="-0.46344">
        <ele>6.2</ele>
        <time>2021-04-04T07:40:40Z</time>
      </trkpt>
      <trkpt lat="49.32616" lon="-0.4635">
        <ele>6</ele>
        <time>2021-04-04T07:40:42Z</time>
      </trkpt>
      <trkpt lat="49.32602" lon="-0.46371">
        <ele>5.4</ele>
        <time>2021-04-04T07:40:49Z</time>
      </trkpt>
      <trkpt lat="49.32597" lon="-0.46379">
        <ele>5.1</ele>
        <time>2021-04-04T07:40:52Z</time>
      </trkpt>
      <trkpt lat="49.32591" lon="-0.46404">
        <ele>4.5</ele>
        <time>2021-04-04T07:40:59Z</time>
      </trkpt>
      <trkpt lat="49.32591" lon="-0.46431">
        <ele>4</ele>
        <time>2021-04-04T07:41:06Z</time>
      </trkpt>
      <trkpt lat="49.32593" lon="-0.4646">
        <ele>3.9</ele>
        <time>2021-04-04T07:41:14Z</time>
      </trkpt>
      <trkpt lat="49.32594" lon="-0.4649">
        <ele>3.6</ele>
        <time>2021-04-04T07:41:22Z</time>
      </trkpt>
      <trkpt lat="49.32595" lon="-0.46497">
        <ele>3.5</ele>
        <time>2021-04-04T07:41:24Z</time>
      </trkpt>
      <trkpt lat="49.32598" lon="-0.46526">
        <ele>3.3</ele>
        <time>2021-04-04T07:41:31Z</time>
      </trkpt>
      <trkpt lat="49.32598" lon="-0.4653">
        <ele>3.3</ele>
        <time>2021-04-04T07:41:32Z</time>
      </trkpt>
      <trkpt lat="49.32599" lon="-0.46557">
        <ele>3.2</ele>
        <time>2021-04-04T07:41:39Z</time>
      </trkpt>
      <trkpt lat="49.32601" lon="-0.46584">
        <ele>3.1</ele>
        <time>2021-04-04T07:41:46Z</time>
      </trkpt>
      <trkpt lat="49.32602" lon="-0.46608">
        <ele>3.1</ele>
        <time>2021-04-04T07:41:52Z</time>
      </trkpt>
      <trkpt lat="49.32604" lon="-0.46639">
        <ele>3.1</ele>
        <time>2021-04-04T07:42:00Z</time>
      </trkpt>
      <trkpt lat="49.32604" lon="-0.46647">
        <ele>3.1</ele>
        <time>2021-04-04T07:42:02Z</time>
      </trkpt>
      <trkpt lat="49.32603" lon="-0.46666">
        <ele>3.1</ele>
        <time>2021-04-04T07:42:07Z</time>
      </trkpt>
      <trkpt lat="49.32604" lon="-0.46673">
        <ele>3.1</ele>
        <time>2021-04-04T07:42:09Z</time>
      </trkpt>
      <trkpt lat="49.32604" lon="-0.46692">
        <ele>3.2</ele>
        <time>2021-04-04T07:42:14Z</time>
      </trkpt>
      <trkpt lat="49.32604" lon="-0.46699">
        <ele>3.2</ele>
        <time>2021-04-04T07:42:16Z</time>
      </trkpt>
      <trkpt lat="49.32603" lon="-0.4673">
        <ele>3.3</ele>
        <time>2021-04-04T07:42:24Z</time>
      </trkpt>
      <trkpt lat="49.32604" lon="-0.46743">
        <ele>3.3</ele>
        <time>2021-04-04T07:42:27Z</time>
      </trkpt>
      <trkpt lat="49.32604" lon="-0.46747">
        <ele>3.3</ele>
        <time>2021-04-04T07:42:28Z</time>
      </trkpt>
      <trkpt lat="49.32605" lon="-0.46775">
        <ele>3.5</ele>
        <time>2021-04-04T07:42:35Z</time>
      </trkpt>
      <trkpt lat="49.32606" lon="-0.46783">
        <ele>3.5</ele>
        <time>2021-04-04T07:42:37Z</time>
      </trkpt>
      <trkpt lat="49.32607" lon="-0.46791">
        <ele>3.5</ele>
        <time>2021-04-04T07:42:39Z</time>
      </trkpt>
      <trkpt lat="49.32613" lon="-0.46809">
        <ele>3.6</ele>
        <time>2021-04-04T07:42:44Z</time>
      </trkpt>
      <trkpt lat="49.32616" lon="-0.46819">
        <ele>3.7</ele>
        <time>2021-04-04T07:42:47Z</time>
      </trkpt>
      <trkpt lat="49.32624" lon="-0.46839">
        <ele>3.8</ele>
        <time>2021-04-04T07:42:53Z</time>
      </trkpt>
      <trkpt lat="49.32633" lon="-0.46866">
        <ele>4</ele>
        <time>2021-04-04T07:43:01Z</time>
      </trkpt>
      <trkpt lat="49.32643" lon="-0.46893">
        <ele>4.5</ele>
        <time>2021-04-04T07:43:09Z</time>
      </trkpt>
      <trkpt lat="49.32645" lon="-0.46896">
        <ele>4.5</ele>
        <time>2021-04-04T07:43:10Z</time>
      </trkpt>
      <trkpt lat="49.32656" lon="-0.46919">
        <ele>4.8</ele>
        <time>2021-04-04T07:43:17Z</time>
      </trkpt>
      <trkpt lat="49.32659" lon="-0.46926">
        <ele>4.8</ele>
        <time>2021-04-04T07:43:19Z</time>
      </trkpt>
      <trkpt lat="49.32664" lon="-0.46943">
        <ele>5</ele>
        <time>2021-04-04T07:43:24Z</time>
      </trkpt>
      <trkpt lat="49.32668" lon="-0.46953">
        <ele>5.2</ele>
        <time>2021-04-04T07:43:27Z</time>
      </trkpt>
      <trkpt lat="49.32671" lon="-0.46963">
        <ele>5.3</ele>
        <time>2021-04-04T07:43:30Z</time>
      </trkpt>
      <trkpt lat="49.32679" lon="-0.46983">
        <ele>5.8</ele>
        <time>2021-04-04T07:43:36Z</time>
      </trkpt>
      <trkpt lat="49.32687" lon="-0.47009">
        <ele>6.4</ele>
        <time>2021-04-04T07:43:43Z</time>
      </trkpt>
      <trkpt lat="49.32687" lon="-0.47012">
        <ele>6.5</ele>
        <time>2021-04-04T07:43:44Z</time>
      </trkpt>
      <trkpt lat="49.32688" lon="-0.47041">
        <ele>7.1</ele>
        <time>2021-04-04T07:43:51Z</time>
      </trkpt>
      <trkpt lat="49.32688" lon="-0.47045">
        <ele>7.2</ele>
        <time>2021-04-04T07:43:52Z</time>
      </trkpt>
      <trkpt lat="49.32686" lon="-0.47056">
        <ele>7.4</ele>
        <time>2021-04-04T07:43:55Z</time>
      </trkpt>
      <trkpt lat="49.32683" lon="-0.47065">
        <ele>7.7</ele>
        <time>2021-04-04T07:43:58Z</time>
      </trkpt>
      <trkpt lat="49.32672" lon="-0.47084">
        <ele>8.4</ele>
        <time>2021-04-04T07:44:06Z</time>
      </trkpt>
      <trkpt lat="49.32658" lon="-0.47104">
        <ele>9.2</ele>
        <time>2021-04-04T07:44:14Z</time>
      </trkpt>
      <trkpt lat="49.32645" lon="-0.47125">
        <ele>9.9</ele>
        <time>2021-04-04T07:44:22Z</time>
      </trkpt>
      <trkpt lat="49.32646" lon="-0.47126">
        <ele>10</ele>
        <time>2021-04-04T07:44:23Z</time>
      </trkpt>
      <trkpt lat="49.3265" lon="-0.47129">
        <ele>10.1</ele>
        <time>2021-04-04T07:44:25Z</time>
      </trkpt>
      <trkpt lat="49.3266" lon="-0.47145">
        <ele>10.9</ele>
        <time>2021-04-04T07:44:30Z</time>
      </trkpt>
      <trkpt lat="49.32675" lon="-0.47164">
        <ele>11.5</ele>
        <time>2021-04-04T07:44:37Z</time>
      </trkpt>
      <trkpt lat="49.32681" lon="-0.47177">
        <ele>11.9</ele>
        <time>2021-04-04T07:44:41Z</time>
      </trkpt>
      <trkpt lat="49.32691" lon="-0.47192">
        <ele>12</ele>
        <time>2021-04-04T07:44:46Z</time>
      </trkpt>
      <trkpt lat="49.32692" lon="-0.47195">
        <ele>12</ele>
        <time>2021-04-04T07:44:47Z</time>
      </trkpt>
      <trkpt lat="49.32701" lon="-0.47214">
        <ele>11.8</ele>
        <time>2021-04-04T07:44:53Z</time>
      </trkpt>
      <trkpt lat="49.32709" lon="-0.47226">
        <ele>11.6</ele>
        <time>2021-04-04T07:44:57Z</time>
      </trkpt>
      <trkpt lat="49.32718" lon="-0.47247">
        <ele>11.4</ele>
        <time>2021-04-04T07:45:04Z</time>
      </trkpt>
      <trkpt lat="49.32728" lon="-0.47266">
        <ele>11</ele>
        <time>2021-04-04T07:45:10Z</time>
      </trkpt>
      <trkpt lat="49.32739" lon="-0.47292">
        <ele>10.6</ele>
        <time>2021-04-04T07:45:18Z</time>
      </trkpt>
      <trkpt lat="49.32749" lon="-0.47314">
        <ele>10.2</ele>
        <time>2021-04-04T07:45:25Z</time>
      </trkpt>
      <trkpt lat="49.32759" lon="-0.47333">
        <ele>10</ele>
        <time>2021-04-04T07:45:31Z</time>
      </trkpt>
      <trkpt lat="49.32769" lon="-0.47356">
        <ele>9.8</ele>
        <time>2021-04-04T07:45:38Z</time>
      </trkpt>
      <trkpt lat="49.32772" lon="-0.47363">
        <ele>9.8</ele>
        <time>2021-04-04T07:45:40Z</time>
      </trkpt>
      <trkpt lat="49.32781" lon="-0.47384">
        <ele>9.5</ele>
        <time>2021-04-04T07:45:47Z</time>
      </trkpt>
      <trkpt lat="49.32775" lon="-0.47397">
        <ele>9.7</ele>
        <time>2021-04-04T07:45:51Z</time>
      </trkpt>
      <trkpt lat="49.32761" lon="-0.47416">
        <ele>10.6</ele>
        <time>2021-04-04T07:45:58Z</time>
      </trkpt>
      <trkpt lat="49.32756" lon="-0.47422">
        <ele>10.9</ele>
        <time>2021-04-04T07:46:00Z</time>
      </trkpt>
      <trkpt lat="49.32743" lon="-0.47443">
        <ele>11.8</ele>
        <time>2021-04-04T07:46:07Z</time>
      </trkpt>
      <trkpt lat="49.32741" lon="-0.47449">
        <ele>12</ele>
        <time>2021-04-04T07:46:09Z</time>
      </trkpt>
      <trkpt lat="49.32743" lon="-0.47468">
        <ele>12.3</ele>
        <time>2021-04-04T07:46:14Z</time>
      </trkpt>
      <trkpt lat="49.32752" lon="-0.47494">
        <ele>11.9</ele>
        <time>2021-04-04T07:46:21Z</time>
      </trkpt>
      <trkpt lat="49.32754" lon="-0.47498">
        <ele>11.8</ele>
        <time>2021-04-04T07:46:22Z</time>
      </trkpt>
      <trkpt lat="49.32762" lon="-0.4752">
        <ele>11.1</ele>
        <time>2021-04-04T07:46:28Z</time>
      </trkpt>
      <trkpt lat="49.3277" lon="-0.47547">
        <ele>10.1</ele>
        <time>2021-04-04T07:46:35Z</time>
      </trkpt>
      <trkpt lat="49.32776" lon="-0.47574">
        <ele>9.4</ele>
        <time>2021-04-04T07:46:42Z</time>
      </trkpt>
      <trkpt lat="49.32778" lon="-0.47593">
        <ele>8.7</ele>
        <time>2021-04-04T07:46:47Z</time>
      </trkpt>
      <trkpt lat="49.32778" lon="-0.476">
        <ele>8.5</ele>
        <time>2021-04-04T07:46:49Z</time>
      </trkpt>
      <trkpt lat="49.32747" lon="-0.47637">
        <ele>8.3</ele>
        <time>2021-04-04T07:50:16Z</time>
      </trkpt>
      <trkpt lat="49.32746" lon="-0.47639">
        <ele>8.4</ele>
        <time>2021-04-04T07:50:17Z</time>
      </trkpt>
      <trkpt lat="49.32744" lon="-0.4764">
        <ele>8.4</ele>
        <time>2021-04-04T07:50:18Z</time>
      </trkpt>
      <trkpt lat="49.32735" lon="-0.47649">
        <ele>8.6</ele>
        <time>2021-04-04T07:50:22Z</time>
      </trkpt>
      <trkpt lat="49.32732" lon="-0.47652">
        <ele>8.7</ele>
        <time>2021-04-04T07:50:23Z</time>
      </trkpt>
      <trkpt lat="49.3273" lon="-0.47654">
        <ele>8.7</ele>
        <time>2021-04-04T07:50:24Z</time>
      </trkpt>
      <trkpt lat="49.32728" lon="-0.47657">
        <ele>8.8</ele>
        <time>2021-04-04T07:50:25Z</time>
      </trkpt>
      <trkpt lat="49.32721" lon="-0.47664">
        <ele>8.9</ele>
        <time>2021-04-04T07:50:28Z</time>
      </trkpt>
      <trkpt lat="49.32716" lon="-0.4767">
        <ele>9</ele>
        <time>2021-04-04T07:50:30Z</time>
      </trkpt>
      <trkpt lat="49.32713" lon="-0.47675">
        <ele>9.1</ele>
        <time>2021-04-04T07:50:32Z</time>
      </trkpt>
      <trkpt lat="49.32704" lon="-0.47687">
        <ele>9.3</ele>
        <time>2021-04-04T07:50:36Z</time>
      </trkpt>
      <trkpt lat="49.32702" lon="-0.47689">
        <ele>9.4</ele>
        <time>2021-04-04T07:50:37Z</time>
      </trkpt>
      <trkpt lat="49.32695" lon="-0.47698">
        <ele>9.6</ele>
        <time>2021-04-04T07:50:40Z</time>
      </trkpt>
      <trkpt lat="49.32689" lon="-0.47706">
        <ele>9.7</ele>
        <time>2021-04-04T07:50:43Z</time>
      </trkpt>
      <trkpt lat="49.32685" lon="-0.47712">
        <ele>9.8</ele>
        <time>2021-04-04T07:50:45Z</time>
      </trkpt>
      <trkpt lat="49.32683" lon="-0.47715">
        <ele>9.9</ele>
        <time>2021-04-04T07:50:46Z</time>
      </trkpt>
      <trkpt lat="49.32672" lon="-0.4773">
        <ele>10.1</ele>
        <time>2021-04-04T07:50:51Z</time>
      </trkpt>
      <trkpt lat="49.32666" lon="-0.47738">
        <ele>10.3</ele>
        <time>2021-04-04T07:50:54Z</time>
      </trkpt>
      <trkpt lat="49.32662" lon="-0.47744">
        <ele>10.4</ele>
        <time>2021-04-04T07:50:56Z</time>
      </trkpt>
      <trkpt lat="49.32657" lon="-0.4775">
        <ele>10.5</ele>
        <time>2021-04-04T07:50:58Z</time>
      </trkpt>
      <trkpt lat="49.32643" lon="-0.4777">
        <ele>10.9</ele>
        <time>2021-04-04T07:51:05Z</time>
      </trkpt>
      <trkpt lat="49.32629" lon="-0.47791">
        <ele>11.4</ele>
        <time>2021-04-04T07:51:12Z</time>
      </trkpt>
      <trkpt lat="49.32626" lon="-0.47794">
        <ele>11.4</ele>
        <time>2021-04-04T07:51:13Z</time>
      </trkpt>
      <trkpt lat="49.32611" lon="-0.47812">
        <ele>11.9</ele>
        <time>2021-04-04T07:51:20Z</time>
      </trkpt>
      <trkpt lat="49.32604" lon="-0.4782">
        <ele>12.2</ele>
        <time>2021-04-04T07:51:23Z</time>
      </trkpt>
      <trkpt lat="49.32589" lon="-0.47838">
        <ele>12.8</ele>
        <time>2021-04-04T07:51:30Z</time>
      </trkpt>
      <trkpt lat="49.32583" lon="-0.47846">
        <ele>13.1</ele>
        <time>2021-04-04T07:51:33Z</time>
      </trkpt>
      <trkpt lat="49.32569" lon="-0.47866">
        <ele>13.8</ele>
        <time>2021-04-04T07:51:40Z</time>
      </trkpt>
      <trkpt lat="49.32561" lon="-0.47882">
        <ele>14.3</ele>
        <time>2021-04-04T07:51:45Z</time>
      </trkpt>
      <trkpt lat="49.3255" lon="-0.47907">
        <ele>14.9</ele>
        <time>2021-04-04T07:51:52Z</time>
      </trkpt>
      <trkpt lat="49.32545" lon="-0.47917">
        <ele>15.1</ele>
        <time>2021-04-04T07:51:55Z</time>
      </trkpt>
      <trkpt lat="49.32536" lon="-0.47943">
        <ele>15.6</ele>
        <time>2021-04-04T07:52:02Z</time>
      </trkpt>
      <trkpt lat="49.32535" lon="-0.47947">
        <ele>15.6</ele>
        <time>2021-04-04T07:52:03Z</time>
      </trkpt>
      <trkpt lat="49.32527" lon="-0.47972">
        <ele>16.1</ele>
        <time>2021-04-04T07:52:10Z</time>
      </trkpt>
      <trkpt lat="49.32526" lon="-0.47976">
        <ele>16.1</ele>
        <time>2021-04-04T07:52:11Z</time>
      </trkpt>
      <trkpt lat="49.32516" lon="-0.48001">
        <ele>16.5</ele>
        <time>2021-04-04T07:52:18Z</time>
      </trkpt>
      <trkpt lat="49.32514" lon="-0.48008">
        <ele>16.6</ele>
        <time>2021-04-04T07:52:20Z</time>
      </trkpt>
      <trkpt lat="49.32505" lon="-0.48034">
        <ele>17.1</ele>
        <time>2021-04-04T07:52:27Z</time>
      </trkpt>
      <trkpt lat="49.32502" lon="-0.48046">
        <ele>17.2</ele>
        <time>2021-04-04T07:52:30Z</time>
      </trkpt>
      <trkpt lat="49.32496" lon="-0.48064">
        <ele>17.5</ele>
        <time>2021-04-04T07:52:35Z</time>
      </trkpt>
      <trkpt lat="49.32491" lon="-0.48079">
        <ele>17.8</ele>
        <time>2021-04-04T07:52:39Z</time>
      </trkpt>
      <trkpt lat="49.32481" lon="-0.48105">
        <ele>18.3</ele>
        <time>2021-04-04T07:52:46Z</time>
      </trkpt>
      <trkpt lat="49.32478" lon="-0.48116">
        <ele>18.5</ele>
        <time>2021-04-04T07:52:49Z</time>
      </trkpt>
      <trkpt lat="49.32471" lon="-0.48137">
        <ele>18.9</ele>
        <time>2021-04-04T07:52:55Z</time>
      </trkpt>
      <trkpt lat="49.3247" lon="-0.48141">
        <ele>19</ele>
        <time>2021-04-04T07:52:56Z</time>
      </trkpt>
      <trkpt lat="49.32461" lon="-0.48166">
        <ele>19.5</ele>
        <time>2021-04-04T07:53:03Z</time>
      </trkpt>
      <trkpt lat="49.32459" lon="-0.4817">
        <ele>19.6</ele>
        <time>2021-04-04T07:53:04Z</time>
      </trkpt>
      <trkpt lat="49.32449" lon="-0.48194">
        <ele>20.1</ele>
        <time>2021-04-04T07:53:11Z</time>
      </trkpt>
      <trkpt lat="49.32447" lon="-0.48201">
        <ele>20.3</ele>
        <time>2021-04-04T07:53:13Z</time>
      </trkpt>
      <trkpt lat="49.32437" lon="-0.48226">
        <ele>20.7</ele>
        <time>2021-04-04T07:53:20Z</time>
      </trkpt>
      <trkpt lat="49.32435" lon="-0.4823">
        <ele>20.8</ele>
        <time>2021-04-04T07:53:21Z</time>
      </trkpt>
      <trkpt lat="49.32425" lon="-0.48254">
        <ele>21.2</ele>
        <time>2021-04-04T07:53:28Z</time>
      </trkpt>
      <trkpt lat="49.32422" lon="-0.48262">
        <ele>21.3</ele>
        <time>2021-04-04T07:53:30Z</time>
      </trkpt>
      <trkpt lat="49.32414" lon="-0.48287">
        <ele>21.7</ele>
        <time>2021-04-04T07:53:37Z</time>
      </trkpt>
      <trkpt lat="49.32404" lon="-0.48311">
        <ele>22.1</ele>
        <time>2021-04-04T07:53:44Z</time>
      </trkpt>
      <trkpt lat="49.3239" lon="-0.48331">
        <ele>22.4</ele>
        <time>2021-04-04T07:53:51Z</time>
      </trkpt>
      <trkpt lat="49.32384" lon="-0.4834">
        <ele>22.6</ele>
        <time>2021-04-04T07:53:54Z</time>
      </trkpt>
      <trkpt lat="49.3237" lon="-0.48361">
        <ele>23.1</ele>
        <time>2021-04-04T07:54:01Z</time>
      </trkpt>
      <trkpt lat="49.32365" lon="-0.4837">
        <ele>23.4</ele>
        <time>2021-04-04T07:54:04Z</time>
      </trkpt>
      <trkpt lat="49.32351" lon="-0.48391">
        <ele>23.9</ele>
        <time>2021-04-04T07:54:11Z</time>
      </trkpt>
      <trkpt lat="49.32349" lon="-0.48394">
        <ele>24</ele>
        <time>2021-04-04T07:54:12Z</time>
      </trkpt>
      <trkpt lat="49.32336" lon="-0.48416">
        <ele>24.8</ele>
        <time>2021-04-04T07:54:19Z</time>
      </trkpt>
      <trkpt lat="49.32334" lon="-0.48418">
        <ele>25</ele>
        <time>2021-04-04T07:54:20Z</time>
      </trkpt>
      <trkpt lat="49.32321" lon="-0.48439">
        <ele>25.8</ele>
        <time>2021-04-04T07:54:27Z</time>
      </trkpt>
      <trkpt lat="49.32318" lon="-0.48444">
        <ele>26</ele>
        <time>2021-04-04T07:54:29Z</time>
      </trkpt>
      <trkpt lat="49.32305" lon="-0.48466">
        <ele>26.9</ele>
        <time>2021-04-04T07:54:37Z</time>
      </trkpt>
      <trkpt lat="49.32292" lon="-0.48487">
        <ele>27.7</ele>
        <time>2021-04-04T07:54:44Z</time>
      </trkpt>
      <trkpt lat="49.32286" lon="-0.48496">
        <ele>28.1</ele>
        <time>2021-04-04T07:54:47Z</time>
      </trkpt>
      <trkpt lat="49.32274" lon="-0.48517">
        <ele>28.8</ele>
        <time>2021-04-04T07:54:54Z</time>
      </trkpt>
      <trkpt lat="49.32267" lon="-0.48529">
        <ele>29.2</ele>
        <time>2021-04-04T07:54:58Z</time>
      </trkpt>
      <trkpt lat="49.32254" lon="-0.4855">
        <ele>29.8</ele>
        <time>2021-04-04T07:55:05Z</time>
      </trkpt>
      <trkpt lat="49.3225" lon="-0.48556">
        <ele>30</ele>
        <time>2021-04-04T07:55:07Z</time>
      </trkpt>
      <trkpt lat="49.32237" lon="-0.48577">
        <ele>30.6</ele>
        <time>2021-04-04T07:55:14Z</time>
      </trkpt>
      <trkpt lat="49.32229" lon="-0.48588">
        <ele>30.9</ele>
        <time>2021-04-04T07:55:18Z</time>
      </trkpt>
      <trkpt lat="49.32216" lon="-0.4861">
        <ele>31.4</ele>
        <time>2021-04-04T07:55:25Z</time>
      </trkpt>
      <trkpt lat="49.32215" lon="-0.48613">
        <ele>31.5</ele>
        <time>2021-04-04T07:55:26Z</time>
      </trkpt>
      <trkpt lat="49.32201" lon="-0.48633">
        <ele>32</ele>
        <time>2021-04-04T07:55:33Z</time>
      </trkpt>
      <trkpt lat="49.32197" lon="-0.48639">
        <ele>32.2</ele>
        <time>2021-04-04T07:55:35Z</time>
      </trkpt>
      <trkpt lat="49.32184" lon="-0.4866">
        <ele>32.6</ele>
        <time>2021-04-04T07:55:42Z</time>
      </trkpt>
      <trkpt lat="49.32179" lon="-0.48669">
        <ele>32.8</ele>
        <time>2021-04-04T07:55:45Z</time>
      </trkpt>
      <trkpt lat="49.32172" lon="-0.48681">
        <ele>33.1</ele>
        <time>2021-04-04T07:55:49Z</time>
      </trkpt>
      <trkpt lat="49.32164" lon="-0.48694">
        <ele>33.3</ele>
        <time>2021-04-04T07:55:53Z</time>
      </trkpt>
      <trkpt lat="49.32151" lon="-0.48715">
        <ele>33.7</ele>
        <time>2021-04-04T07:56:00Z</time>
      </trkpt>
      <trkpt lat="49.32141" lon="-0.4873">
        <ele>33.9</ele>
        <time>2021-04-04T07:56:05Z</time>
      </trkpt>
      <trkpt lat="49.32128" lon="-0.48753">
        <ele>34.2</ele>
        <time>2021-04-04T07:56:12Z</time>
      </trkpt>
      <trkpt lat="49.32119" lon="-0.48767">
        <ele>34.4</ele>
        <time>2021-04-04T07:56:17Z</time>
      </trkpt>
      <trkpt lat="49.32106" lon="-0.48788">
        <ele>34.8</ele>
        <time>2021-04-04T07:56:24Z</time>
      </trkpt>
      <trkpt lat="49.32102" lon="-0.48794">
        <ele>34.9</ele>
        <time>2021-04-04T07:56:26Z</time>
      </trkpt>
      <trkpt lat="49.32089" lon="-0.48815">
        <ele>35.2</ele>
        <time>2021-04-04T07:56:33Z</time>
      </trkpt>
      <trkpt lat="49.32082" lon="-0.48827">
        <ele>35.4</ele>
        <time>2021-04-04T07:56:37Z</time>
      </trkpt>
      <trkpt lat="49.32074" lon="-0.48839">
        <ele>35.6</ele>
        <time>2021-04-04T07:56:41Z</time>
      </trkpt>
      <trkpt lat="49.32065" lon="-0.48853">
        <ele>35.9</ele>
        <time>2021-04-04T07:56:46Z</time>
      </trkpt>
      <trkpt lat="49.32063" lon="-0.48856">
        <ele>35.9</ele>
        <time>2021-04-04T07:56:47Z</time>
      </trkpt>
      <trkpt lat="49.3205" lon="-0.48877">
        <ele>36.3</ele>
        <time>2021-04-04T07:56:54Z</time>
      </trkpt>
      <trkpt lat="49.32046" lon="-0.48883">
        <ele>36.4</ele>
        <time>2021-04-04T07:56:56Z</time>
      </trkpt>
      <trkpt lat="49.32033" lon="-0.48904">
        <ele>36.8</ele>
        <time>2021-04-04T07:57:03Z</time>
      </trkpt>
      <trkpt lat="49.32023" lon="-0.4892">
        <ele>37</ele>
        <time>2021-04-04T07:57:08Z</time>
      </trkpt>
      <trkpt lat="49.3201" lon="-0.48941">
        <ele>37.4</ele>
        <time>2021-04-04T07:57:15Z</time>
      </trkpt>
      <trkpt lat="49.32006" lon="-0.48947">
        <ele>37.6</ele>
        <time>2021-04-04T07:57:17Z</time>
      </trkpt>
      <trkpt lat="49.31992" lon="-0.48968">
        <ele>38</ele>
        <time>2021-04-04T07:57:24Z</time>
      </trkpt>
      <trkpt lat="49.31985" lon="-0.48981">
        <ele>38.2</ele>
        <time>2021-04-04T07:57:28Z</time>
      </trkpt>
      <trkpt lat="49.31971" lon="-0.49004">
        <ele>38.7</ele>
        <time>2021-04-04T07:57:36Z</time>
      </trkpt>
      <trkpt lat="49.31969" lon="-0.49006">
        <ele>38.7</ele>
        <time>2021-04-04T07:57:37Z</time>
      </trkpt>
      <trkpt lat="49.31955" lon="-0.49027">
        <ele>39.2</ele>
        <time>2021-04-04T07:57:44Z</time>
      </trkpt>
      <trkpt lat="49.3195" lon="-0.49037">
        <ele>39.3</ele>
        <time>2021-04-04T07:57:47Z</time>
      </trkpt>
      <trkpt lat="49.31937" lon="-0.49055">
        <ele>39.7</ele>
        <time>2021-04-04T07:57:54Z</time>
      </trkpt>
      <trkpt lat="49.31934" lon="-0.49061">
        <ele>39.7</ele>
        <time>2021-04-04T07:57:56Z</time>
      </trkpt>
      <trkpt lat="49.3192" lon="-0.49083">
        <ele>40.1</ele>
        <time>2021-04-04T07:58:03Z</time>
      </trkpt>
      <trkpt lat="49.31918" lon="-0.49085">
        <ele>40.1</ele>
        <time>2021-04-04T07:58:04Z</time>
      </trkpt>
      <trkpt lat="49.31911" lon="-0.49096">
        <ele>40.3</ele>
        <time>2021-04-04T07:58:08Z</time>
      </trkpt>
      <trkpt lat="49.31903" lon="-0.4911">
        <ele>40.4</ele>
        <time>2021-04-04T07:58:13Z</time>
      </trkpt>
      <trkpt lat="49.31896" lon="-0.49118">
        <ele>40.6</ele>
        <time>2021-04-04T07:58:17Z</time>
      </trkpt>
      <trkpt lat="49.31891" lon="-0.49123">
        <ele>40.7</ele>
        <time>2021-04-04T07:58:20Z</time>
      </trkpt>
      <trkpt lat="49.31887" lon="-0.49116">
        <ele>40.8</ele>
        <time>2021-04-04T07:58:23Z</time>
      </trkpt>
      <trkpt lat="49.31885" lon="-0.49109">
        <ele>40.9</ele>
        <time>2021-04-04T07:58:26Z</time>
      </trkpt>
      <trkpt lat="49.31885" lon="-0.49109">
        <ele>40.9</ele>
        <time>2021-04-04T07:58:28Z</time>
      </trkpt>
      <trkpt lat="49.31886" lon="-0.49111">
        <ele>40.9</ele>
        <time>2021-04-04T07:58:30Z</time>
      </trkpt>
      <trkpt lat="49.31886" lon="-0.49112">
        <ele>40.9</ele>
        <time>2021-04-04T07:58:32Z</time>
      </trkpt>
      <trkpt lat="49.31888" lon="-0.49116">
        <ele>41</ele>
        <time>2021-04-04T07:58:35Z</time>
      </trkpt>
      <trkpt lat="49.31889" lon="-0.4912">
        <ele>41.1</ele>
        <time>2021-04-04T07:58:36Z</time>
      </trkpt>
      <trkpt lat="49.31887" lon="-0.49136">
        <ele>41.2</ele>
        <time>2021-04-04T07:58:40Z</time>
      </trkpt>
      <trkpt lat="49.31877" lon="-0.49156">
        <ele>41.3</ele>
        <time>2021-04-04T07:58:46Z</time>
      </trkpt>
      <trkpt lat="49.31863" lon="-0.49178">
        <ele>41.4</ele>
        <time>2021-04-04T07:58:53Z</time>
      </trkpt>
      <trkpt lat="49.31861" lon="-0.49181">
        <ele>41.5</ele>
        <time>2021-04-04T07:58:54Z</time>
      </trkpt>
      <trkpt lat="49.31847" lon="-0.49204">
        <ele>41.7</ele>
        <time>2021-04-04T07:59:01Z</time>
      </trkpt>
      <trkpt lat="49.31833" lon="-0.49227">
        <ele>41.9</ele>
        <time>2021-04-04T07:59:08Z</time>
      </trkpt>
      <trkpt lat="49.31829" lon="-0.49233">
        <ele>42</ele>
        <time>2021-04-04T07:59:10Z</time>
      </trkpt>
      <trkpt lat="49.31823" lon="-0.49243">
        <ele>42.1</ele>
        <time>2021-04-04T07:59:13Z</time>
      </trkpt>
      <trkpt lat="49.31811" lon="-0.49262">
        <ele>42.2</ele>
        <time>2021-04-04T07:59:19Z</time>
      </trkpt>
      <trkpt lat="49.31804" lon="-0.49271">
        <ele>42.3</ele>
        <time>2021-04-04T07:59:22Z</time>
      </trkpt>
      <trkpt lat="49.31792" lon="-0.49291">
        <ele>42.4</ele>
        <time>2021-04-04T07:59:28Z</time>
      </trkpt>
      <trkpt lat="49.3179" lon="-0.49294">
        <ele>42.4</ele>
        <time>2021-04-04T07:59:29Z</time>
      </trkpt>
      <trkpt lat="49.31776" lon="-0.49316">
        <ele>42.5</ele>
        <time>2021-04-04T07:59:36Z</time>
      </trkpt>
      <trkpt lat="49.31774" lon="-0.4932">
        <ele>42.5</ele>
        <time>2021-04-04T07:59:37Z</time>
      </trkpt>
      <trkpt lat="49.3176" lon="-0.49342">
        <ele>42.6</ele>
        <time>2021-04-04T07:59:44Z</time>
      </trkpt>
      <trkpt lat="49.31758" lon="-0.49345">
        <ele>42.6</ele>
        <time>2021-04-04T07:59:45Z</time>
      </trkpt>
      <trkpt lat="49.31745" lon="-0.49366">
        <ele>42.7</ele>
        <time>2021-04-04T07:59:52Z</time>
      </trkpt>
      <trkpt lat="49.31743" lon="-0.49369">
        <ele>42.8</ele>
        <time>2021-04-04T07:59:53Z</time>
      </trkpt>
      <trkpt lat="49.31729" lon="-0.49392">
        <ele>42.9</ele>
        <time>2021-04-04T08:00:00Z</time>
      </trkpt>
      <trkpt lat="49.31726" lon="-0.49397">
        <ele>43</ele>
        <time>2021-04-04T08:00:02Z</time>
      </trkpt>
      <trkpt lat="49.31713" lon="-0.49419">
        <ele>43.2</ele>
        <time>2021-04-04T08:00:09Z</time>
      </trkpt>
      <trkpt lat="49.31709" lon="-0.49425">
        <ele>43.3</ele>
        <time>2021-04-04T08:00:11Z</time>
      </trkpt>
      <trkpt lat="49.31695" lon="-0.49447">
        <ele>43.6</ele>
        <time>2021-04-04T08:00:18Z</time>
      </trkpt>
      <trkpt lat="49.31692" lon="-0.49453">
        <ele>43.7</ele>
        <time>2021-04-04T08:00:20Z</time>
      </trkpt>
      <trkpt lat="49.31679" lon="-0.49471">
        <ele>43.9</ele>
        <time>2021-04-04T08:00:26Z</time>
      </trkpt>
      <trkpt lat="49.31667" lon="-0.49492">
        <ele>44.2</ele>
        <time>2021-04-04T08:00:33Z</time>
      </trkpt>
      <trkpt lat="49.31665" lon="-0.49495">
        <ele>44.2</ele>
        <time>2021-04-04T08:00:34Z</time>
      </trkpt>
      <trkpt lat="49.3165" lon="-0.49515">
        <ele>44.5</ele>
        <time>2021-04-04T08:00:41Z</time>
      </trkpt>
      <trkpt lat="49.31648" lon="-0.49518">
        <ele>44.6</ele>
        <time>2021-04-04T08:00:42Z</time>
      </trkpt>
      <trkpt lat="49.31637" lon="-0.4953">
        <ele>44.8</ele>
        <time>2021-04-04T08:00:47Z</time>
      </trkpt>
      <trkpt lat="49.3163" lon="-0.49538">
        <ele>44.9</ele>
        <time>2021-04-04T08:00:50Z</time>
      </trkpt>
      <trkpt lat="49.3162" lon="-0.49551">
        <ele>45.1</ele>
        <time>2021-04-04T08:00:55Z</time>
      </trkpt>
      <trkpt lat="49.31616" lon="-0.49557">
        <ele>45.1</ele>
        <time>2021-04-04T08:00:57Z</time>
      </trkpt>
      <trkpt lat="49.31601" lon="-0.49575">
        <ele>45.4</ele>
        <time>2021-04-04T08:01:04Z</time>
      </trkpt>
      <trkpt lat="49.31591" lon="-0.49589">
        <ele>45.5</ele>
        <time>2021-04-04T08:01:09Z</time>
      </trkpt>
      <trkpt lat="49.31586" lon="-0.49594">
        <ele>45.6</ele>
        <time>2021-04-04T08:01:11Z</time>
      </trkpt>
      <trkpt lat="49.31575" lon="-0.49607">
        <ele>45.8</ele>
        <time>2021-04-04T08:01:16Z</time>
      </trkpt>
      <trkpt lat="49.31571" lon="-0.49612">
        <ele>45.9</ele>
        <time>2021-04-04T08:01:18Z</time>
      </trkpt>
      <trkpt lat="49.31556" lon="-0.49628">
        <ele>46.2</ele>
        <time>2021-04-04T08:01:25Z</time>
      </trkpt>
      <trkpt lat="49.31554" lon="-0.49628">
        <ele>46.2</ele>
        <time>2021-04-04T08:01:26Z</time>
      </trkpt>
      <trkpt lat="49.31548" lon="-0.4962">
        <ele>46.1</ele>
        <time>2021-04-04T08:01:29Z</time>
      </trkpt>
      <trkpt lat="49.31544" lon="-0.49591">
        <ele>46</ele>
        <time>2021-04-04T08:01:36Z</time>
      </trkpt>
      <trkpt lat="49.3154" lon="-0.49561">
        <ele>45.7</ele>
        <time>2021-04-04T08:01:43Z</time>
      </trkpt>
      <trkpt lat="49.31539" lon="-0.49553">
        <ele>45.7</ele>
        <time>2021-04-04T08:01:45Z</time>
      </trkpt>
      <trkpt lat="49.31535" lon="-0.49524">
        <ele>45.6</ele>
        <time>2021-04-04T08:01:52Z</time>
      </trkpt>
      <trkpt lat="49.31535" lon="-0.49515">
        <ele>45.5</ele>
        <time>2021-04-04T08:01:54Z</time>
      </trkpt>
      <trkpt lat="49.31534" lon="-0.49511">
        <ele>45.5</ele>
        <time>2021-04-04T08:01:55Z</time>
      </trkpt>
      <trkpt lat="49.31531" lon="-0.4948">
        <ele>45.2</ele>
        <time>2021-04-04T08:02:02Z</time>
      </trkpt>
      <trkpt lat="49.31527" lon="-0.49451">
        <ele>44.9</ele>
        <time>2021-04-04T08:02:09Z</time>
      </trkpt>
      <trkpt lat="49.31524" lon="-0.4943">
        <ele>44.8</ele>
        <time>2021-04-04T08:02:14Z</time>
      </trkpt>
      <trkpt lat="49.31521" lon="-0.494">
        <ele>44.6</ele>
        <time>2021-04-04T08:02:21Z</time>
      </trkpt>
      <trkpt lat="49.3152" lon="-0.49396">
        <ele>44.6</ele>
        <time>2021-04-04T08:02:22Z</time>
      </trkpt>
      <trkpt lat="49.31518" lon="-0.4938">
        <ele>44.5</ele>
        <time>2021-04-04T08:02:26Z</time>
      </trkpt>
      <trkpt lat="49.31514" lon="-0.49361">
        <ele>44.5</ele>
        <time>2021-04-04T08:02:31Z</time>
      </trkpt>
      <trkpt lat="49.31511" lon="-0.4934">
        <ele>44.5</ele>
        <time>2021-04-04T08:02:36Z</time>
      </trkpt>
      <trkpt lat="49.31508" lon="-0.49323">
        <ele>44.5</ele>
        <time>2021-04-04T08:02:40Z</time>
      </trkpt>
      <trkpt lat="49.31505" lon="-0.49298">
        <ele>44.4</ele>
        <time>2021-04-04T08:02:46Z</time>
      </trkpt>
      <trkpt lat="49.31502" lon="-0.49267">
        <ele>44.2</ele>
        <time>2021-04-04T08:02:53Z</time>
      </trkpt>
      <trkpt lat="49.315" lon="-0.49254">
        <ele>44.1</ele>
        <time>2021-04-04T08:02:56Z</time>
      </trkpt>
      <trkpt lat="49.31496" lon="-0.49223">
        <ele>43.9</ele>
        <time>2021-04-04T08:03:03Z</time>
      </trkpt>
      <trkpt lat="49.31494" lon="-0.4921">
        <ele>43.8</ele>
        <time>2021-04-04T08:03:06Z</time>
      </trkpt>
      <trkpt lat="49.31493" lon="-0.49197">
        <ele>43.7</ele>
        <time>2021-04-04T08:03:09Z</time>
      </trkpt>
      <trkpt lat="49.3149" lon="-0.4917">
        <ele>43.4</ele>
        <time>2021-04-04T08:03:15Z</time>
      </trkpt>
      <trkpt lat="49.31486" lon="-0.4914">
        <ele>43.2</ele>
        <time>2021-04-04T08:03:22Z</time>
      </trkpt>
      <trkpt lat="49.31484" lon="-0.49123">
        <ele>43.1</ele>
        <time>2021-04-04T08:03:26Z</time>
      </trkpt>
      <trkpt lat="49.31482" lon="-0.49111">
        <ele>43</ele>
        <time>2021-04-04T08:03:29Z</time>
      </trkpt>
      <trkpt lat="49.31477" lon="-0.49088">
        <ele>42.8</ele>
        <time>2021-04-04T08:03:35Z</time>
      </trkpt>
      <trkpt lat="49.31472" lon="-0.49069">
        <ele>42.5</ele>
        <time>2021-04-04T08:03:40Z</time>
      </trkpt>
      <trkpt lat="49.31471" lon="-0.49065">
        <ele>42.5</ele>
        <time>2021-04-04T08:03:41Z</time>
      </trkpt>
      <trkpt lat="49.31465" lon="-0.49038">
        <ele>42.1</ele>
        <time>2021-04-04T08:03:48Z</time>
      </trkpt>
      <trkpt lat="49.31463" lon="-0.4903">
        <ele>42</ele>
        <time>2021-04-04T08:03:50Z</time>
      </trkpt>
      <trkpt lat="49.31462" lon="-0.49026">
        <ele>42</ele>
        <time>2021-04-04T08:03:51Z</time>
      </trkpt>
      <trkpt lat="49.31456" lon="-0.49007">
        <ele>41.6</ele>
        <time>2021-04-04T08:03:56Z</time>
      </trkpt>
      <trkpt lat="49.3145" lon="-0.48982">
        <ele>41.2</ele>
        <time>2021-04-04T08:04:02Z</time>
      </trkpt>
      <trkpt lat="49.31444" lon="-0.48952">
        <ele>40.7</ele>
        <time>2021-04-04T08:04:09Z</time>
      </trkpt>
      <trkpt lat="49.31437" lon="-0.48927">
        <ele>40</ele>
        <time>2021-04-04T08:04:15Z</time>
      </trkpt>
      <trkpt lat="49.31431" lon="-0.48899">
        <ele>39.1</ele>
        <time>2021-04-04T08:04:22Z</time>
      </trkpt>
      <trkpt lat="49.31425" lon="-0.48868">
        <ele>38.4</ele>
        <time>2021-04-04T08:04:29Z</time>
      </trkpt>
      <trkpt lat="49.31423" lon="-0.48837">
        <ele>37.9</ele>
        <time>2021-04-04T08:04:36Z</time>
      </trkpt>
      <trkpt lat="49.31423" lon="-0.48833">
        <ele>37.9</ele>
        <time>2021-04-04T08:04:37Z</time>
      </trkpt>
      <trkpt lat="49.3142" lon="-0.48804">
        <ele>37.4</ele>
        <time>2021-04-04T08:04:44Z</time>
      </trkpt>
      <trkpt lat="49.31419" lon="-0.488">
        <ele>37.3</ele>
        <time>2021-04-04T08:04:45Z</time>
      </trkpt>
      <trkpt lat="49.31417" lon="-0.48792">
        <ele>37.2</ele>
        <time>2021-04-04T08:04:47Z</time>
      </trkpt>
      <trkpt lat="49.31409" lon="-0.4878">
        <ele>37</ele>
        <time>2021-04-04T08:04:51Z</time>
      </trkpt>
      <trkpt lat="49.31392" lon="-0.48771">
        <ele>36.6</ele>
        <time>2021-04-04T08:04:58Z</time>
      </trkpt>
      <trkpt lat="49.31382" lon="-0.48771">
        <ele>36.4</ele>
        <time>2021-04-04T08:05:02Z</time>
      </trkpt>
      <trkpt lat="49.31376" lon="-0.48772">
        <ele>36.3</ele>
        <time>2021-04-04T08:05:04Z</time>
      </trkpt>
      <trkpt lat="49.31364" lon="-0.4877">
        <ele>36.2</ele>
        <time>2021-04-04T08:05:09Z</time>
      </trkpt>
      <trkpt lat="49.31351" lon="-0.48765">
        <ele>36.2</ele>
        <time>2021-04-04T08:05:14Z</time>
      </trkpt>
      <trkpt lat="49.31335" lon="-0.48778">
        <ele>36</ele>
        <time>2021-04-04T08:05:20Z</time>
      </trkpt>
      <trkpt lat="49.31318" lon="-0.48795">
        <ele>36</ele>
        <time>2021-04-04T08:05:27Z</time>
      </trkpt>
      <trkpt lat="49.31314" lon="-0.48799">
        <ele>36</ele>
        <time>2021-04-04T08:05:29Z</time>
      </trkpt>
      <trkpt lat="49.31302" lon="-0.48802">
        <ele>36.1</ele>
        <time>2021-04-04T08:05:34Z</time>
      </trkpt>
      <trkpt lat="49.31289" lon="-0.48782">
        <ele>36.3</ele>
        <time>2021-04-04T08:05:40Z</time>
      </trkpt>
      <trkpt lat="49.31279" lon="-0.48759">
        <ele>36.4</ele>
        <time>2021-04-04T08:05:47Z</time>
      </trkpt>
      <trkpt lat="49.3127" lon="-0.48733">
        <ele>35.9</ele>
        <time>2021-04-04T08:05:54Z</time>
      </trkpt>
      <trkpt lat="49.31268" lon="-0.48725">
        <ele>35.8</ele>
        <time>2021-04-04T08:05:56Z</time>
      </trkpt>
      <trkpt lat="49.31262" lon="-0.48698">
        <ele>35.5</ele>
        <time>2021-04-04T08:06:03Z</time>
      </trkpt>
      <trkpt lat="49.31261" lon="-0.48694">
        <ele>35.5</ele>
        <time>2021-04-04T08:06:04Z</time>
      </trkpt>
      <trkpt lat="49.31254" lon="-0.48667">
        <ele>35.6</ele>
        <time>2021-04-04T08:06:11Z</time>
      </trkpt>
      <trkpt lat="49.3125" lon="-0.48646">
        <ele>35.7</ele>
        <time>2021-04-04T08:06:16Z</time>
      </trkpt>
      <trkpt lat="49.31249" lon="-0.48642">
        <ele>35.8</ele>
        <time>2021-04-04T08:06:17Z</time>
      </trkpt>
      <trkpt lat="49.31245" lon="-0.48614">
        <ele>36</ele>
        <time>2021-04-04T08:06:24Z</time>
      </trkpt>
      <trkpt lat="49.31244" lon="-0.48606">
        <ele>36.1</ele>
        <time>2021-04-04T08:06:26Z</time>
      </trkpt>
      <trkpt lat="49.31244" lon="-0.48602">
        <ele>36.1</ele>
        <time>2021-04-04T08:06:27Z</time>
      </trkpt>
      <trkpt lat="49.31243" lon="-0.48582">
        <ele>36.3</ele>
        <time>2021-04-04T08:06:32Z</time>
      </trkpt>
      <trkpt lat="49.31244" lon="-0.48574">
        <ele>36.4</ele>
        <time>2021-04-04T08:06:34Z</time>
      </trkpt>
      <trkpt lat="49.31244" lon="-0.48567">
        <ele>36.4</ele>
        <time>2021-04-04T08:06:36Z</time>
      </trkpt>
      <trkpt lat="49.3124" lon="-0.48544">
        <ele>36.5</ele>
        <time>2021-04-04T08:06:42Z</time>
      </trkpt>
      <trkpt lat="49.31234" lon="-0.48522">
        <ele>36.4</ele>
        <time>2021-04-04T08:06:48Z</time>
      </trkpt>
      <trkpt lat="49.3123" lon="-0.48514">
        <ele>36.4</ele>
        <time>2021-04-04T08:06:51Z</time>
      </trkpt>
      <trkpt lat="49.31225" lon="-0.485">
        <ele>36.3</ele>
        <time>2021-04-04T08:06:55Z</time>
      </trkpt>
      <trkpt lat="49.31217" lon="-0.48483">
        <ele>36.2</ele>
        <time>2021-04-04T08:07:00Z</time>
      </trkpt>
      <trkpt lat="49.31215" lon="-0.4848">
        <ele>36.2</ele>
        <time>2021-04-04T08:07:01Z</time>
      </trkpt>
      <trkpt lat="49.31209" lon="-0.48464">
        <ele>36.1</ele>
        <time>2021-04-04T08:07:05Z</time>
      </trkpt>
      <trkpt lat="49.31207" lon="-0.48453">
        <ele>36</ele>
        <time>2021-04-04T08:07:08Z</time>
      </trkpt>
      <trkpt lat="49.31199" lon="-0.48437">
        <ele>35.9</ele>
        <time>2021-04-04T08:07:13Z</time>
      </trkpt>
      <trkpt lat="49.31188" lon="-0.48416">
        <ele>35.7</ele>
        <time>2021-04-04T08:07:19Z</time>
      </trkpt>
      <trkpt lat="49.31181" lon="-0.48397">
        <ele>35.5</ele>
        <time>2021-04-04T08:07:24Z</time>
      </trkpt>
      <trkpt lat="49.31174" lon="-0.48382">
        <ele>35.2</ele>
        <time>2021-04-04T08:07:28Z</time>
      </trkpt>
      <trkpt lat="49.31167" lon="-0.48368">
        <ele>35</ele>
        <time>2021-04-04T08:07:32Z</time>
      </trkpt>
      <trkpt lat="49.31153" lon="-0.48345">
        <ele>34.6</ele>
        <time>2021-04-04T08:07:39Z</time>
      </trkpt>
      <trkpt lat="49.31147" lon="-0.48328">
        <ele>34.3</ele>
        <time>2021-04-04T08:07:44Z</time>
      </trkpt>
      <trkpt lat="49.31136" lon="-0.48308">
        <ele>33.9</ele>
        <time>2021-04-04T08:07:50Z</time>
      </trkpt>
      <trkpt lat="49.31127" lon="-0.48285">
        <ele>33.3</ele>
        <time>2021-04-04T08:07:56Z</time>
      </trkpt>
      <trkpt lat="49.31125" lon="-0.48282">
        <ele>33.2</ele>
        <time>2021-04-04T08:07:57Z</time>
      </trkpt>
      <trkpt lat="49.31115" lon="-0.48265">
        <ele>32.7</ele>
        <time>2021-04-04T08:08:02Z</time>
      </trkpt>
      <trkpt lat="49.31112" lon="-0.48259">
        <ele>32.5</ele>
        <time>2021-04-04T08:08:04Z</time>
      </trkpt>
      <trkpt lat="49.31103" lon="-0.48237">
        <ele>31.6</ele>
        <time>2021-04-04T08:08:10Z</time>
      </trkpt>
      <trkpt lat="49.31101" lon="-0.48233">
        <ele>31.5</ele>
        <time>2021-04-04T08:08:11Z</time>
      </trkpt>
      <trkpt lat="49.31096" lon="-0.48219">
        <ele>30.8</ele>
        <time>2021-04-04T08:08:15Z</time>
      </trkpt>
      <trkpt lat="49.31093" lon="-0.48211">
        <ele>30.5</ele>
        <time>2021-04-04T08:08:17Z</time>
      </trkpt>
      <trkpt lat="49.31085" lon="-0.48188">
        <ele>29.6</ele>
        <time>2021-04-04T08:08:23Z</time>
      </trkpt>
      <trkpt lat="49.31078" lon="-0.48163">
        <ele>29</ele>
        <time>2021-04-04T08:08:29Z</time>
      </trkpt>
      <trkpt lat="49.31073" lon="-0.48135">
        <ele>28.8</ele>
        <time>2021-04-04T08:08:36Z</time>
      </trkpt>
      <trkpt lat="49.3107" lon="-0.48128">
        <ele>28.7</ele>
        <time>2021-04-04T08:08:38Z</time>
      </trkpt>
      <trkpt lat="49.31062" lon="-0.481">
        <ele>28.8</ele>
        <time>2021-04-04T08:08:45Z</time>
      </trkpt>
      <trkpt lat="49.31061" lon="-0.48097">
        <ele>28.8</ele>
        <time>2021-04-04T08:08:46Z</time>
      </trkpt>
      <trkpt lat="49.31052" lon="-0.4807">
        <ele>28.9</ele>
        <time>2021-04-04T08:08:53Z</time>
      </trkpt>
      <trkpt lat="49.31052" lon="-0.48062">
        <ele>28.8</ele>
        <time>2021-04-04T08:08:55Z</time>
      </trkpt>
      <trkpt lat="49.3105" lon="-0.48031">
        <ele>28.4</ele>
        <time>2021-04-04T08:09:02Z</time>
      </trkpt>
      <trkpt lat="49.3105" lon="-0.48026">
        <ele>28.3</ele>
        <time>2021-04-04T08:09:03Z</time>
      </trkpt>
      <trkpt lat="49.3105" lon="-0.48022">
        <ele>28.2</ele>
        <time>2021-04-04T08:09:04Z</time>
      </trkpt>
      <trkpt lat="49.3105" lon="-0.47998">
        <ele>27.9</ele>
        <time>2021-04-04T08:09:10Z</time>
      </trkpt>
      <trkpt lat="49.3105" lon="-0.47985">
        <ele>27.9</ele>
        <time>2021-04-04T08:09:13Z</time>
      </trkpt>
      <trkpt lat="49.3105" lon="-0.47972">
        <ele>27.8</ele>
        <time>2021-04-04T08:09:16Z</time>
      </trkpt>
      <trkpt lat="49.3105" lon="-0.47969">
        <ele>27.7</ele>
        <time>2021-04-04T08:09:17Z</time>
      </trkpt>
      <trkpt lat="49.31049" lon="-0.47947">
        <ele>27.6</ele>
        <time>2021-04-04T08:09:22Z</time>
      </trkpt>
      <trkpt lat="49.31047" lon="-0.47934">
        <ele>27.4</ele>
        <time>2021-04-04T08:09:25Z</time>
      </trkpt>
      <trkpt lat="49.31041" lon="-0.47908">
        <ele>26.9</ele>
        <time>2021-04-04T08:09:31Z</time>
      </trkpt>
      <trkpt lat="49.31037" lon="-0.47897">
        <ele>26.6</ele>
        <time>2021-04-04T08:09:34Z</time>
      </trkpt>
      <trkpt lat="49.31026" lon="-0.47869">
        <ele>26.1</ele>
        <time>2021-04-04T08:09:41Z</time>
      </trkpt>
      <trkpt lat="49.31017" lon="-0.47841">
        <ele>25.7</ele>
        <time>2021-04-04T08:09:48Z</time>
      </trkpt>
      <trkpt lat="49.31016" lon="-0.47837">
        <ele>25.6</ele>
        <time>2021-04-04T08:09:49Z</time>
      </trkpt>
      <trkpt lat="49.3101" lon="-0.47809">
        <ele>25.2</ele>
        <time>2021-04-04T08:09:56Z</time>
      </trkpt>
      <trkpt lat="49.31009" lon="-0.478">
        <ele>25</ele>
        <time>2021-04-04T08:09:58Z</time>
      </trkpt>
      <trkpt lat="49.31004" lon="-0.47771">
        <ele>24.5</ele>
        <time>2021-04-04T08:10:05Z</time>
      </trkpt>
      <trkpt lat="49.31003" lon="-0.47763">
        <ele>24.4</ele>
        <time>2021-04-04T08:10:07Z</time>
      </trkpt>
      <trkpt lat="49.30998" lon="-0.47733">
        <ele>23.8</ele>
        <time>2021-04-04T08:10:14Z</time>
      </trkpt>
      <trkpt lat="49.30997" lon="-0.47729">
        <ele>23.7</ele>
        <time>2021-04-04T08:10:15Z</time>
      </trkpt>
      <trkpt lat="49.30992" lon="-0.477">
        <ele>23.3</ele>
        <time>2021-04-04T08:10:22Z</time>
      </trkpt>
      <trkpt lat="49.30988" lon="-0.4768">
        <ele>23</ele>
        <time>2021-04-04T08:10:27Z</time>
      </trkpt>
      <trkpt lat="49.30985" lon="-0.47652">
        <ele>22.5</ele>
        <time>2021-04-04T08:10:34Z</time>
      </trkpt>
      <trkpt lat="49.30982" lon="-0.47645">
        <ele>22.4</ele>
        <time>2021-04-04T08:10:36Z</time>
      </trkpt>
      <trkpt lat="49.30978" lon="-0.47643">
        <ele>22.3</ele>
        <time>2021-04-04T08:10:38Z</time>
      </trkpt>
      <trkpt lat="49.30966" lon="-0.47643">
        <ele>21.9</ele>
        <time>2021-04-04T08:10:44Z</time>
      </trkpt>
      <trkpt lat="49.30948" lon="-0.4765">
        <ele>21.4</ele>
        <time>2021-04-04T08:10:51Z</time>
      </trkpt>
      <trkpt lat="49.30938" lon="-0.47653">
        <ele>21.1</ele>
        <time>2021-04-04T08:10:55Z</time>
      </trkpt>
      <trkpt lat="49.30932" lon="-0.47656">
        <ele>20.9</ele>
        <time>2021-04-04T08:10:58Z</time>
      </trkpt>
      <trkpt lat="49.3093" lon="-0.47651">
        <ele>20.8</ele>
        <time>2021-04-04T08:11:02Z</time>
      </trkpt>
      <trkpt lat="49.30935" lon="-0.47638">
        <ele>20.5</ele>
        <time>2021-04-04T08:11:07Z</time>
      </trkpt>
      <trkpt lat="49.30936" lon="-0.47635">
        <ele>20.4</ele>
        <time>2021-04-04T08:11:08Z</time>
      </trkpt>
      <trkpt lat="49.3094" lon="-0.47622">
        <ele>19.9</ele>
        <time>2021-04-04T08:11:12Z</time>
      </trkpt>
      <trkpt lat="49.30947" lon="-0.476">
        <ele>19.1</ele>
        <time>2021-04-04T08:11:18Z</time>
      </trkpt>
      <trkpt lat="49.30951" lon="-0.47589">
        <ele>17.9</ele>
        <time>2021-04-04T08:11:22Z</time>
      </trkpt>
      <trkpt lat="49.30948" lon="-0.47582">
        <ele>17.8</ele>
        <time>2021-04-04T08:11:24Z</time>
      </trkpt>
      <trkpt lat="49.30944" lon="-0.47578">
        <ele>17.6</ele>
        <time>2021-04-04T08:11:26Z</time>
      </trkpt>
      <trkpt lat="49.30941" lon="-0.47578">
        <ele>17.5</ele>
        <time>2021-04-04T08:11:28Z</time>
      </trkpt>
      <trkpt lat="49.30929" lon="-0.47595">
        <ele>16.8</ele>
        <time>2021-04-04T08:11:36Z</time>
      </trkpt>
      <trkpt lat="49.30923" lon="-0.47605">
        <ele>16.3</ele>
        <time>2021-04-04T08:11:40Z</time>
      </trkpt>
      <trkpt lat="49.30918" lon="-0.47614">
        <ele>15.9</ele>
        <time>2021-04-04T08:11:44Z</time>
      </trkpt>
      <trkpt lat="49.30912" lon="-0.47621">
        <ele>15.4</ele>
        <time>2021-04-04T08:11:48Z</time>
      </trkpt>
      <trkpt lat="49.30904" lon="-0.47631">
        <ele>14.8</ele>
        <time>2021-04-04T08:11:51Z</time>
      </trkpt>
      <trkpt lat="49.30892" lon="-0.47651">
        <ele>13.7</ele>
        <time>2021-04-04T08:11:57Z</time>
      </trkpt>
      <trkpt lat="49.30883" lon="-0.47664">
        <ele>13.3</ele>
        <time>2021-04-04T08:12:01Z</time>
      </trkpt>
      <trkpt lat="49.30879" lon="-0.47669">
        <ele>13</ele>
        <time>2021-04-04T08:12:03Z</time>
      </trkpt>
      <trkpt lat="49.30865" lon="-0.47682">
        <ele>12.3</ele>
        <time>2021-04-04T08:12:09Z</time>
      </trkpt>
      <trkpt lat="49.30851" lon="-0.47694">
        <ele>11.5</ele>
        <time>2021-04-04T08:12:16Z</time>
      </trkpt>
      <trkpt lat="49.30836" lon="-0.47713">
        <ele>11</ele>
        <time>2021-04-04T08:12:23Z</time>
      </trkpt>
      <trkpt lat="49.30822" lon="-0.47722">
        <ele>10.9</ele>
        <time>2021-04-04T08:12:29Z</time>
      </trkpt>
      <trkpt lat="49.30805" lon="-0.4773">
        <ele>10.9</ele>
        <time>2021-04-04T08:12:35Z</time>
      </trkpt>
      <trkpt lat="49.30789" lon="-0.47743">
        <ele>10.7</ele>
        <time>2021-04-04T08:12:42Z</time>
      </trkpt>
      <trkpt lat="49.30779" lon="-0.47747">
        <ele>10.6</ele>
        <time>2021-04-04T08:12:46Z</time>
      </trkpt>
      <trkpt lat="49.30773" lon="-0.47753">
        <ele>10.6</ele>
        <time>2021-04-04T08:12:49Z</time>
      </trkpt>
      <trkpt lat="49.30756" lon="-0.47769">
        <ele>10.6</ele>
        <time>2021-04-04T08:12:56Z</time>
      </trkpt>
      <trkpt lat="49.30743" lon="-0.47783">
        <ele>11.1</ele>
        <time>2021-04-04T08:13:02Z</time>
      </trkpt>
      <trkpt lat="49.30728" lon="-0.47803">
        <ele>11.9</ele>
        <time>2021-04-04T08:13:09Z</time>
      </trkpt>
      <trkpt lat="49.30716" lon="-0.47824">
        <ele>12.8</ele>
        <time>2021-04-04T08:13:16Z</time>
      </trkpt>
      <trkpt lat="49.30713" lon="-0.47831">
        <ele>13.1</ele>
        <time>2021-04-04T08:13:18Z</time>
      </trkpt>
      <trkpt lat="49.30699" lon="-0.47851">
        <ele>14.4</ele>
        <time>2021-04-04T08:13:26Z</time>
      </trkpt>
      <trkpt lat="49.30683" lon="-0.47863">
        <ele>15.6</ele>
        <time>2021-04-04T08:13:33Z</time>
      </trkpt>
      <trkpt lat="49.30681" lon="-0.47867">
        <ele>15.8</ele>
        <time>2021-04-04T08:13:34Z</time>
      </trkpt>
      <trkpt lat="49.30676" lon="-0.47891">
        <ele>16.9</ele>
        <time>2021-04-04T08:13:41Z</time>
      </trkpt>
      <trkpt lat="49.30672" lon="-0.47917">
        <ele>18.6</ele>
        <time>2021-04-04T08:13:48Z</time>
      </trkpt>
      <trkpt lat="49.30674" lon="-0.47942">
        <ele>21.2</ele>
        <time>2021-04-04T08:13:55Z</time>
      </trkpt>
      <trkpt lat="49.30642" lon="-0.47946">
        <ele>20.4</ele>
        <time>2021-04-04T08:15:40Z</time>
      </trkpt>
      <trkpt lat="49.3064" lon="-0.47945">
        <ele>20.3</ele>
        <time>2021-04-04T08:15:41Z</time>
      </trkpt>
      <trkpt lat="49.30632" lon="-0.47942">
        <ele>20.2</ele>
        <time>2021-04-04T08:15:44Z</time>
      </trkpt>
      <trkpt lat="49.30626" lon="-0.4794">
        <ele>20</ele>
        <time>2021-04-04T08:15:46Z</time>
      </trkpt>
      <trkpt lat="49.30621" lon="-0.47938">
        <ele>19.9</ele>
        <time>2021-04-04T08:15:48Z</time>
      </trkpt>
      <trkpt lat="49.30618" lon="-0.47937">
        <ele>19.9</ele>
        <time>2021-04-04T08:15:49Z</time>
      </trkpt>
      <trkpt lat="49.30615" lon="-0.47937">
        <ele>19.8</ele>
        <time>2021-04-04T08:15:50Z</time>
      </trkpt>
      <trkpt lat="49.30612" lon="-0.47936">
        <ele>19.8</ele>
        <time>2021-04-04T08:15:51Z</time>
      </trkpt>
      <trkpt lat="49.30607" lon="-0.47933">
        <ele>19.7</ele>
        <time>2021-04-04T08:15:53Z</time>
      </trkpt>
      <trkpt lat="49.30588" lon="-0.47929">
        <ele>19.5</ele>
        <time>2021-04-04T08:15:59Z</time>
      </trkpt>
      <trkpt lat="49.30585" lon="-0.47928">
        <ele>19.4</ele>
        <time>2021-04-04T08:16:00Z</time>
      </trkpt>
      <trkpt lat="49.30565" lon="-0.47919">
        <ele>19.2</ele>
        <time>2021-04-04T08:16:07Z</time>
      </trkpt>
      <trkpt lat="49.30548" lon="-0.47915">
        <ele>19.1</ele>
        <time>2021-04-04T08:16:13Z</time>
      </trkpt>
      <trkpt lat="49.30544" lon="-0.47915">
        <ele>19.1</ele>
        <time>2021-04-04T08:16:15Z</time>
      </trkpt>
      <trkpt lat="49.30541" lon="-0.47917">
        <ele>19.1</ele>
        <time>2021-04-04T08:17:02Z</time>
      </trkpt>
      <trkpt lat="49.30541" lon="-0.47917">
        <ele>19.1</ele>
        <time>2021-04-04T08:17:03Z</time>
      </trkpt>
      <trkpt lat="49.30535" lon="-0.47918">
        <ele>19.1</ele>
        <time>2021-04-04T08:17:06Z</time>
      </trkpt>
      <trkpt lat="49.30531" lon="-0.47919">
        <ele>19.1</ele>
        <time>2021-04-04T08:17:07Z</time>
      </trkpt>
      <trkpt lat="49.30524" lon="-0.47921">
        <ele>19.1</ele>
        <time>2021-04-04T08:17:09Z</time>
      </trkpt>
      <trkpt lat="49.3051" lon="-0.47922">
        <ele>19</ele>
        <time>2021-04-04T08:17:13Z</time>
      </trkpt>
      <trkpt lat="49.30496" lon="-0.47926">
        <ele>18.7</ele>
        <time>2021-04-04T08:17:18Z</time>
      </trkpt>
      <trkpt lat="49.30491" lon="-0.47926">
        <ele>18.6</ele>
        <time>2021-04-04T08:17:20Z</time>
      </trkpt>
      <trkpt lat="49.30478" lon="-0.47928">
        <ele>18.2</ele>
        <time>2021-04-04T08:17:24Z</time>
      </trkpt>
      <trkpt lat="49.30466" lon="-0.47929">
        <ele>17.6</ele>
        <time>2021-04-04T08:17:28Z</time>
      </trkpt>
      <trkpt lat="49.30446" lon="-0.47931">
        <ele>16.6</ele>
        <time>2021-04-04T08:17:34Z</time>
      </trkpt>
      <trkpt lat="49.3044" lon="-0.47931">
        <ele>16.4</ele>
        <time>2021-04-04T08:17:36Z</time>
      </trkpt>
      <trkpt lat="49.3042" lon="-0.47932">
        <ele>15.6</ele>
        <time>2021-04-04T08:17:43Z</time>
      </trkpt>
      <trkpt lat="49.30417" lon="-0.47932">
        <ele>15.5</ele>
        <time>2021-04-04T08:17:44Z</time>
      </trkpt>
      <trkpt lat="49.30402" lon="-0.47932">
        <ele>15</ele>
        <time>2021-04-04T08:17:49Z</time>
      </trkpt>
      <trkpt lat="49.30394" lon="-0.47932">
        <ele>14.7</ele>
        <time>2021-04-04T08:17:52Z</time>
      </trkpt>
      <trkpt lat="49.30379" lon="-0.4793">
        <ele>14.2</ele>
        <time>2021-04-04T08:17:57Z</time>
      </trkpt>
      <trkpt lat="49.3037" lon="-0.47928">
        <ele>13.9</ele>
        <time>2021-04-04T08:18:00Z</time>
      </trkpt>
      <trkpt lat="49.30352" lon="-0.47924">
        <ele>13.4</ele>
        <time>2021-04-04T08:18:06Z</time>
      </trkpt>
      <trkpt lat="49.30346" lon="-0.47922">
        <ele>13.2</ele>
        <time>2021-04-04T08:18:08Z</time>
      </trkpt>
      <trkpt lat="49.3034" lon="-0.4792">
        <ele>13</ele>
        <time>2021-04-04T08:18:10Z</time>
      </trkpt>
      <trkpt lat="49.30321" lon="-0.47914">
        <ele>12.4</ele>
        <time>2021-04-04T08:18:17Z</time>
      </trkpt>
      <trkpt lat="49.30302" lon="-0.4791">
        <ele>11.9</ele>
        <time>2021-04-04T08:18:23Z</time>
      </trkpt>
      <trkpt lat="49.30296" lon="-0.47909">
        <ele>11.8</ele>
        <time>2021-04-04T08:18:25Z</time>
      </trkpt>
      <trkpt lat="49.30275" lon="-0.47906">
        <ele>11.2</ele>
        <time>2021-04-04T08:18:32Z</time>
      </trkpt>
      <trkpt lat="49.30272" lon="-0.47905">
        <ele>11.1</ele>
        <time>2021-04-04T08:18:33Z</time>
      </trkpt>
      <trkpt lat="49.30255" lon="-0.47903">
        <ele>10.7</ele>
        <time>2021-04-04T08:18:39Z</time>
      </trkpt>
      <trkpt lat="49.3024" lon="-0.47903">
        <ele>10.3</ele>
        <time>2021-04-04T08:18:44Z</time>
      </trkpt>
      <trkpt lat="49.30225" lon="-0.47902">
        <ele>10.1</ele>
        <time>2021-04-04T08:18:49Z</time>
      </trkpt>
      <trkpt lat="49.30213" lon="-0.47902">
        <ele>9.9</ele>
        <time>2021-04-04T08:18:53Z</time>
      </trkpt>
      <trkpt lat="49.30196" lon="-0.47902">
        <ele>9.7</ele>
        <time>2021-04-04T08:18:59Z</time>
      </trkpt>
      <trkpt lat="49.30175" lon="-0.47902">
        <ele>9.3</ele>
        <time>2021-04-04T08:19:06Z</time>
      </trkpt>
      <trkpt lat="49.30167" lon="-0.47901">
        <ele>9.2</ele>
        <time>2021-04-04T08:19:09Z</time>
      </trkpt>
      <trkpt lat="49.30149" lon="-0.47901">
        <ele>8.7</ele>
        <time>2021-04-04T08:19:15Z</time>
      </trkpt>
      <trkpt lat="49.30142" lon="-0.47901">
        <ele>8.5</ele>
        <time>2021-04-04T08:19:17Z</time>
      </trkpt>
      <trkpt lat="49.30124" lon="-0.479">
        <ele>8</ele>
        <time>2021-04-04T08:19:23Z</time>
      </trkpt>
      <trkpt lat="49.30106" lon="-0.47899">
        <ele>7.5</ele>
        <time>2021-04-04T08:19:29Z</time>
      </trkpt>
      <trkpt lat="49.30103" lon="-0.47899">
        <ele>7.5</ele>
        <time>2021-04-04T08:19:30Z</time>
      </trkpt>
      <trkpt lat="49.30083" lon="-0.479">
        <ele>7</ele>
        <time>2021-04-04T08:19:37Z</time>
      </trkpt>
      <trkpt lat="49.30063" lon="-0.47902">
        <ele>6.7</ele>
        <time>2021-04-04T08:19:44Z</time>
      </trkpt>
      <trkpt lat="49.3006" lon="-0.47902">
        <ele>6.6</ele>
        <time>2021-04-04T08:19:45Z</time>
      </trkpt>
      <trkpt lat="49.3004" lon="-0.47905">
        <ele>6.3</ele>
        <time>2021-04-04T08:19:52Z</time>
      </trkpt>
      <trkpt lat="49.30037" lon="-0.47906">
        <ele>6.3</ele>
        <time>2021-04-04T08:19:53Z</time>
      </trkpt>
      <trkpt lat="49.30023" lon="-0.47902">
        <ele>6</ele>
        <time>2021-04-04T08:19:59Z</time>
      </trkpt>
      <trkpt lat="49.30021" lon="-0.47887">
        <ele>6</ele>
        <time>2021-04-04T08:20:03Z</time>
      </trkpt>
      <trkpt lat="49.30019" lon="-0.47866">
        <ele>6</ele>
        <time>2021-04-04T08:20:08Z</time>
      </trkpt>
      <trkpt lat="49.30018" lon="-0.47852">
        <ele>6</ele>
        <time>2021-04-04T08:20:11Z</time>
      </trkpt>
      <trkpt lat="49.30015" lon="-0.47822">
        <ele>5.9</ele>
        <time>2021-04-04T08:20:18Z</time>
      </trkpt>
      <trkpt lat="49.30014" lon="-0.47813">
        <ele>5.9</ele>
        <time>2021-04-04T08:20:20Z</time>
      </trkpt>
      <trkpt lat="49.30009" lon="-0.47783">
        <ele>5.9</ele>
        <time>2021-04-04T08:20:27Z</time>
      </trkpt>
      <trkpt lat="49.30008" lon="-0.47752">
        <ele>6.1</ele>
        <time>2021-04-04T08:20:34Z</time>
      </trkpt>
      <trkpt lat="49.30008" lon="-0.47748">
        <ele>6.1</ele>
        <time>2021-04-04T08:20:35Z</time>
      </trkpt>
      <trkpt lat="49.30003" lon="-0.47736">
        <ele>6.1</ele>
        <time>2021-04-04T08:20:39Z</time>
      </trkpt>
      <trkpt lat="49.29985" lon="-0.47728">
        <ele>6.2</ele>
        <time>2021-04-04T08:20:46Z</time>
      </trkpt>
      <trkpt lat="49.29982" lon="-0.47726">
        <ele>6.3</ele>
        <time>2021-04-04T08:20:47Z</time>
      </trkpt>
      <trkpt lat="49.29963" lon="-0.4772">
        <ele>6.6</ele>
        <time>2021-04-04T08:20:54Z</time>
      </trkpt>
      <trkpt lat="49.29946" lon="-0.47713">
        <ele>7.2</ele>
        <time>2021-04-04T08:21:01Z</time>
      </trkpt>
      <trkpt lat="49.29941" lon="-0.4771">
        <ele>7.4</ele>
        <time>2021-04-04T08:21:03Z</time>
      </trkpt>
      <trkpt lat="49.29922" lon="-0.47703">
        <ele>8.3</ele>
        <time>2021-04-04T08:21:11Z</time>
      </trkpt>
      <trkpt lat="49.29905" lon="-0.47698">
        <ele>9.4</ele>
        <time>2021-04-04T08:21:18Z</time>
      </trkpt>
      <trkpt lat="49.29886" lon="-0.47693">
        <ele>10.7</ele>
        <time>2021-04-04T08:21:26Z</time>
      </trkpt>
      <trkpt lat="49.29876" lon="-0.47687">
        <ele>11.4</ele>
        <time>2021-04-04T08:21:30Z</time>
      </trkpt>
      <trkpt lat="49.29868" lon="-0.47683">
        <ele>11.9</ele>
        <time>2021-04-04T08:21:33Z</time>
      </trkpt>
      <trkpt lat="49.29863" lon="-0.47679">
        <ele>12.2</ele>
        <time>2021-04-04T08:21:35Z</time>
      </trkpt>
      <trkpt lat="49.29845" lon="-0.47668">
        <ele>13.5</ele>
        <time>2021-04-04T08:21:43Z</time>
      </trkpt>
      <trkpt lat="49.29829" lon="-0.47655">
        <ele>14.9</ele>
        <time>2021-04-04T08:21:50Z</time>
      </trkpt>
      <trkpt lat="49.29824" lon="-0.47652">
        <ele>15.3</ele>
        <time>2021-04-04T08:21:52Z</time>
      </trkpt>
      <trkpt lat="49.29806" lon="-0.47639">
        <ele>16.7</ele>
        <time>2021-04-04T08:21:59Z</time>
      </trkpt>
      <trkpt lat="49.29789" lon="-0.47627">
        <ele>18.3</ele>
        <time>2021-04-04T08:22:06Z</time>
      </trkpt>
      <trkpt lat="49.29783" lon="-0.47622">
        <ele>18.9</ele>
        <time>2021-04-04T08:22:09Z</time>
      </trkpt>
      <trkpt lat="49.29767" lon="-0.47609">
        <ele>20.3</ele>
        <time>2021-04-04T08:22:16Z</time>
      </trkpt>
      <trkpt lat="49.29762" lon="-0.47604">
        <ele>20.7</ele>
        <time>2021-04-04T08:22:18Z</time>
      </trkpt>
      <trkpt lat="49.29746" lon="-0.47586">
        <ele>22.1</ele>
        <time>2021-04-04T08:22:24Z</time>
      </trkpt>
      <trkpt lat="49.29741" lon="-0.47582">
        <ele>22.6</ele>
        <time>2021-04-04T08:22:26Z</time>
      </trkpt>
      <trkpt lat="49.29732" lon="-0.47572">
        <ele>23.4</ele>
        <time>2021-04-04T08:22:30Z</time>
      </trkpt>
      <trkpt lat="49.29718" lon="-0.47575">
        <ele>23.9</ele>
        <time>2021-04-04T08:23:25Z</time>
      </trkpt>
      <trkpt lat="49.29716" lon="-0.47577">
        <ele>23.8</ele>
        <time>2021-04-04T08:23:26Z</time>
      </trkpt>
      <trkpt lat="49.29705" lon="-0.47587">
        <ele>23</ele>
        <time>2021-04-04T08:23:30Z</time>
      </trkpt>
      <trkpt lat="49.29703" lon="-0.47589">
        <ele>22.8</ele>
        <time>2021-04-04T08:23:31Z</time>
      </trkpt>
      <trkpt lat="49.29696" lon="-0.47599">
        <ele>22.3</ele>
        <time>2021-04-04T08:23:34Z</time>
      </trkpt>
      <trkpt lat="49.2969" lon="-0.47606">
        <ele>21.8</ele>
        <time>2021-04-04T08:23:37Z</time>
      </trkpt>
      <trkpt lat="49.29686" lon="-0.47607">
        <ele>21.6</ele>
        <time>2021-04-04T08:23:38Z</time>
      </trkpt>
      <trkpt lat="49.29669" lon="-0.47622">
        <ele>20.5</ele>
        <time>2021-04-04T08:23:45Z</time>
      </trkpt>
      <trkpt lat="49.29653" lon="-0.4764">
        <ele>19.6</ele>
        <time>2021-04-04T08:23:52Z</time>
      </trkpt>
      <trkpt lat="49.29648" lon="-0.47646">
        <ele>19.3</ele>
        <time>2021-04-04T08:23:54Z</time>
      </trkpt>
      <trkpt lat="49.29643" lon="-0.47652">
        <ele>19.1</ele>
        <time>2021-04-04T08:23:56Z</time>
      </trkpt>
      <trkpt lat="49.29639" lon="-0.47658">
        <ele>18.9</ele>
        <time>2021-04-04T08:23:58Z</time>
      </trkpt>
      <trkpt lat="49.29634" lon="-0.47664">
        <ele>18.8</ele>
        <time>2021-04-04T08:24:00Z</time>
      </trkpt>
      <trkpt lat="49.2963" lon="-0.4767">
        <ele>18.6</ele>
        <time>2021-04-04T08:24:02Z</time>
      </trkpt>
      <trkpt lat="49.29616" lon="-0.47688">
        <ele>18.3</ele>
        <time>2021-04-04T08:24:08Z</time>
      </trkpt>
      <trkpt lat="49.2961" lon="-0.47698">
        <ele>18.1</ele>
        <time>2021-04-04T08:24:11Z</time>
      </trkpt>
      <trkpt lat="49.29596" lon="-0.47721">
        <ele>17.7</ele>
        <time>2021-04-04T08:24:18Z</time>
      </trkpt>
      <trkpt lat="49.29593" lon="-0.47724">
        <ele>17.6</ele>
        <time>2021-04-04T08:24:19Z</time>
      </trkpt>
      <trkpt lat="49.29579" lon="-0.47747">
        <ele>17.3</ele>
        <time>2021-04-04T08:24:26Z</time>
      </trkpt>
      <trkpt lat="49.29578" lon="-0.47751">
        <ele>17.2</ele>
        <time>2021-04-04T08:24:27Z</time>
      </trkpt>
      <trkpt lat="49.29565" lon="-0.47776">
        <ele>16.9</ele>
        <time>2021-04-04T08:24:34Z</time>
      </trkpt>
      <trkpt lat="49.29553" lon="-0.47797">
        <ele>16.7</ele>
        <time>2021-04-04T08:24:40Z</time>
      </trkpt>
      <trkpt lat="49.29542" lon="-0.4782">
        <ele>16.5</ele>
        <time>2021-04-04T08:24:46Z</time>
      </trkpt>
      <trkpt lat="49.29538" lon="-0.47827">
        <ele>16.4</ele>
        <time>2021-04-04T08:24:48Z</time>
      </trkpt>
      <trkpt lat="49.29526" lon="-0.47854">
        <ele>16.4</ele>
        <time>2021-04-04T08:24:55Z</time>
      </trkpt>
      <trkpt lat="49.29523" lon="-0.47862">
        <ele>16.4</ele>
        <time>2021-04-04T08:24:57Z</time>
      </trkpt>
      <trkpt lat="49.29515" lon="-0.47887">
        <ele>16.4</ele>
        <time>2021-04-04T08:25:03Z</time>
      </trkpt>
      <trkpt lat="49.29511" lon="-0.47898">
        <ele>16.5</ele>
        <time>2021-04-04T08:25:06Z</time>
      </trkpt>
      <trkpt lat="49.29507" lon="-0.47914">
        <ele>16.6</ele>
        <time>2021-04-04T08:25:10Z</time>
      </trkpt>
      <trkpt lat="49.29504" lon="-0.47923">
        <ele>16.6</ele>
        <time>2021-04-04T08:25:12Z</time>
      </trkpt>
      <trkpt lat="49.29496" lon="-0.47948">
        <ele>16.7</ele>
        <time>2021-04-04T08:25:18Z</time>
      </trkpt>
      <trkpt lat="49.29492" lon="-0.4796">
        <ele>16.8</ele>
        <time>2021-04-04T08:25:21Z</time>
      </trkpt>
      <trkpt lat="49.29484" lon="-0.47988">
        <ele>17</ele>
        <time>2021-04-04T08:25:28Z</time>
      </trkpt>
      <trkpt lat="49.29483" lon="-0.47992">
        <ele>17</ele>
        <time>2021-04-04T08:25:29Z</time>
      </trkpt>
      <trkpt lat="49.29474" lon="-0.48019">
        <ele>17.2</ele>
        <time>2021-04-04T08:25:36Z</time>
      </trkpt>
      <trkpt lat="49.29473" lon="-0.48023">
        <ele>17.2</ele>
        <time>2021-04-04T08:25:37Z</time>
      </trkpt>
      <trkpt lat="49.29465" lon="-0.48048">
        <ele>17.4</ele>
        <time>2021-04-04T08:25:43Z</time>
      </trkpt>
      <trkpt lat="49.29462" lon="-0.48055">
        <ele>17.5</ele>
        <time>2021-04-04T08:25:45Z</time>
      </trkpt>
      <trkpt lat="49.2946" lon="-0.48063">
        <ele>17.5</ele>
        <time>2021-04-04T08:25:47Z</time>
      </trkpt>
      <trkpt lat="49.29456" lon="-0.48075">
        <ele>17.6</ele>
        <time>2021-04-04T08:25:50Z</time>
      </trkpt>
      <trkpt lat="49.29452" lon="-0.48087">
        <ele>17.7</ele>
        <time>2021-04-04T08:25:53Z</time>
      </trkpt>
      <trkpt lat="49.29442" lon="-0.48114">
        <ele>17.9</ele>
        <time>2021-04-04T08:26:00Z</time>
      </trkpt>
      <trkpt lat="49.29439" lon="-0.48122">
        <ele>17.9</ele>
        <time>2021-04-04T08:26:02Z</time>
      </trkpt>
      <trkpt lat="49.29429" lon="-0.4815">
        <ele>18</ele>
        <time>2021-04-04T08:26:09Z</time>
      </trkpt>
      <trkpt lat="49.29425" lon="-0.48162">
        <ele>18</ele>
        <time>2021-04-04T08:26:12Z</time>
      </trkpt>
      <trkpt lat="49.29416" lon="-0.48189">
        <ele>18.2</ele>
        <time>2021-04-04T08:26:19Z</time>
      </trkpt>
      <trkpt lat="49.29413" lon="-0.48197">
        <ele>18.2</ele>
        <time>2021-04-04T08:26:21Z</time>
      </trkpt>
      <trkpt lat="49.29404" lon="-0.48225">
        <ele>18.2</ele>
        <time>2021-04-04T08:26:28Z</time>
      </trkpt>
      <trkpt lat="49.29402" lon="-0.48229">
        <ele>18.2</ele>
        <time>2021-04-04T08:26:29Z</time>
      </trkpt>
      <trkpt lat="49.29393" lon="-0.48257">
        <ele>18.2</ele>
        <time>2021-04-04T08:26:36Z</time>
      </trkpt>
      <trkpt lat="49.2939" lon="-0.48269">
        <ele>18.2</ele>
        <time>2021-04-04T08:26:39Z</time>
      </trkpt>
      <trkpt lat="49.29382" lon="-0.48297">
        <ele>18</ele>
        <time>2021-04-04T08:26:46Z</time>
      </trkpt>
      <trkpt lat="49.2938" lon="-0.48301">
        <ele>18</ele>
        <time>2021-04-04T08:26:47Z</time>
      </trkpt>
      <trkpt lat="49.29376" lon="-0.48317">
        <ele>17.9</ele>
        <time>2021-04-04T08:26:51Z</time>
      </trkpt>
      <trkpt lat="49.29371" lon="-0.48338">
        <ele>17.7</ele>
        <time>2021-04-04T08:26:56Z</time>
      </trkpt>
      <trkpt lat="49.29365" lon="-0.48365">
        <ele>17.5</ele>
        <time>2021-04-04T08:27:02Z</time>
      </trkpt>
      <trkpt lat="49.29363" lon="-0.48377">
        <ele>17.5</ele>
        <time>2021-04-04T08:27:05Z</time>
      </trkpt>
      <trkpt lat="49.29355" lon="-0.48406">
        <ele>17.4</ele>
        <time>2021-04-04T08:27:12Z</time>
      </trkpt>
      <trkpt lat="49.29348" lon="-0.48436">
        <ele>17.1</ele>
        <time>2021-04-04T08:27:19Z</time>
      </trkpt>
      <trkpt lat="49.29342" lon="-0.48462">
        <ele>16.9</ele>
        <time>2021-04-04T08:27:25Z</time>
      </trkpt>
      <trkpt lat="49.29334" lon="-0.48491">
        <ele>16.6</ele>
        <time>2021-04-04T08:27:32Z</time>
      </trkpt>
      <trkpt lat="49.2933" lon="-0.48504">
        <ele>16.5</ele>
        <time>2021-04-04T08:27:35Z</time>
      </trkpt>
      <trkpt lat="49.29324" lon="-0.48529">
        <ele>16.3</ele>
        <time>2021-04-04T08:27:41Z</time>
      </trkpt>
      <trkpt lat="49.29317" lon="-0.48554">
        <ele>16</ele>
        <time>2021-04-04T08:27:47Z</time>
      </trkpt>
      <trkpt lat="49.29309" lon="-0.48581">
        <ele>15.4</ele>
        <time>2021-04-04T08:27:54Z</time>
      </trkpt>
      <trkpt lat="49.29299" lon="-0.48606">
        <ele>14.6</ele>
        <time>2021-04-04T08:28:01Z</time>
      </trkpt>
      <trkpt lat="49.29297" lon="-0.48609">
        <ele>14.4</ele>
        <time>2021-04-04T08:28:02Z</time>
      </trkpt>
      <trkpt lat="49.29285" lon="-0.48634">
        <ele>13.1</ele>
        <time>2021-04-04T08:28:09Z</time>
      </trkpt>
      <trkpt lat="49.29284" lon="-0.48638">
        <ele>12.8</ele>
        <time>2021-04-04T08:28:10Z</time>
      </trkpt>
      <trkpt lat="49.29274" lon="-0.48661">
        <ele>11.3</ele>
        <time>2021-04-04T08:28:16Z</time>
      </trkpt>
      <trkpt lat="49.29273" lon="-0.48665">
        <ele>11.1</ele>
        <time>2021-04-04T08:28:17Z</time>
      </trkpt>
      <trkpt lat="49.29262" lon="-0.48688">
        <ele>9.5</ele>
        <time>2021-04-04T08:28:24Z</time>
      </trkpt>
      <trkpt lat="49.2926" lon="-0.48694">
        <ele>9.1</ele>
        <time>2021-04-04T08:28:26Z</time>
      </trkpt>
      <trkpt lat="49.29251" lon="-0.4872">
        <ele>7.9</ele>
        <time>2021-04-04T08:28:32Z</time>
      </trkpt>
      <trkpt lat="49.29247" lon="-0.48729">
        <ele>7.7</ele>
        <time>2021-04-04T08:28:34Z</time>
      </trkpt>
      <trkpt lat="49.29242" lon="-0.48741">
        <ele>7.4</ele>
        <time>2021-04-04T08:28:37Z</time>
      </trkpt>
      <trkpt lat="49.29237" lon="-0.48759">
        <ele>7</ele>
        <time>2021-04-04T08:28:41Z</time>
      </trkpt>
      <trkpt lat="49.29234" lon="-0.48782">
        <ele>6.6</ele>
        <time>2021-04-04T08:28:46Z</time>
      </trkpt>
      <trkpt lat="49.29231" lon="-0.48809">
        <ele>6.3</ele>
        <time>2021-04-04T08:28:52Z</time>
      </trkpt>
      <trkpt lat="49.2923" lon="-0.48819">
        <ele>6.2</ele>
        <time>2021-04-04T08:28:54Z</time>
      </trkpt>
      <trkpt lat="49.29229" lon="-0.48847">
        <ele>6</ele>
        <time>2021-04-04T08:29:00Z</time>
      </trkpt>
      <trkpt lat="49.29228" lon="-0.4886">
        <ele>5.9</ele>
        <time>2021-04-04T08:29:03Z</time>
      </trkpt>
      <trkpt lat="49.29227" lon="-0.48892">
        <ele>5.6</ele>
        <time>2021-04-04T08:29:10Z</time>
      </trkpt>
      <trkpt lat="49.29227" lon="-0.489">
        <ele>5.6</ele>
        <time>2021-04-04T08:29:12Z</time>
      </trkpt>
      <trkpt lat="49.29221" lon="-0.4893">
        <ele>5.6</ele>
        <time>2021-04-04T08:29:19Z</time>
      </trkpt>
      <trkpt lat="49.29219" lon="-0.48933">
        <ele>5.6</ele>
        <time>2021-04-04T08:29:20Z</time>
      </trkpt>
      <trkpt lat="49.2921" lon="-0.48959">
        <ele>5.6</ele>
        <time>2021-04-04T08:29:27Z</time>
      </trkpt>
      <trkpt lat="49.29201" lon="-0.48988">
        <ele>5.7</ele>
        <time>2021-04-04T08:29:34Z</time>
      </trkpt>
      <trkpt lat="49.29199" lon="-0.48991">
        <ele>5.7</ele>
        <time>2021-04-04T08:29:35Z</time>
      </trkpt>
      <trkpt lat="49.29182" lon="-0.49005">
        <ele>5.9</ele>
        <time>2021-04-04T08:29:42Z</time>
      </trkpt>
      <trkpt lat="49.29165" lon="-0.49019">
        <ele>6.4</ele>
        <time>2021-04-04T08:29:48Z</time>
      </trkpt>
      <trkpt lat="49.29161" lon="-0.49021">
        <ele>6.5</ele>
        <time>2021-04-04T08:29:49Z</time>
      </trkpt>
      <trkpt lat="49.29145" lon="-0.4903">
        <ele>7.1</ele>
        <time>2021-04-04T08:29:55Z</time>
      </trkpt>
      <trkpt lat="49.29134" lon="-0.49038">
        <ele>7.5</ele>
        <time>2021-04-04T08:30:00Z</time>
      </trkpt>
      <trkpt lat="49.29131" lon="-0.49044">
        <ele>7.8</ele>
        <time>2021-04-04T08:30:02Z</time>
      </trkpt>
      <trkpt lat="49.29128" lon="-0.49057">
        <ele>7.8</ele>
        <time>2021-04-04T08:30:05Z</time>
      </trkpt>
      <trkpt lat="49.29128" lon="-0.49064">
        <ele>7.8</ele>
        <time>2021-04-04T08:30:07Z</time>
      </trkpt>
      <trkpt lat="49.29129" lon="-0.49069">
        <ele>7.9</ele>
        <time>2021-04-04T08:30:08Z</time>
      </trkpt>
      <trkpt lat="49.29131" lon="-0.4908">
        <ele>7.9</ele>
        <time>2021-04-04T08:30:11Z</time>
      </trkpt>
      <trkpt lat="49.29137" lon="-0.49108">
        <ele>8.2</ele>
        <time>2021-04-04T08:30:18Z</time>
      </trkpt>
      <trkpt lat="49.29138" lon="-0.49115">
        <ele>8.3</ele>
        <time>2021-04-04T08:30:20Z</time>
      </trkpt>
      <trkpt lat="49.29142" lon="-0.49144">
        <ele>8.6</ele>
        <time>2021-04-04T08:30:27Z</time>
      </trkpt>
      <trkpt lat="49.29143" lon="-0.49149">
        <ele>8.7</ele>
        <time>2021-04-04T08:30:28Z</time>
      </trkpt>
      <trkpt lat="49.29146" lon="-0.49177">
        <ele>9.1</ele>
        <time>2021-04-04T08:30:35Z</time>
      </trkpt>
      <trkpt lat="49.29146" lon="-0.49201">
        <ele>9.5</ele>
        <time>2021-04-04T08:30:41Z</time>
      </trkpt>
      <trkpt lat="49.29144" lon="-0.49231">
        <ele>10.2</ele>
        <time>2021-04-04T08:30:48Z</time>
      </trkpt>
      <trkpt lat="49.29144" lon="-0.49231">
        <ele>10.2</ele>
        <time>2021-04-04T08:30:49Z</time>
      </trkpt>
      <trkpt lat="49.29143" lon="-0.49262">
        <ele>11</ele>
        <time>2021-04-04T08:30:55Z</time>
      </trkpt>
      <trkpt lat="49.29141" lon="-0.49278">
        <ele>11.5</ele>
        <time>2021-04-04T08:30:59Z</time>
      </trkpt>
      <trkpt lat="49.29141" lon="-0.49308">
        <ele>12.2</ele>
        <time>2021-04-04T08:31:06Z</time>
      </trkpt>
      <trkpt lat="49.29141" lon="-0.49312">
        <ele>12.2</ele>
        <time>2021-04-04T08:31:07Z</time>
      </trkpt>
      <trkpt lat="49.29138" lon="-0.49332">
        <ele>12.5</ele>
        <time>2021-04-04T08:31:12Z</time>
      </trkpt>
      <trkpt lat="49.29133" lon="-0.49361">
        <ele>12.9</ele>
        <time>2021-04-04T08:31:19Z</time>
      </trkpt>
      <trkpt lat="49.2913" lon="-0.49376">
        <ele>13.1</ele>
        <time>2021-04-04T08:31:23Z</time>
      </trkpt>
      <trkpt lat="49.29128" lon="-0.49383">
        <ele>13.3</ele>
        <time>2021-04-04T08:31:25Z</time>
      </trkpt>
      <trkpt lat="49.29124" lon="-0.49395">
        <ele>13.5</ele>
        <time>2021-04-04T08:31:28Z</time>
      </trkpt>
      <trkpt lat="49.29118" lon="-0.49412">
        <ele>13.8</ele>
        <time>2021-04-04T08:31:33Z</time>
      </trkpt>
      <trkpt lat="49.29107" lon="-0.49437">
        <ele>14.3</ele>
        <time>2021-04-04T08:31:40Z</time>
      </trkpt>
      <trkpt lat="49.29098" lon="-0.49462">
        <ele>14.6</ele>
        <time>2021-04-04T08:31:47Z</time>
      </trkpt>
      <trkpt lat="49.29094" lon="-0.4947">
        <ele>14.8</ele>
        <time>2021-04-04T08:31:49Z</time>
      </trkpt>
      <trkpt lat="49.29083" lon="-0.49493">
        <ele>15.3</ele>
        <time>2021-04-04T08:31:56Z</time>
      </trkpt>
      <trkpt lat="49.29069" lon="-0.49513">
        <ele>16</ele>
        <time>2021-04-04T08:32:03Z</time>
      </trkpt>
      <trkpt lat="49.29067" lon="-0.49516">
        <ele>16.1</ele>
        <time>2021-04-04T08:32:04Z</time>
      </trkpt>
      <trkpt lat="49.29061" lon="-0.49533">
        <ele>16.7</ele>
        <time>2021-04-04T08:32:09Z</time>
      </trkpt>
      <trkpt lat="49.29058" lon="-0.49558">
        <ele>17</ele>
        <time>2021-04-04T08:32:15Z</time>
      </trkpt>
      <trkpt lat="49.29056" lon="-0.49586">
        <ele>17.4</ele>
        <time>2021-04-04T08:32:22Z</time>
      </trkpt>
      <trkpt lat="49.29055" lon="-0.49595">
        <ele>17.5</ele>
        <time>2021-04-04T08:32:24Z</time>
      </trkpt>
      <trkpt lat="49.29049" lon="-0.49622">
        <ele>17.7</ele>
        <time>2021-04-04T08:32:31Z</time>
      </trkpt>
      <trkpt lat="49.29048" lon="-0.49626">
        <ele>17.8</ele>
        <time>2021-04-04T08:32:32Z</time>
      </trkpt>
      <trkpt lat="49.29044" lon="-0.49649">
        <ele>18.1</ele>
        <time>2021-04-04T08:32:38Z</time>
      </trkpt>
      <trkpt lat="49.29038" lon="-0.49676">
        <ele>18.7</ele>
        <time>2021-04-04T08:32:45Z</time>
      </trkpt>
      <trkpt lat="49.29038" lon="-0.4968">
        <ele>18.7</ele>
        <time>2021-04-04T08:32:46Z</time>
      </trkpt>
      <trkpt lat="49.29034" lon="-0.49703">
        <ele>19.2</ele>
        <time>2021-04-04T08:32:52Z</time>
      </trkpt>
      <trkpt lat="49.29029" lon="-0.49727">
        <ele>19.7</ele>
        <time>2021-04-04T08:32:58Z</time>
      </trkpt>
      <trkpt lat="49.29023" lon="-0.49754">
        <ele>20.4</ele>
        <time>2021-04-04T08:33:05Z</time>
      </trkpt>
      <trkpt lat="49.29016" lon="-0.49781">
        <ele>21.2</ele>
        <time>2021-04-04T08:33:12Z</time>
      </trkpt>
      <trkpt lat="49.29015" lon="-0.49789">
        <ele>21.3</ele>
        <time>2021-04-04T08:33:14Z</time>
      </trkpt>
      <trkpt lat="49.29009" lon="-0.49819">
        <ele>21.5</ele>
        <time>2021-04-04T08:33:22Z</time>
      </trkpt>
      <trkpt lat="49.29003" lon="-0.49852">
        <ele>21.6</ele>
        <time>2021-04-04T08:33:30Z</time>
      </trkpt>
      <trkpt lat="49.29" lon="-0.49877">
        <ele>21.5</ele>
        <time>2021-04-04T08:33:36Z</time>
      </trkpt>
      <trkpt lat="49.28996" lon="-0.49898">
        <ele>21.4</ele>
        <time>2021-04-04T08:33:41Z</time>
      </trkpt>
      <trkpt lat="49.28996" lon="-0.49907">
        <ele>21.3</ele>
        <time>2021-04-04T08:33:43Z</time>
      </trkpt>
      <trkpt lat="49.28994" lon="-0.49924">
        <ele>21.1</ele>
        <time>2021-04-04T08:33:47Z</time>
      </trkpt>
      <trkpt lat="49.28992" lon="-0.4994">
        <ele>20.8</ele>
        <time>2021-04-04T08:33:51Z</time>
      </trkpt>
      <trkpt lat="49.2899" lon="-0.49961">
        <ele>20.5</ele>
        <time>2021-04-04T08:33:56Z</time>
      </trkpt>
      <trkpt lat="49.28988" lon="-0.49969">
        <ele>20.3</ele>
        <time>2021-04-04T08:33:58Z</time>
      </trkpt>
      <trkpt lat="49.28987" lon="-0.49978">
        <ele>20.2</ele>
        <time>2021-04-04T08:34:00Z</time>
      </trkpt>
      <trkpt lat="49.28986" lon="-0.49983">
        <ele>20.1</ele>
        <time>2021-04-04T08:34:01Z</time>
      </trkpt>
      <trkpt lat="49.28985" lon="-0.49996">
        <ele>20</ele>
        <time>2021-04-04T08:34:04Z</time>
      </trkpt>
      <trkpt lat="49.28981" lon="-0.50026">
        <ele>19.8</ele>
        <time>2021-04-04T08:34:11Z</time>
      </trkpt>
      <trkpt lat="49.2898" lon="-0.50031">
        <ele>19.7</ele>
        <time>2021-04-04T08:34:12Z</time>
      </trkpt>
      <trkpt lat="49.28977" lon="-0.50057">
        <ele>19.5</ele>
        <time>2021-04-04T08:34:19Z</time>
      </trkpt>
      <trkpt lat="49.28973" lon="-0.50086">
        <ele>19.3</ele>
        <time>2021-04-04T08:34:25Z</time>
      </trkpt>
      <trkpt lat="49.28971" lon="-0.50094">
        <ele>19.4</ele>
        <time>2021-04-04T08:34:27Z</time>
      </trkpt>
      <trkpt lat="49.28965" lon="-0.5012">
        <ele>19.4</ele>
        <time>2021-04-04T08:34:33Z</time>
      </trkpt>
      <trkpt lat="49.28963" lon="-0.50128">
        <ele>19.4</ele>
        <time>2021-04-04T08:34:35Z</time>
      </trkpt>
      <trkpt lat="49.2896" lon="-0.50144">
        <ele>19.4</ele>
        <time>2021-04-04T08:34:39Z</time>
      </trkpt>
      <trkpt lat="49.28958" lon="-0.50157">
        <ele>19.4</ele>
        <time>2021-04-04T08:34:42Z</time>
      </trkpt>
      <trkpt lat="49.28953" lon="-0.50185">
        <ele>19.5</ele>
        <time>2021-04-04T08:34:49Z</time>
      </trkpt>
      <trkpt lat="49.28947" lon="-0.50215">
        <ele>19.5</ele>
        <time>2021-04-04T08:34:56Z</time>
      </trkpt>
      <trkpt lat="49.28945" lon="-0.50224">
        <ele>19.5</ele>
        <time>2021-04-04T08:34:58Z</time>
      </trkpt>
      <trkpt lat="49.28941" lon="-0.50252">
        <ele>19.4</ele>
        <time>2021-04-04T08:35:05Z</time>
      </trkpt>
      <trkpt lat="49.28939" lon="-0.50265">
        <ele>19.4</ele>
        <time>2021-04-04T08:35:08Z</time>
      </trkpt>
      <trkpt lat="49.28937" lon="-0.50296">
        <ele>19.5</ele>
        <time>2021-04-04T08:35:15Z</time>
      </trkpt>
      <trkpt lat="49.28937" lon="-0.50309">
        <ele>19.6</ele>
        <time>2021-04-04T08:35:18Z</time>
      </trkpt>
      <trkpt lat="49.28934" lon="-0.5034">
        <ele>19.5</ele>
        <time>2021-04-04T08:35:26Z</time>
      </trkpt>
      <trkpt lat="49.28933" lon="-0.50349">
        <ele>19.4</ele>
        <time>2021-04-04T08:35:27Z</time>
      </trkpt>
      <trkpt lat="49.28929" lon="-0.50379">
        <ele>19.2</ele>
        <time>2021-04-04T08:35:34Z</time>
      </trkpt>
      <trkpt lat="49.28928" lon="-0.50384">
        <ele>19.2</ele>
        <time>2021-04-04T08:35:35Z</time>
      </trkpt>
      <trkpt lat="49.28922" lon="-0.50414">
        <ele>18.6</ele>
        <time>2021-04-04T08:35:43Z</time>
      </trkpt>
      <trkpt lat="49.28915" lon="-0.5044">
        <ele>17.9</ele>
        <time>2021-04-04T08:35:48Z</time>
      </trkpt>
      <trkpt lat="49.28911" lon="-0.5045">
        <ele>17.5</ele>
        <time>2021-04-04T08:35:51Z</time>
      </trkpt>
      <trkpt lat="49.28903" lon="-0.5047">
        <ele>16.1</ele>
        <time>2021-04-04T08:35:57Z</time>
      </trkpt>
      <trkpt lat="49.28894" lon="-0.50494">
        <ele>13.9</ele>
        <time>2021-04-04T08:36:04Z</time>
      </trkpt>
      <trkpt lat="49.28884" lon="-0.50518">
        <ele>12</ele>
        <time>2021-04-04T08:36:10Z</time>
      </trkpt>
      <trkpt lat="49.28875" lon="-0.50538">
        <ele>10.9</ele>
        <time>2021-04-04T08:36:16Z</time>
      </trkpt>
      <trkpt lat="49.28866" lon="-0.50553">
        <ele>10.1</ele>
        <time>2021-04-04T08:36:21Z</time>
      </trkpt>
      <trkpt lat="49.28854" lon="-0.50578">
        <ele>9.1</ele>
        <time>2021-04-04T08:36:28Z</time>
      </trkpt>
      <trkpt lat="49.28852" lon="-0.50581">
        <ele>9</ele>
        <time>2021-04-04T08:36:29Z</time>
      </trkpt>
      <trkpt lat="49.28841" lon="-0.50604">
        <ele>8.3</ele>
        <time>2021-04-04T08:36:36Z</time>
      </trkpt>
      <trkpt lat="49.28841" lon="-0.50604">
        <ele>8.3</ele>
        <time>2021-04-04T08:36:37Z</time>
      </trkpt>
      <trkpt lat="49.28836" lon="-0.50631">
        <ele>7.9</ele>
        <time>2021-04-04T08:36:42Z</time>
      </trkpt>
      <trkpt lat="49.28836" lon="-0.50661">
        <ele>7.6</ele>
        <time>2021-04-04T08:36:48Z</time>
      </trkpt>
      <trkpt lat="49.28836" lon="-0.50671">
        <ele>7.5</ele>
        <time>2021-04-04T08:36:50Z</time>
      </trkpt>
      <trkpt lat="49.28836" lon="-0.507">
        <ele>7</ele>
        <time>2021-04-04T08:36:57Z</time>
      </trkpt>
      <trkpt lat="49.28837" lon="-0.50709">
        <ele>7</ele>
        <time>2021-04-04T08:36:58Z</time>
      </trkpt>
      <trkpt lat="49.28837" lon="-0.50739">
        <ele>6.9</ele>
        <time>2021-04-04T08:37:04Z</time>
      </trkpt>
      <trkpt lat="49.28838" lon="-0.50749">
        <ele>6.8</ele>
        <time>2021-04-04T08:37:06Z</time>
      </trkpt>
      <trkpt lat="49.2884" lon="-0.50771">
        <ele>6.8</ele>
        <time>2021-04-04T08:37:12Z</time>
      </trkpt>
      <trkpt lat="49.28841" lon="-0.50792">
        <ele>7</ele>
        <time>2021-04-04T08:37:17Z</time>
      </trkpt>
      <trkpt lat="49.2884" lon="-0.50823">
        <ele>7.3</ele>
        <time>2021-04-04T08:37:23Z</time>
      </trkpt>
      <trkpt lat="49.2884" lon="-0.50832">
        <ele>7.4</ele>
        <time>2021-04-04T08:37:25Z</time>
      </trkpt>
      <trkpt lat="49.2884" lon="-0.50862">
        <ele>8</ele>
        <time>2021-04-04T08:37:33Z</time>
      </trkpt>
      <trkpt lat="49.28837" lon="-0.5089">
        <ele>8.7</ele>
        <time>2021-04-04T08:37:40Z</time>
      </trkpt>
      <trkpt lat="49.28837" lon="-0.5089">
        <ele>8.7</ele>
        <time>2021-04-04T08:37:41Z</time>
      </trkpt>
      <trkpt lat="49.28837" lon="-0.50917">
        <ele>9.2</ele>
        <time>2021-04-04T08:37:47Z</time>
      </trkpt>
      <trkpt lat="49.28836" lon="-0.5093">
        <ele>9.4</ele>
        <time>2021-04-04T08:37:50Z</time>
      </trkpt>
      <trkpt lat="49.28835" lon="-0.50937">
        <ele>9.5</ele>
        <time>2021-04-04T08:37:53Z</time>
      </trkpt>
      <trkpt lat="49.28836" lon="-0.50953">
        <ele>9.6</ele>
        <time>2021-04-04T08:37:57Z</time>
      </trkpt>
      <trkpt lat="49.28837" lon="-0.50981">
        <ele>9.2</ele>
        <time>2021-04-04T08:38:02Z</time>
      </trkpt>
      <trkpt lat="49.28838" lon="-0.50985">
        <ele>9</ele>
        <time>2021-04-04T08:38:04Z</time>
      </trkpt>
      <trkpt lat="49.28845" lon="-0.51011">
        <ele>7.7</ele>
        <time>2021-04-04T08:38:10Z</time>
      </trkpt>
      <trkpt lat="49.28846" lon="-0.51015">
        <ele>7.6</ele>
        <time>2021-04-04T08:38:11Z</time>
      </trkpt>
      <trkpt lat="49.2885" lon="-0.51045">
        <ele>6.8</ele>
        <time>2021-04-04T08:38:18Z</time>
      </trkpt>
      <trkpt lat="49.2885" lon="-0.51053">
        <ele>6.8</ele>
        <time>2021-04-04T08:38:20Z</time>
      </trkpt>
      <trkpt lat="49.28848" lon="-0.51076">
        <ele>6.7</ele>
        <time>2021-04-04T08:38:25Z</time>
      </trkpt>
      <trkpt lat="49.28842" lon="-0.511">
        <ele>6.6</ele>
        <time>2021-04-04T08:38:32Z</time>
      </trkpt>
      <trkpt lat="49.28838" lon="-0.51128">
        <ele>6.8</ele>
        <time>2021-04-04T08:38:38Z</time>
      </trkpt>
      <trkpt lat="49.28835" lon="-0.51156">
        <ele>7</ele>
        <time>2021-04-04T08:38:44Z</time>
      </trkpt>
      <trkpt lat="49.28834" lon="-0.51161">
        <ele>7.1</ele>
        <time>2021-04-04T08:38:45Z</time>
      </trkpt>
      <trkpt lat="49.2883" lon="-0.51189">
        <ele>7.6</ele>
        <time>2021-04-04T08:38:51Z</time>
      </trkpt>
      <trkpt lat="49.28829" lon="-0.51192">
        <ele>7.6</ele>
        <time>2021-04-04T08:38:52Z</time>
      </trkpt>
      <trkpt lat="49.2883" lon="-0.51216">
        <ele>8</ele>
        <time>2021-04-04T08:38:58Z</time>
      </trkpt>
      <trkpt lat="49.28834" lon="-0.51222">
        <ele>8</ele>
        <time>2021-04-04T08:39:00Z</time>
      </trkpt>
      <trkpt lat="49.28847" lon="-0.51223">
        <ele>8</ele>
        <time>2021-04-04T08:39:05Z</time>
      </trkpt>
      <trkpt lat="49.28867" lon="-0.5122">
        <ele>7.9</ele>
        <time>2021-04-04T08:39:13Z</time>
      </trkpt>
      <trkpt lat="49.2887" lon="-0.51219">
        <ele>7.8</ele>
        <time>2021-04-04T08:39:14Z</time>
      </trkpt>
      <trkpt lat="49.28882" lon="-0.51218">
        <ele>7.7</ele>
        <time>2021-04-04T08:39:17Z</time>
      </trkpt>
      <trkpt lat="49.28896" lon="-0.51217">
        <ele>7.6</ele>
        <time>2021-04-04T08:39:23Z</time>
      </trkpt>
      <trkpt lat="49.28916" lon="-0.51213">
        <ele>7.3</ele>
        <time>2021-04-04T08:39:31Z</time>
      </trkpt>
      <trkpt lat="49.28922" lon="-0.51211">
        <ele>7.3</ele>
        <time>2021-04-04T08:39:33Z</time>
      </trkpt>
      <trkpt lat="49.28941" lon="-0.5121">
        <ele>7.2</ele>
        <time>2021-04-04T08:39:39Z</time>
      </trkpt>
      <trkpt lat="49.28949" lon="-0.51208">
        <ele>7.1</ele>
        <time>2021-04-04T08:39:43Z</time>
      </trkpt>
      <trkpt lat="49.28963" lon="-0.51207">
        <ele>7.1</ele>
        <time>2021-04-04T08:39:47Z</time>
      </trkpt>
      <trkpt lat="49.28978" lon="-0.51206">
        <ele>6.9</ele>
        <time>2021-04-04T08:39:52Z</time>
      </trkpt>
      <trkpt lat="49.28992" lon="-0.51204">
        <ele>6.8</ele>
        <time>2021-04-04T08:39:57Z</time>
      </trkpt>
      <trkpt lat="49.28999" lon="-0.51204">
        <ele>6.8</ele>
        <time>2021-04-04T08:40:00Z</time>
      </trkpt>
      <trkpt lat="49.29017" lon="-0.51203">
        <ele>6.8</ele>
        <time>2021-04-04T08:40:06Z</time>
      </trkpt>
      <trkpt lat="49.29031" lon="-0.51194">
        <ele>6.7</ele>
        <time>2021-04-04T08:40:13Z</time>
      </trkpt>
      <trkpt lat="49.29047" lon="-0.51186">
        <ele>6.7</ele>
        <time>2021-04-04T08:40:19Z</time>
      </trkpt>
      <trkpt lat="49.29065" lon="-0.51181">
        <ele>6.8</ele>
        <time>2021-04-04T08:40:25Z</time>
      </trkpt>
      <trkpt lat="49.29068" lon="-0.5118">
        <ele>6.8</ele>
        <time>2021-04-04T08:40:26Z</time>
      </trkpt>
      <trkpt lat="49.29088" lon="-0.51173">
        <ele>6.7</ele>
        <time>2021-04-04T08:40:34Z</time>
      </trkpt>
      <trkpt lat="49.29106" lon="-0.51168">
        <ele>6.7</ele>
        <time>2021-04-04T08:40:40Z</time>
      </trkpt>
      <trkpt lat="49.29112" lon="-0.51167">
        <ele>6.7</ele>
        <time>2021-04-04T08:40:42Z</time>
      </trkpt>
      <trkpt lat="49.2913" lon="-0.51164">
        <ele>6.7</ele>
        <time>2021-04-04T08:40:47Z</time>
      </trkpt>
      <trkpt lat="49.29148" lon="-0.51169">
        <ele>6.7</ele>
        <time>2021-04-04T08:40:53Z</time>
      </trkpt>
      <trkpt lat="49.29167" lon="-0.51178">
        <ele>6.8</ele>
        <time>2021-04-04T08:41:00Z</time>
      </trkpt>
      <trkpt lat="49.29171" lon="-0.51181">
        <ele>6.9</ele>
        <time>2021-04-04T08:41:02Z</time>
      </trkpt>
      <trkpt lat="49.29187" lon="-0.51188">
        <ele>6.9</ele>
        <time>2021-04-04T08:41:10Z</time>
      </trkpt>
      <trkpt lat="49.29204" lon="-0.512">
        <ele>7</ele>
        <time>2021-04-04T08:41:17Z</time>
      </trkpt>
      <trkpt lat="49.29204" lon="-0.512">
        <ele>7</ele>
        <time>2021-04-04T08:41:18Z</time>
      </trkpt>
      <trkpt lat="49.2922" lon="-0.51214">
        <ele>7.1</ele>
        <time>2021-04-04T08:41:24Z</time>
      </trkpt>
      <trkpt lat="49.29226" lon="-0.51219">
        <ele>7.2</ele>
        <time>2021-04-04T08:41:27Z</time>
      </trkpt>
      <trkpt lat="49.29246" lon="-0.5124">
        <ele>7.2</ele>
        <time>2021-04-04T08:41:34Z</time>
      </trkpt>
      <trkpt lat="49.29251" lon="-0.51246">
        <ele>7.3</ele>
        <time>2021-04-04T08:41:37Z</time>
      </trkpt>
      <trkpt lat="49.29264" lon="-0.51257">
        <ele>7.6</ele>
        <time>2021-04-04T08:41:42Z</time>
      </trkpt>
      <trkpt lat="49.29268" lon="-0.51256">
        <ele>7.6</ele>
        <time>2021-04-04T08:41:43Z</time>
      </trkpt>
      <trkpt lat="49.29273" lon="-0.51251">
        <ele>7.6</ele>
        <time>2021-04-04T08:41:44Z</time>
      </trkpt>
      <trkpt lat="49.29281" lon="-0.51238">
        <ele>7.7</ele>
        <time>2021-04-04T08:41:48Z</time>
      </trkpt>
      <trkpt lat="49.29287" lon="-0.51229">
        <ele>7.8</ele>
        <time>2021-04-04T08:41:52Z</time>
      </trkpt>
      <trkpt lat="49.29308" lon="-0.51191">
        <ele>8.5</ele>
        <time>2021-04-04T08:47:00Z</time>
      </trkpt>
      <trkpt lat="49.29309" lon="-0.51189">
        <ele>8.5</ele>
        <time>2021-04-04T08:47:01Z</time>
      </trkpt>
      <trkpt lat="49.2932" lon="-0.51172">
        <ele>9.1</ele>
        <time>2021-04-04T08:47:07Z</time>
      </trkpt>
      <trkpt lat="49.29322" lon="-0.5117">
        <ele>9.1</ele>
        <time>2021-04-04T08:47:08Z</time>
      </trkpt>
      <trkpt lat="49.29328" lon="-0.51152">
        <ele>9.7</ele>
        <time>2021-04-04T08:47:13Z</time>
      </trkpt>
      <trkpt lat="49.29329" lon="-0.51141">
        <ele>10.1</ele>
        <time>2021-04-04T08:47:16Z</time>
      </trkpt>
      <trkpt lat="49.29329" lon="-0.51135">
        <ele>10.3</ele>
        <time>2021-04-04T08:47:18Z</time>
      </trkpt>
      <trkpt lat="49.29319" lon="-0.51119">
        <ele>11</ele>
        <time>2021-04-04T08:47:23Z</time>
      </trkpt>
      <trkpt lat="49.29311" lon="-0.5111">
        <ele>11.5</ele>
        <time>2021-04-04T08:47:26Z</time>
      </trkpt>
      <trkpt lat="49.29306" lon="-0.51101">
        <ele>11.8</ele>
        <time>2021-04-04T08:47:29Z</time>
      </trkpt>
      <trkpt lat="49.29302" lon="-0.51095">
        <ele>12</ele>
        <time>2021-04-04T08:47:31Z</time>
      </trkpt>
      <trkpt lat="49.29296" lon="-0.51087">
        <ele>12.4</ele>
        <time>2021-04-04T08:47:34Z</time>
      </trkpt>
      <trkpt lat="49.29294" lon="-0.51085">
        <ele>12.6</ele>
        <time>2021-04-04T08:47:35Z</time>
      </trkpt>
      <trkpt lat="49.2929" lon="-0.51075">
        <ele>12.9</ele>
        <time>2021-04-04T08:47:38Z</time>
      </trkpt>
      <trkpt lat="49.29289" lon="-0.51069">
        <ele>15</ele>
        <time>2021-04-04T08:47:40Z</time>
      </trkpt>
      <trkpt lat="49.2929" lon="-0.51066">
        <ele>15.1</ele>
        <time>2021-04-04T08:47:41Z</time>
      </trkpt>
      <trkpt lat="49.29294" lon="-0.51063">
        <ele>15.5</ele>
        <time>2021-04-04T08:47:43Z</time>
      </trkpt>
      <trkpt lat="49.29299" lon="-0.51061">
        <ele>15.9</ele>
        <time>2021-04-04T08:47:45Z</time>
      </trkpt>
      <trkpt lat="49.29318" lon="-0.51053">
        <ele>17.2</ele>
        <time>2021-04-04T08:47:53Z</time>
      </trkpt>
      <trkpt lat="49.29333" lon="-0.51039">
        <ele>18.3</ele>
        <time>2021-04-04T08:48:00Z</time>
      </trkpt>
      <trkpt lat="49.29348" lon="-0.51021">
        <ele>19.3</ele>
        <time>2021-04-04T08:48:08Z</time>
      </trkpt>
      <trkpt lat="49.29365" lon="-0.51005">
        <ele>20.3</ele>
        <time>2021-04-04T08:48:16Z</time>
      </trkpt>
      <trkpt lat="49.29367" lon="-0.51003">
        <ele>20.4</ele>
        <time>2021-04-04T08:48:17Z</time>
      </trkpt>
      <trkpt lat="49.29384" lon="-0.50986">
        <ele>21.3</ele>
        <time>2021-04-04T08:48:25Z</time>
      </trkpt>
      <trkpt lat="49.29399" lon="-0.5097">
        <ele>22.1</ele>
        <time>2021-04-04T08:48:32Z</time>
      </trkpt>
      <trkpt lat="49.29401" lon="-0.50968">
        <ele>22.2</ele>
        <time>2021-04-04T08:48:33Z</time>
      </trkpt>
      <trkpt lat="49.29417" lon="-0.50953">
        <ele>23.3</ele>
        <time>2021-04-04T08:48:40Z</time>
      </trkpt>
      <trkpt lat="49.29425" lon="-0.50945">
        <ele>23.7</ele>
        <time>2021-04-04T08:48:44Z</time>
      </trkpt>
      <trkpt lat="49.29443" lon="-0.50928">
        <ele>24.5</ele>
        <time>2021-04-04T08:48:52Z</time>
      </trkpt>
      <trkpt lat="49.29449" lon="-0.50922">
        <ele>24.8</ele>
        <time>2021-04-04T08:48:55Z</time>
      </trkpt>
      <trkpt lat="49.29464" lon="-0.50906">
        <ele>25.6</ele>
        <time>2021-04-04T08:49:02Z</time>
      </trkpt>
      <trkpt lat="49.2947" lon="-0.50899">
        <ele>26</ele>
        <time>2021-04-04T08:49:05Z</time>
      </trkpt>
      <trkpt lat="49.29484" lon="-0.50884">
        <ele>26.9</ele>
        <time>2021-04-04T08:49:12Z</time>
      </trkpt>
      <trkpt lat="49.29498" lon="-0.50867">
        <ele>27.8</ele>
        <time>2021-04-04T08:49:19Z</time>
      </trkpt>
      <trkpt lat="49.29502" lon="-0.50863">
        <ele>28</ele>
        <time>2021-04-04T08:49:21Z</time>
      </trkpt>
      <trkpt lat="49.29518" lon="-0.50844">
        <ele>28.9</ele>
        <time>2021-04-04T08:49:29Z</time>
      </trkpt>
      <trkpt lat="49.2952" lon="-0.50841">
        <ele>29.1</ele>
        <time>2021-04-04T08:49:30Z</time>
      </trkpt>
      <trkpt lat="49.29533" lon="-0.50827">
        <ele>29.8</ele>
        <time>2021-04-04T08:49:36Z</time>
      </trkpt>
      <trkpt lat="49.29549" lon="-0.50808">
        <ele>30.8</ele>
        <time>2021-04-04T08:49:44Z</time>
      </trkpt>
      <trkpt lat="49.2955" lon="-0.50805">
        <ele>31</ele>
        <time>2021-04-04T08:49:45Z</time>
      </trkpt>
      <trkpt lat="49.29562" lon="-0.50791">
        <ele>31.9</ele>
        <time>2021-04-04T08:49:52Z</time>
      </trkpt>
      <trkpt lat="49.29575" lon="-0.50778">
        <ele>32.7</ele>
        <time>2021-04-04T08:49:58Z</time>
      </trkpt>
      <trkpt lat="49.29587" lon="-0.50765">
        <ele>33.4</ele>
        <time>2021-04-04T08:50:04Z</time>
      </trkpt>
      <trkpt lat="49.29595" lon="-0.50755">
        <ele>33.8</ele>
        <time>2021-04-04T08:50:08Z</time>
      </trkpt>
      <trkpt lat="49.2961" lon="-0.50736">
        <ele>34.7</ele>
        <time>2021-04-04T08:50:15Z</time>
      </trkpt>
      <trkpt lat="49.29627" lon="-0.50717">
        <ele>35.3</ele>
        <time>2021-04-04T08:50:22Z</time>
      </trkpt>
      <trkpt lat="49.29629" lon="-0.50715">
        <ele>35.4</ele>
        <time>2021-04-04T08:50:23Z</time>
      </trkpt>
      <trkpt lat="49.29645" lon="-0.50699">
        <ele>35.9</ele>
        <time>2021-04-04T08:50:30Z</time>
      </trkpt>
      <trkpt lat="49.29651" lon="-0.50691">
        <ele>36</ele>
        <time>2021-04-04T08:50:33Z</time>
      </trkpt>
      <trkpt lat="49.29669" lon="-0.50675">
        <ele>36.9</ele>
        <time>2021-04-04T08:50:41Z</time>
      </trkpt>
      <trkpt lat="49.29671" lon="-0.50673">
        <ele>37</ele>
        <time>2021-04-04T08:50:42Z</time>
      </trkpt>
      <trkpt lat="49.29676" lon="-0.50669">
        <ele>37.2</ele>
        <time>2021-04-04T08:50:44Z</time>
      </trkpt>
      <trkpt lat="49.29732" lon="-0.50669">
        <ele>38.4</ele>
        <time>2021-04-04T08:51:31Z</time>
      </trkpt>
      <trkpt lat="49.29734" lon="-0.50669">
        <ele>38.5</ele>
        <time>2021-04-04T08:51:32Z</time>
      </trkpt>
      <trkpt lat="49.29736" lon="-0.5067">
        <ele>38.5</ele>
        <time>2021-04-04T08:51:33Z</time>
      </trkpt>
      <trkpt lat="49.29739" lon="-0.5067">
        <ele>38.6</ele>
        <time>2021-04-04T08:51:34Z</time>
      </trkpt>
      <trkpt lat="49.29744" lon="-0.50671">
        <ele>38.7</ele>
        <time>2021-04-04T08:51:36Z</time>
      </trkpt>
      <trkpt lat="49.29753" lon="-0.50672">
        <ele>38.9</ele>
        <time>2021-04-04T08:51:39Z</time>
      </trkpt>
      <trkpt lat="49.29773" lon="-0.50675">
        <ele>39.4</ele>
        <time>2021-04-04T08:51:46Z</time>
      </trkpt>
      <trkpt lat="49.29793" lon="-0.50677">
        <ele>39.8</ele>
        <time>2021-04-04T08:51:53Z</time>
      </trkpt>
      <trkpt lat="49.29796" lon="-0.50677">
        <ele>39.8</ele>
        <time>2021-04-04T08:51:54Z</time>
      </trkpt>
      <trkpt lat="49.29806" lon="-0.50678">
        <ele>40.2</ele>
        <time>2021-04-04T08:51:58Z</time>
      </trkpt>
      <trkpt lat="49.2982" lon="-0.5068">
        <ele>40.6</ele>
        <time>2021-04-04T08:52:03Z</time>
      </trkpt>
      <trkpt lat="49.29841" lon="-0.50683">
        <ele>41.1</ele>
        <time>2021-04-04T08:52:10Z</time>
      </trkpt>
      <trkpt lat="49.29846" lon="-0.50684">
        <ele>41.2</ele>
        <time>2021-04-04T08:52:12Z</time>
      </trkpt>
      <trkpt lat="49.29865" lon="-0.50687">
        <ele>41.9</ele>
        <time>2021-04-04T08:52:19Z</time>
      </trkpt>
      <trkpt lat="49.29878" lon="-0.50689">
        <ele>42.3</ele>
        <time>2021-04-04T08:52:24Z</time>
      </trkpt>
      <trkpt lat="49.29897" lon="-0.50692">
        <ele>42.9</ele>
        <time>2021-04-04T08:52:31Z</time>
      </trkpt>
      <trkpt lat="49.299" lon="-0.50692">
        <ele>42.9</ele>
        <time>2021-04-04T08:52:32Z</time>
      </trkpt>
      <trkpt lat="49.29918" lon="-0.50695">
        <ele>43.3</ele>
        <time>2021-04-04T08:52:39Z</time>
      </trkpt>
      <trkpt lat="49.29921" lon="-0.50695">
        <ele>43.4</ele>
        <time>2021-04-04T08:52:40Z</time>
      </trkpt>
      <trkpt lat="49.29941" lon="-0.50697">
        <ele>43.8</ele>
        <time>2021-04-04T08:52:47Z</time>
      </trkpt>
      <trkpt lat="49.29947" lon="-0.50698">
        <ele>44</ele>
        <time>2021-04-04T08:52:49Z</time>
      </trkpt>
      <trkpt lat="49.29966" lon="-0.50701">
        <ele>44.4</ele>
        <time>2021-04-04T08:52:56Z</time>
      </trkpt>
      <trkpt lat="49.29971" lon="-0.50702">
        <ele>44.5</ele>
        <time>2021-04-04T08:52:58Z</time>
      </trkpt>
      <trkpt lat="49.29987" lon="-0.50704">
        <ele>44.9</ele>
        <time>2021-04-04T08:53:04Z</time>
      </trkpt>
      <trkpt lat="49.29994" lon="-0.50705">
        <ele>45</ele>
        <time>2021-04-04T08:53:06Z</time>
      </trkpt>
      <trkpt lat="49.29997" lon="-0.50706">
        <ele>45</ele>
        <time>2021-04-04T08:53:07Z</time>
      </trkpt>
      <trkpt lat="49.30016" lon="-0.50708">
        <ele>45.1</ele>
        <time>2021-04-04T08:53:14Z</time>
      </trkpt>
      <trkpt lat="49.30018" lon="-0.50708">
        <ele>45.2</ele>
        <time>2021-04-04T08:53:15Z</time>
      </trkpt>
      <trkpt lat="49.30037" lon="-0.50712">
        <ele>45.5</ele>
        <time>2021-04-04T08:53:22Z</time>
      </trkpt>
      <trkpt lat="49.30057" lon="-0.50715">
        <ele>45.8</ele>
        <time>2021-04-04T08:53:29Z</time>
      </trkpt>
      <trkpt lat="49.30076" lon="-0.50718">
        <ele>46.3</ele>
        <time>2021-04-04T08:53:36Z</time>
      </trkpt>
      <trkpt lat="49.30084" lon="-0.50718">
        <ele>46.4</ele>
        <time>2021-04-04T08:53:39Z</time>
      </trkpt>
      <trkpt lat="49.30103" lon="-0.50722">
        <ele>46.5</ele>
        <time>2021-04-04T08:53:46Z</time>
      </trkpt>
      <trkpt lat="49.30106" lon="-0.50722">
        <ele>46.5</ele>
        <time>2021-04-04T08:53:47Z</time>
      </trkpt>
      <trkpt lat="49.30125" lon="-0.50725">
        <ele>46.9</ele>
        <time>2021-04-04T08:53:54Z</time>
      </trkpt>
      <trkpt lat="49.30128" lon="-0.50725">
        <ele>46.9</ele>
        <time>2021-04-04T08:53:55Z</time>
      </trkpt>
      <trkpt lat="49.30147" lon="-0.50727">
        <ele>47.1</ele>
        <time>2021-04-04T08:54:02Z</time>
      </trkpt>
      <trkpt lat="49.30155" lon="-0.5073">
        <ele>47.1</ele>
        <time>2021-04-04T08:54:05Z</time>
      </trkpt>
      <trkpt lat="49.30172" lon="-0.50732">
        <ele>47.3</ele>
        <time>2021-04-04T08:54:11Z</time>
      </trkpt>
      <trkpt lat="49.30175" lon="-0.50732">
        <ele>47.3</ele>
        <time>2021-04-04T08:54:12Z</time>
      </trkpt>
      <trkpt lat="49.30194" lon="-0.50734">
        <ele>47.4</ele>
        <time>2021-04-04T08:54:19Z</time>
      </trkpt>
      <trkpt lat="49.30213" lon="-0.50736">
        <ele>47.6</ele>
        <time>2021-04-04T08:54:26Z</time>
      </trkpt>
      <trkpt lat="49.30225" lon="-0.50737">
        <ele>47.8</ele>
        <time>2021-04-04T08:54:30Z</time>
      </trkpt>
      <trkpt lat="49.30243" lon="-0.50739">
        <ele>48</ele>
        <time>2021-04-04T08:54:37Z</time>
      </trkpt>
      <trkpt lat="49.3026" lon="-0.50742">
        <ele>48.1</ele>
        <time>2021-04-04T08:54:43Z</time>
      </trkpt>
      <trkpt lat="49.30268" lon="-0.50743">
        <ele>48.1</ele>
        <time>2021-04-04T08:54:46Z</time>
      </trkpt>
      <trkpt lat="49.30275" lon="-0.50744">
        <ele>47.9</ele>
        <time>2021-04-04T08:54:49Z</time>
      </trkpt>
      <trkpt lat="49.30292" lon="-0.50746">
        <ele>47.6</ele>
        <time>2021-04-04T08:54:55Z</time>
      </trkpt>
      <trkpt lat="49.30311" lon="-0.50749">
        <ele>47.2</ele>
        <time>2021-04-04T08:55:02Z</time>
      </trkpt>
      <trkpt lat="49.30319" lon="-0.5075">
        <ele>47.2</ele>
        <time>2021-04-04T08:55:05Z</time>
      </trkpt>
      <trkpt lat="49.30333" lon="-0.50752">
        <ele>47.3</ele>
        <time>2021-04-04T08:55:10Z</time>
      </trkpt>
      <trkpt lat="49.30344" lon="-0.50754">
        <ele>47.5</ele>
        <time>2021-04-04T08:55:14Z</time>
      </trkpt>
      <trkpt lat="49.30363" lon="-0.50756">
        <ele>48.4</ele>
        <time>2021-04-04T08:55:21Z</time>
      </trkpt>
      <trkpt lat="49.30369" lon="-0.50757">
        <ele>48.7</ele>
        <time>2021-04-04T08:55:23Z</time>
      </trkpt>
      <trkpt lat="49.30374" lon="-0.50757">
        <ele>49</ele>
        <time>2021-04-04T08:55:25Z</time>
      </trkpt>
      <trkpt lat="49.3039" lon="-0.5076">
        <ele>50</ele>
        <time>2021-04-04T08:55:31Z</time>
      </trkpt>
      <trkpt lat="49.30401" lon="-0.50762">
        <ele>50.6</ele>
        <time>2021-04-04T08:55:35Z</time>
      </trkpt>
      <trkpt lat="49.30406" lon="-0.50768">
        <ele>50.9</ele>
        <time>2021-04-04T08:55:38Z</time>
      </trkpt>
      <trkpt lat="49.30406" lon="-0.50771">
        <ele>50.9</ele>
        <time>2021-04-04T08:55:39Z</time>
      </trkpt>
      <trkpt lat="49.30404" lon="-0.50778">
        <ele>50.8</ele>
        <time>2021-04-04T08:55:41Z</time>
      </trkpt>
      <trkpt lat="49.30398" lon="-0.50788">
        <ele>50.7</ele>
        <time>2021-04-04T08:55:44Z</time>
      </trkpt>
      <trkpt lat="49.30387" lon="-0.50812">
        <ele>50.4</ele>
        <time>2021-04-04T08:55:51Z</time>
      </trkpt>
      <trkpt lat="49.30385" lon="-0.50815">
        <ele>50.4</ele>
        <time>2021-04-04T08:55:52Z</time>
      </trkpt>
      <trkpt lat="49.30374" lon="-0.50839">
        <ele>50.1</ele>
        <time>2021-04-04T08:55:59Z</time>
      </trkpt>
      <trkpt lat="49.3037" lon="-0.50846">
        <ele>50.1</ele>
        <time>2021-04-04T08:56:01Z</time>
      </trkpt>
      <trkpt lat="49.30367" lon="-0.50853">
        <ele>50</ele>
        <time>2021-04-04T08:56:03Z</time>
      </trkpt>
      <trkpt lat="49.30362" lon="-0.50863">
        <ele>49.9</ele>
        <time>2021-04-04T08:56:06Z</time>
      </trkpt>
      <trkpt lat="49.30355" lon="-0.50881">
        <ele>49.7</ele>
        <time>2021-04-04T08:56:11Z</time>
      </trkpt>
      <trkpt lat="49.30353" lon="-0.50885">
        <ele>49.7</ele>
        <time>2021-04-04T08:56:12Z</time>
      </trkpt>
      <trkpt lat="49.30345" lon="-0.50903">
        <ele>49.5</ele>
        <time>2021-04-04T08:56:17Z</time>
      </trkpt>
      <trkpt lat="49.30339" lon="-0.50918">
        <ele>49.4</ele>
        <time>2021-04-04T08:56:21Z</time>
      </trkpt>
      <trkpt lat="49.30327" lon="-0.50942">
        <ele>49.1</ele>
        <time>2021-04-04T08:56:28Z</time>
      </trkpt>
      <trkpt lat="49.30324" lon="-0.50949">
        <ele>49.1</ele>
        <time>2021-04-04T08:56:30Z</time>
      </trkpt>
      <trkpt lat="49.30313" lon="-0.50973">
        <ele>48.8</ele>
        <time>2021-04-04T08:56:37Z</time>
      </trkpt>
      <trkpt lat="49.30311" lon="-0.50977">
        <ele>48.7</ele>
        <time>2021-04-04T08:56:38Z</time>
      </trkpt>
      <trkpt lat="49.303" lon="-0.51003">
        <ele>48.4</ele>
        <time>2021-04-04T08:56:45Z</time>
      </trkpt>
      <trkpt lat="49.30293" lon="-0.51017">
        <ele>48.2</ele>
        <time>2021-04-04T08:56:49Z</time>
      </trkpt>
      <trkpt lat="49.30281" lon="-0.51042">
        <ele>47.9</ele>
        <time>2021-04-04T08:56:56Z</time>
      </trkpt>
      <trkpt lat="49.30271" lon="-0.51067">
        <ele>47.7</ele>
        <time>2021-04-04T08:57:03Z</time>
      </trkpt>
      <trkpt lat="49.30261" lon="-0.51095">
        <ele>47.5</ele>
        <time>2021-04-04T08:57:10Z</time>
      </trkpt>
      <trkpt lat="49.30258" lon="-0.51103">
        <ele>47.4</ele>
        <time>2021-04-04T08:57:12Z</time>
      </trkpt>
      <trkpt lat="49.30246" lon="-0.51128">
        <ele>47.2</ele>
        <time>2021-04-04T08:57:19Z</time>
      </trkpt>
      <trkpt lat="49.30245" lon="-0.51138">
        <ele>47.3</ele>
        <time>2021-04-04T08:57:21Z</time>
      </trkpt>
      <trkpt lat="49.30248" lon="-0.51144">
        <ele>47.5</ele>
        <time>2021-04-04T08:57:23Z</time>
      </trkpt>
      <trkpt lat="49.3025" lon="-0.51146">
        <ele>47.6</ele>
        <time>2021-04-04T08:57:24Z</time>
      </trkpt>
      <trkpt lat="49.30265" lon="-0.51147">
        <ele>47.9</ele>
        <time>2021-04-04T08:57:29Z</time>
      </trkpt>
      <trkpt lat="49.30286" lon="-0.51146">
        <ele>48.4</ele>
        <time>2021-04-04T08:57:36Z</time>
      </trkpt>
      <trkpt lat="49.30291" lon="-0.51147">
        <ele>48.5</ele>
        <time>2021-04-04T08:57:38Z</time>
      </trkpt>
      <trkpt lat="49.30308" lon="-0.51148">
        <ele>48.9</ele>
        <time>2021-04-04T08:57:44Z</time>
      </trkpt>
      <trkpt lat="49.30319" lon="-0.51148">
        <ele>49.1</ele>
        <time>2021-04-04T08:57:48Z</time>
      </trkpt>
      <trkpt lat="49.30337" lon="-0.51148">
        <ele>49.5</ele>
        <time>2021-04-04T08:57:55Z</time>
      </trkpt>
      <trkpt lat="49.30348" lon="-0.5115">
        <ele>49.7</ele>
        <time>2021-04-04T08:58:00Z</time>
      </trkpt>
      <trkpt lat="49.30368" lon="-0.51151">
        <ele>50.1</ele>
        <time>2021-04-04T08:58:06Z</time>
      </trkpt>
      <trkpt lat="49.30379" lon="-0.51153">
        <ele>50.3</ele>
        <time>2021-04-04T08:58:10Z</time>
      </trkpt>
      <trkpt lat="49.30398" lon="-0.51154">
        <ele>50.6</ele>
        <time>2021-04-04T08:58:17Z</time>
      </trkpt>
      <trkpt lat="49.30403" lon="-0.51155">
        <ele>50.6</ele>
        <time>2021-04-04T08:58:19Z</time>
      </trkpt>
      <trkpt lat="49.30422" lon="-0.51157">
        <ele>51</ele>
        <time>2021-04-04T08:58:26Z</time>
      </trkpt>
      <trkpt lat="49.30431" lon="-0.51158">
        <ele>51.1</ele>
        <time>2021-04-04T08:58:29Z</time>
      </trkpt>
      <trkpt lat="49.3045" lon="-0.51161">
        <ele>51.4</ele>
        <time>2021-04-04T08:58:36Z</time>
      </trkpt>
      <trkpt lat="49.30456" lon="-0.51161">
        <ele>51.5</ele>
        <time>2021-04-04T08:58:38Z</time>
      </trkpt>
      <trkpt lat="49.30474" lon="-0.51166">
        <ele>51.8</ele>
        <time>2021-04-04T08:58:45Z</time>
      </trkpt>
      <trkpt lat="49.30479" lon="-0.51168">
        <ele>51.8</ele>
        <time>2021-04-04T08:58:47Z</time>
      </trkpt>
      <trkpt lat="49.30498" lon="-0.51174">
        <ele>52.1</ele>
        <time>2021-04-04T08:58:53Z</time>
      </trkpt>
      <trkpt lat="49.30501" lon="-0.51175">
        <ele>52.1</ele>
        <time>2021-04-04T08:58:55Z</time>
      </trkpt>
      <trkpt lat="49.30512" lon="-0.51179">
        <ele>52.3</ele>
        <time>2021-04-04T08:58:59Z</time>
      </trkpt>
      <trkpt lat="49.30523" lon="-0.51182">
        <ele>52.4</ele>
        <time>2021-04-04T08:59:03Z</time>
      </trkpt>
      <trkpt lat="49.30542" lon="-0.51187">
        <ele>52.5</ele>
        <time>2021-04-04T08:59:10Z</time>
      </trkpt>
      <trkpt lat="49.30547" lon="-0.51188">
        <ele>52.5</ele>
        <time>2021-04-04T08:59:12Z</time>
      </trkpt>
      <trkpt lat="49.30566" lon="-0.51192">
        <ele>52.6</ele>
        <time>2021-04-04T08:59:19Z</time>
      </trkpt>
      <trkpt lat="49.30574" lon="-0.51193">
        <ele>52.6</ele>
        <time>2021-04-04T08:59:22Z</time>
      </trkpt>
      <trkpt lat="49.30593" lon="-0.51196">
        <ele>52.7</ele>
        <time>2021-04-04T08:59:29Z</time>
      </trkpt>
      <trkpt lat="49.30614" lon="-0.51196">
        <ele>52.7</ele>
        <time>2021-04-04T08:59:36Z</time>
      </trkpt>
      <trkpt lat="49.30623" lon="-0.51195">
        <ele>52.7</ele>
        <time>2021-04-04T08:59:39Z</time>
      </trkpt>
      <trkpt lat="49.30643" lon="-0.5119">
        <ele>52.8</ele>
        <time>2021-04-04T08:59:46Z</time>
      </trkpt>
      <trkpt lat="49.30656" lon="-0.51187">
        <ele>52.9</ele>
        <time>2021-04-04T08:59:51Z</time>
      </trkpt>
      <trkpt lat="49.30675" lon="-0.51181">
        <ele>52.9</ele>
        <time>2021-04-04T08:59:58Z</time>
      </trkpt>
      <trkpt lat="49.3068" lon="-0.51179">
        <ele>52.9</ele>
        <time>2021-04-04T09:00:00Z</time>
      </trkpt>
      <trkpt lat="49.307" lon="-0.51173">
        <ele>52.8</ele>
        <time>2021-04-04T09:00:07Z</time>
      </trkpt>
      <trkpt lat="49.30712" lon="-0.5117">
        <ele>52.8</ele>
        <time>2021-04-04T09:00:11Z</time>
      </trkpt>
      <trkpt lat="49.30731" lon="-0.51165">
        <ele>52.8</ele>
        <time>2021-04-04T09:00:18Z</time>
      </trkpt>
      <trkpt lat="49.30737" lon="-0.51164">
        <ele>52.9</ele>
        <time>2021-04-04T09:00:20Z</time>
      </trkpt>
      <trkpt lat="49.30757" lon="-0.51158">
        <ele>52.9</ele>
        <time>2021-04-04T09:00:27Z</time>
      </trkpt>
      <trkpt lat="49.30759" lon="-0.51158">
        <ele>52.9</ele>
        <time>2021-04-04T09:00:28Z</time>
      </trkpt>
      <trkpt lat="49.30779" lon="-0.51153">
        <ele>52.9</ele>
        <time>2021-04-04T09:00:35Z</time>
      </trkpt>
      <trkpt lat="49.30794" lon="-0.5115">
        <ele>53</ele>
        <time>2021-04-04T09:00:40Z</time>
      </trkpt>
      <trkpt lat="49.30805" lon="-0.51147">
        <ele>53</ele>
        <time>2021-04-04T09:00:44Z</time>
      </trkpt>
      <trkpt lat="49.30824" lon="-0.51142">
        <ele>53</ele>
        <time>2021-04-04T09:00:51Z</time>
      </trkpt>
      <trkpt lat="49.30845" lon="-0.51138">
        <ele>53</ele>
        <time>2021-04-04T09:00:58Z</time>
      </trkpt>
      <trkpt lat="49.3085" lon="-0.51137">
        <ele>53</ele>
        <time>2021-04-04T09:01:00Z</time>
      </trkpt>
      <trkpt lat="49.30869" lon="-0.51134">
        <ele>53.1</ele>
        <time>2021-04-04T09:01:07Z</time>
      </trkpt>
      <trkpt lat="49.30876" lon="-0.51132">
        <ele>53</ele>
        <time>2021-04-04T09:01:10Z</time>
      </trkpt>
      <trkpt lat="49.30897" lon="-0.51129">
        <ele>52.9</ele>
        <time>2021-04-04T09:01:17Z</time>
      </trkpt>
      <trkpt lat="49.30904" lon="-0.51127">
        <ele>52.9</ele>
        <time>2021-04-04T09:01:20Z</time>
      </trkpt>
      <trkpt lat="49.30925" lon="-0.51123">
        <ele>52.7</ele>
        <time>2021-04-04T09:01:27Z</time>
      </trkpt>
      <trkpt lat="49.30935" lon="-0.51121">
        <ele>52.7</ele>
        <time>2021-04-04T09:01:31Z</time>
      </trkpt>
      <trkpt lat="49.3095" lon="-0.51117">
        <ele>52.6</ele>
        <time>2021-04-04T09:01:36Z</time>
      </trkpt>
      <trkpt lat="49.30953" lon="-0.51116">
        <ele>52.5</ele>
        <time>2021-04-04T09:01:37Z</time>
      </trkpt>
      <trkpt lat="49.30967" lon="-0.51113">
        <ele>52.3</ele>
        <time>2021-04-04T09:01:42Z</time>
      </trkpt>
      <trkpt lat="49.30984" lon="-0.51103">
        <ele>52.1</ele>
        <time>2021-04-04T09:01:48Z</time>
      </trkpt>
      <trkpt lat="49.30986" lon="-0.51102">
        <ele>52.1</ele>
        <time>2021-04-04T09:01:49Z</time>
      </trkpt>
      <trkpt lat="49.31003" lon="-0.51092">
        <ele>52</ele>
        <time>2021-04-04T09:01:55Z</time>
      </trkpt>
      <trkpt lat="49.31009" lon="-0.51088">
        <ele>51.9</ele>
        <time>2021-04-04T09:01:57Z</time>
      </trkpt>
      <trkpt lat="49.31029" lon="-0.51074">
        <ele>51.7</ele>
        <time>2021-04-04T09:02:05Z</time>
      </trkpt>
      <trkpt lat="49.31035" lon="-0.5107">
        <ele>51.7</ele>
        <time>2021-04-04T09:02:07Z</time>
      </trkpt>
      <trkpt lat="49.31052" lon="-0.51056">
        <ele>51.5</ele>
        <time>2021-04-04T09:02:14Z</time>
      </trkpt>
      <trkpt lat="49.31071" lon="-0.51041">
        <ele>51.2</ele>
        <time>2021-04-04T09:02:21Z</time>
      </trkpt>
      <trkpt lat="49.31074" lon="-0.51038">
        <ele>51.2</ele>
        <time>2021-04-04T09:02:22Z</time>
      </trkpt>
      <trkpt lat="49.31092" lon="-0.51025">
        <ele>51</ele>
        <time>2021-04-04T09:02:29Z</time>
      </trkpt>
      <trkpt lat="49.31098" lon="-0.51021">
        <ele>50.9</ele>
        <time>2021-04-04T09:02:31Z</time>
      </trkpt>
      <trkpt lat="49.31115" lon="-0.51007">
        <ele>50.6</ele>
        <time>2021-04-04T09:02:38Z</time>
      </trkpt>
      <trkpt lat="49.31121" lon="-0.51002">
        <ele>50.5</ele>
        <time>2021-04-04T09:02:40Z</time>
      </trkpt>
      <trkpt lat="49.31131" lon="-0.50992">
        <ele>50.5</ele>
        <time>2021-04-04T09:02:44Z</time>
      </trkpt>
      <trkpt lat="49.31134" lon="-0.50989">
        <ele>50.5</ele>
        <time>2021-04-04T09:02:45Z</time>
      </trkpt>
      <trkpt lat="49.31148" lon="-0.50972">
        <ele>50.4</ele>
        <time>2021-04-04T09:02:51Z</time>
      </trkpt>
      <trkpt lat="49.31154" lon="-0.50965">
        <ele>50.3</ele>
        <time>2021-04-04T09:02:54Z</time>
      </trkpt>
      <trkpt lat="49.3117" lon="-0.50945">
        <ele>50</ele>
        <time>2021-04-04T09:03:01Z</time>
      </trkpt>
      <trkpt lat="49.31174" lon="-0.5094">
        <ele>49.9</ele>
        <time>2021-04-04T09:03:03Z</time>
      </trkpt>
      <trkpt lat="49.31188" lon="-0.50926">
        <ele>49.6</ele>
        <time>2021-04-04T09:03:09Z</time>
      </trkpt>
      <trkpt lat="49.312" lon="-0.50908">
        <ele>49.3</ele>
        <time>2021-04-04T09:03:15Z</time>
      </trkpt>
      <trkpt lat="49.31215" lon="-0.50889">
        <ele>48.8</ele>
        <time>2021-04-04T09:03:22Z</time>
      </trkpt>
      <trkpt lat="49.31221" lon="-0.50881">
        <ele>48.6</ele>
        <time>2021-04-04T09:03:25Z</time>
      </trkpt>
      <trkpt lat="49.31233" lon="-0.50877">
        <ele>48.3</ele>
        <time>2021-04-04T09:03:30Z</time>
      </trkpt>
      <trkpt lat="49.31235" lon="-0.50879">
        <ele>48.2</ele>
        <time>2021-04-04T09:03:31Z</time>
      </trkpt>
      <trkpt lat="49.31245" lon="-0.50891">
        <ele>48</ele>
        <time>2021-04-04T09:03:36Z</time>
      </trkpt>
      <trkpt lat="49.31247" lon="-0.50893">
        <ele>47.9</ele>
        <time>2021-04-04T09:03:37Z</time>
      </trkpt>
      <trkpt lat="49.31261" lon="-0.50898">
        <ele>47.8</ele>
        <time>2021-04-04T09:03:42Z</time>
      </trkpt>
      <trkpt lat="49.31276" lon="-0.50884">
        <ele>47.8</ele>
        <time>2021-04-04T09:03:48Z</time>
      </trkpt>
      <trkpt lat="49.31285" lon="-0.50872">
        <ele>47.8</ele>
        <time>2021-04-04T09:03:52Z</time>
      </trkpt>
      <trkpt lat="49.31295" lon="-0.50857">
        <ele>47.8</ele>
        <time>2021-04-04T09:03:58Z</time>
      </trkpt>
      <trkpt lat="49.31308" lon="-0.50836">
        <ele>47.8</ele>
        <time>2021-04-04T09:04:04Z</time>
      </trkpt>
      <trkpt lat="49.31309" lon="-0.50832">
        <ele>47.9</ele>
        <time>2021-04-04T09:04:05Z</time>
      </trkpt>
      <trkpt lat="49.31319" lon="-0.50807">
        <ele>47.9</ele>
        <time>2021-04-04T09:04:12Z</time>
      </trkpt>
      <trkpt lat="49.31321" lon="-0.50804">
        <ele>47.9</ele>
        <time>2021-04-04T09:04:13Z</time>
      </trkpt>
      <trkpt lat="49.3133" lon="-0.50781">
        <ele>47.9</ele>
        <time>2021-04-04T09:04:19Z</time>
      </trkpt>
      <trkpt lat="49.31344" lon="-0.50767">
        <ele>47.8</ele>
        <time>2021-04-04T09:04:25Z</time>
      </trkpt>
      <trkpt lat="49.31351" lon="-0.50759">
        <ele>47.8</ele>
        <time>2021-04-04T09:04:28Z</time>
      </trkpt>
      <trkpt lat="49.31362" lon="-0.50746">
        <ele>47.7</ele>
        <time>2021-04-04T09:04:33Z</time>
      </trkpt>
      <trkpt lat="49.31376" lon="-0.50737">
        <ele>47.5</ele>
        <time>2021-04-04T09:04:38Z</time>
      </trkpt>
      <trkpt lat="49.31392" lon="-0.50729">
        <ele>47.2</ele>
        <time>2021-04-04T09:04:44Z</time>
      </trkpt>
      <trkpt lat="49.31394" lon="-0.50727">
        <ele>47.1</ele>
        <time>2021-04-04T09:04:45Z</time>
      </trkpt>
      <trkpt lat="49.31413" lon="-0.50713">
        <ele>46.7</ele>
        <time>2021-04-04T09:04:52Z</time>
      </trkpt>
      <trkpt lat="49.31415" lon="-0.50712">
        <ele>46.7</ele>
        <time>2021-04-04T09:04:53Z</time>
      </trkpt>
      <trkpt lat="49.31433" lon="-0.50698">
        <ele>46.3</ele>
        <time>2021-04-04T09:05:00Z</time>
      </trkpt>
      <trkpt lat="49.31438" lon="-0.50694">
        <ele>46.2</ele>
        <time>2021-04-04T09:05:02Z</time>
      </trkpt>
      <trkpt lat="49.31451" lon="-0.5068">
        <ele>46</ele>
        <time>2021-04-04T09:05:08Z</time>
      </trkpt>
      <trkpt lat="49.31465" lon="-0.50671">
        <ele>45.9</ele>
        <time>2021-04-04T09:05:13Z</time>
      </trkpt>
      <trkpt lat="49.31468" lon="-0.5067">
        <ele>45.8</ele>
        <time>2021-04-04T09:05:14Z</time>
      </trkpt>
      <trkpt lat="49.31483" lon="-0.50655">
        <ele>45.7</ele>
        <time>2021-04-04T09:05:20Z</time>
      </trkpt>
      <trkpt lat="49.31492" lon="-0.50657">
        <ele>45.6</ele>
        <time>2021-04-04T09:05:24Z</time>
      </trkpt>
      <trkpt lat="49.31498" lon="-0.50676">
        <ele>45.4</ele>
        <time>2021-04-04T09:05:29Z</time>
      </trkpt>
      <trkpt lat="49.31503" lon="-0.50705">
        <ele>45.3</ele>
        <time>2021-04-04T09:05:36Z</time>
      </trkpt>
      <trkpt lat="49.31507" lon="-0.50727">
        <ele>45.4</ele>
        <time>2021-04-04T09:05:41Z</time>
      </trkpt>
      <trkpt lat="49.31512" lon="-0.50737">
        <ele>45.4</ele>
        <time>2021-04-04T09:05:44Z</time>
      </trkpt>
      <trkpt lat="49.31523" lon="-0.50763">
        <ele>45.5</ele>
        <time>2021-04-04T09:05:51Z</time>
      </trkpt>
      <trkpt lat="49.31525" lon="-0.50767">
        <ele>45.6</ele>
        <time>2021-04-04T09:05:52Z</time>
      </trkpt>
      <trkpt lat="49.31527" lon="-0.50769">
        <ele>45.6</ele>
        <time>2021-04-04T09:05:53Z</time>
      </trkpt>
      <trkpt lat="49.31528" lon="-0.50773">
        <ele>45.6</ele>
        <time>2021-04-04T09:05:54Z</time>
      </trkpt>
      <trkpt lat="49.31537" lon="-0.5079">
        <ele>45.8</ele>
        <time>2021-04-04T09:05:59Z</time>
      </trkpt>
      <trkpt lat="49.31546" lon="-0.50809">
        <ele>45.9</ele>
        <time>2021-04-04T09:06:05Z</time>
      </trkpt>
      <trkpt lat="49.31549" lon="-0.50815">
        <ele>45.9</ele>
        <time>2021-04-04T09:06:07Z</time>
      </trkpt>
      <trkpt lat="49.31561" lon="-0.50839">
        <ele>45.9</ele>
        <time>2021-04-04T09:06:15Z</time>
      </trkpt>
      <trkpt lat="49.31562" lon="-0.50843">
        <ele>45.8</ele>
        <time>2021-04-04T09:06:16Z</time>
      </trkpt>
      <trkpt lat="49.31573" lon="-0.50864">
        <ele>45.5</ele>
        <time>2021-04-04T09:06:23Z</time>
      </trkpt>
      <trkpt lat="49.31586" lon="-0.50884">
        <ele>45</ele>
        <time>2021-04-04T09:06:29Z</time>
      </trkpt>
      <trkpt lat="49.31589" lon="-0.50885">
        <ele>44.9</ele>
        <time>2021-04-04T09:06:30Z</time>
      </trkpt>
      <trkpt lat="49.31604" lon="-0.50888">
        <ele>44.6</ele>
        <time>2021-04-04T09:06:35Z</time>
      </trkpt>
      <trkpt lat="49.31614" lon="-0.50889">
        <ele>44.4</ele>
        <time>2021-04-04T09:06:38Z</time>
      </trkpt>
      <trkpt lat="49.31628" lon="-0.50889">
        <ele>44.2</ele>
        <time>2021-04-04T09:06:43Z</time>
      </trkpt>
      <trkpt lat="49.31637" lon="-0.50884">
        <ele>44.1</ele>
        <time>2021-04-04T09:06:46Z</time>
      </trkpt>
      <trkpt lat="49.31654" lon="-0.50866">
        <ele>43.8</ele>
        <time>2021-04-04T09:06:53Z</time>
      </trkpt>
      <trkpt lat="49.31664" lon="-0.5085">
        <ele>43.7</ele>
        <time>2021-04-04T09:06:58Z</time>
      </trkpt>
      <trkpt lat="49.31668" lon="-0.50845">
        <ele>43.6</ele>
        <time>2021-04-04T09:07:00Z</time>
      </trkpt>
      <trkpt lat="49.31684" lon="-0.50823">
        <ele>43.4</ele>
        <time>2021-04-04T09:07:07Z</time>
      </trkpt>
      <trkpt lat="49.31688" lon="-0.50817">
        <ele>43.3</ele>
        <time>2021-04-04T09:07:09Z</time>
      </trkpt>
      <trkpt lat="49.31699" lon="-0.50795">
        <ele>43.2</ele>
        <time>2021-04-04T09:07:15Z</time>
      </trkpt>
      <trkpt lat="49.31701" lon="-0.50791">
        <ele>43.2</ele>
        <time>2021-04-04T09:07:16Z</time>
      </trkpt>
      <trkpt lat="49.31707" lon="-0.50777">
        <ele>43.1</ele>
        <time>2021-04-04T09:07:20Z</time>
      </trkpt>
      <trkpt lat="49.31715" lon="-0.50754">
        <ele>43</ele>
        <time>2021-04-04T09:07:26Z</time>
      </trkpt>
      <trkpt lat="49.31723" lon="-0.5073">
        <ele>43</ele>
        <time>2021-04-04T09:07:32Z</time>
      </trkpt>
      <trkpt lat="49.31725" lon="-0.50726">
        <ele>42.9</ele>
        <time>2021-04-04T09:07:33Z</time>
      </trkpt>
      <trkpt lat="49.31732" lon="-0.50698">
        <ele>42.9</ele>
        <time>2021-04-04T09:07:40Z</time>
      </trkpt>
      <trkpt lat="49.31733" lon="-0.50694">
        <ele>43</ele>
        <time>2021-04-04T09:07:41Z</time>
      </trkpt>
      <trkpt lat="49.3174" lon="-0.50667">
        <ele>43.1</ele>
        <time>2021-04-04T09:07:47Z</time>
      </trkpt>
      <trkpt lat="49.31744" lon="-0.50656">
        <ele>43.2</ele>
        <time>2021-04-04T09:07:50Z</time>
      </trkpt>
      <trkpt lat="49.3175" lon="-0.50626">
        <ele>43.5</ele>
        <time>2021-04-04T09:07:57Z</time>
      </trkpt>
      <trkpt lat="49.31752" lon="-0.5062">
        <ele>43.5</ele>
        <time>2021-04-04T09:07:59Z</time>
      </trkpt>
      <trkpt lat="49.31761" lon="-0.50592">
        <ele>43.8</ele>
        <time>2021-04-04T09:08:06Z</time>
      </trkpt>
      <trkpt lat="49.31764" lon="-0.50581">
        <ele>43.9</ele>
        <time>2021-04-04T09:08:09Z</time>
      </trkpt>
      <trkpt lat="49.31774" lon="-0.50555">
        <ele>44.2</ele>
        <time>2021-04-04T09:08:16Z</time>
      </trkpt>
      <trkpt lat="49.31778" lon="-0.50543">
        <ele>44.3</ele>
        <time>2021-04-04T09:08:19Z</time>
      </trkpt>
      <trkpt lat="49.31788" lon="-0.50517">
        <ele>44.6</ele>
        <time>2021-04-04T09:08:26Z</time>
      </trkpt>
      <trkpt lat="49.31796" lon="-0.50489">
        <ele>44.8</ele>
        <time>2021-04-04T09:08:33Z</time>
      </trkpt>
      <trkpt lat="49.31806" lon="-0.50465">
        <ele>45</ele>
        <time>2021-04-04T09:08:40Z</time>
      </trkpt>
      <trkpt lat="49.31815" lon="-0.50438">
        <ele>45</ele>
        <time>2021-04-04T09:08:47Z</time>
      </trkpt>
      <trkpt lat="49.31823" lon="-0.50411">
        <ele>45</ele>
        <time>2021-04-04T09:08:54Z</time>
      </trkpt>
      <trkpt lat="49.31824" lon="-0.50408">
        <ele>45</ele>
        <time>2021-04-04T09:08:55Z</time>
      </trkpt>
      <trkpt lat="49.31826" lon="-0.50405">
        <ele>45</ele>
        <time>2021-04-04T09:08:56Z</time>
      </trkpt>
      <trkpt lat="49.31831" lon="-0.50402">
        <ele>45</ele>
        <time>2021-04-04T09:08:58Z</time>
      </trkpt>
      <trkpt lat="49.31834" lon="-0.50402">
        <ele>44.7</ele>
        <time>2021-04-04T09:08:59Z</time>
      </trkpt>
      <trkpt lat="49.31836" lon="-0.50404">
        <ele>44.7</ele>
        <time>2021-04-04T09:09:00Z</time>
      </trkpt>
      <trkpt lat="49.31842" lon="-0.50413">
        <ele>44.4</ele>
        <time>2021-04-04T09:09:03Z</time>
      </trkpt>
      <trkpt lat="49.31853" lon="-0.50436">
        <ele>43.9</ele>
        <time>2021-04-04T09:09:10Z</time>
      </trkpt>
      <trkpt lat="49.31855" lon="-0.50439">
        <ele>43.8</ele>
        <time>2021-04-04T09:09:11Z</time>
      </trkpt>
      <trkpt lat="49.31867" lon="-0.50465">
        <ele>43.3</ele>
        <time>2021-04-04T09:09:18Z</time>
      </trkpt>
      <trkpt lat="49.31869" lon="-0.50468">
        <ele>43.2</ele>
        <time>2021-04-04T09:09:19Z</time>
      </trkpt>
      <trkpt lat="49.31874" lon="-0.50479">
        <ele>42.9</ele>
        <time>2021-04-04T09:09:22Z</time>
      </trkpt>
      <trkpt lat="49.31885" lon="-0.505">
        <ele>42.5</ele>
        <time>2021-04-04T09:09:28Z</time>
      </trkpt>
      <trkpt lat="49.31896" lon="-0.50523">
        <ele>42</ele>
        <time>2021-04-04T09:09:34Z</time>
      </trkpt>
      <trkpt lat="49.31901" lon="-0.50533">
        <ele>41.8</ele>
        <time>2021-04-04T09:09:37Z</time>
      </trkpt>
      <trkpt lat="49.3191" lon="-0.50552">
        <ele>41.4</ele>
        <time>2021-04-04T09:09:42Z</time>
      </trkpt>
      <trkpt lat="49.31917" lon="-0.50567">
        <ele>41</ele>
        <time>2021-04-04T09:09:46Z</time>
      </trkpt>
      <trkpt lat="49.31919" lon="-0.5057">
        <ele>40.9</ele>
        <time>2021-04-04T09:09:47Z</time>
      </trkpt>
      <trkpt lat="49.31931" lon="-0.50596">
        <ele>40.4</ele>
        <time>2021-04-04T09:09:54Z</time>
      </trkpt>
      <trkpt lat="49.31933" lon="-0.50599">
        <ele>40.4</ele>
        <time>2021-04-04T09:09:55Z</time>
      </trkpt>
      <trkpt lat="49.31946" lon="-0.50626">
        <ele>39.8</ele>
        <time>2021-04-04T09:10:01Z</time>
      </trkpt>
      <trkpt lat="49.31948" lon="-0.5063">
        <ele>39.8</ele>
        <time>2021-04-04T09:10:03Z</time>
      </trkpt>
      <trkpt lat="49.31961" lon="-0.50654">
        <ele>39.4</ele>
        <time>2021-04-04T09:10:10Z</time>
      </trkpt>
      <trkpt lat="49.31965" lon="-0.50661">
        <ele>39.4</ele>
        <time>2021-04-04T09:10:12Z</time>
      </trkpt>
      <trkpt lat="49.31976" lon="-0.50682">
        <ele>39.3</ele>
        <time>2021-04-04T09:10:18Z</time>
      </trkpt>
      <trkpt lat="49.31978" lon="-0.50685">
        <ele>39.3</ele>
        <time>2021-04-04T09:10:19Z</time>
      </trkpt>
      <trkpt lat="49.31991" lon="-0.50705">
        <ele>39.4</ele>
        <time>2021-04-04T09:10:25Z</time>
      </trkpt>
      <trkpt lat="49.32001" lon="-0.50722">
        <ele>39.5</ele>
        <time>2021-04-04T09:10:30Z</time>
      </trkpt>
      <trkpt lat="49.32011" lon="-0.50738">
        <ele>39.6</ele>
        <time>2021-04-04T09:10:35Z</time>
      </trkpt>
      <trkpt lat="49.32016" lon="-0.50748">
        <ele>39.8</ele>
        <time>2021-04-04T09:10:38Z</time>
      </trkpt>
      <trkpt lat="49.32023" lon="-0.50762">
        <ele>40.1</ele>
        <time>2021-04-04T09:10:42Z</time>
      </trkpt>
      <trkpt lat="49.32031" lon="-0.50781">
        <ele>40.4</ele>
        <time>2021-04-04T09:10:47Z</time>
      </trkpt>
      <trkpt lat="49.32046" lon="-0.508">
        <ele>40.8</ele>
        <time>2021-04-04T09:10:54Z</time>
      </trkpt>
      <trkpt lat="49.32057" lon="-0.50796">
        <ele>40.5</ele>
        <time>2021-04-04T09:10:58Z</time>
      </trkpt>
      <trkpt lat="49.32069" lon="-0.50783">
        <ele>40.2</ele>
        <time>2021-04-04T09:11:03Z</time>
      </trkpt>
      <trkpt lat="49.32074" lon="-0.50776">
        <ele>40.2</ele>
        <time>2021-04-04T09:11:05Z</time>
      </trkpt>
      <trkpt lat="49.32081" lon="-0.50769">
        <ele>40.2</ele>
        <time>2021-04-04T09:11:08Z</time>
      </trkpt>
      <trkpt lat="49.32089" lon="-0.50761">
        <ele>40.2</ele>
        <time>2021-04-04T09:11:11Z</time>
      </trkpt>
      <trkpt lat="49.32099" lon="-0.5075">
        <ele>40.3</ele>
        <time>2021-04-04T09:11:15Z</time>
      </trkpt>
      <trkpt lat="49.32113" lon="-0.50734">
        <ele>40.3</ele>
        <time>2021-04-04T09:11:21Z</time>
      </trkpt>
      <trkpt lat="49.32127" lon="-0.50717">
        <ele>40.3</ele>
        <time>2021-04-04T09:11:27Z</time>
      </trkpt>
      <trkpt lat="49.32132" lon="-0.5071">
        <ele>40.3</ele>
        <time>2021-04-04T09:11:29Z</time>
      </trkpt>
      <trkpt lat="49.32147" lon="-0.50696">
        <ele>40.3</ele>
        <time>2021-04-04T09:11:35Z</time>
      </trkpt>
      <trkpt lat="49.32152" lon="-0.5069">
        <ele>40.3</ele>
        <time>2021-04-04T09:11:37Z</time>
      </trkpt>
      <trkpt lat="49.32172" lon="-0.50673">
        <ele>40.4</ele>
        <time>2021-04-04T09:11:45Z</time>
      </trkpt>
      <trkpt lat="49.3219" lon="-0.50658">
        <ele>40.3</ele>
        <time>2021-04-04T09:11:52Z</time>
      </trkpt>
      <trkpt lat="49.32198" lon="-0.50651">
        <ele>40.4</ele>
        <time>2021-04-04T09:11:55Z</time>
      </trkpt>
      <trkpt lat="49.32213" lon="-0.50637">
        <ele>40.4</ele>
        <time>2021-04-04T09:12:01Z</time>
      </trkpt>
      <trkpt lat="49.32216" lon="-0.50635">
        <ele>40.4</ele>
        <time>2021-04-04T09:12:02Z</time>
      </trkpt>
      <trkpt lat="49.32219" lon="-0.50633">
        <ele>40.4</ele>
        <time>2021-04-04T09:12:03Z</time>
      </trkpt>
      <trkpt lat="49.32236" lon="-0.50618">
        <ele>40.4</ele>
        <time>2021-04-04T09:12:10Z</time>
      </trkpt>
      <trkpt lat="49.32242" lon="-0.50614">
        <ele>40.5</ele>
        <time>2021-04-04T09:12:12Z</time>
      </trkpt>
      <trkpt lat="49.32257" lon="-0.506">
        <ele>40.5</ele>
        <time>2021-04-04T09:12:18Z</time>
      </trkpt>
      <trkpt lat="49.32275" lon="-0.50584">
        <ele>40.5</ele>
        <time>2021-04-04T09:12:25Z</time>
      </trkpt>
      <trkpt lat="49.3228" lon="-0.50579">
        <ele>40.5</ele>
        <time>2021-04-04T09:12:27Z</time>
      </trkpt>
      <trkpt lat="49.32297" lon="-0.50565">
        <ele>40.6</ele>
        <time>2021-04-04T09:12:34Z</time>
      </trkpt>
      <trkpt lat="49.323" lon="-0.50563">
        <ele>40.6</ele>
        <time>2021-04-04T09:12:35Z</time>
      </trkpt>
      <trkpt lat="49.32317" lon="-0.50547">
        <ele>40.6</ele>
        <time>2021-04-04T09:12:42Z</time>
      </trkpt>
      <trkpt lat="49.3232" lon="-0.50545">
        <ele>40.6</ele>
        <time>2021-04-04T09:12:43Z</time>
      </trkpt>
      <trkpt lat="49.32337" lon="-0.5053">
        <ele>40.4</ele>
        <time>2021-04-04T09:12:50Z</time>
      </trkpt>
      <trkpt lat="49.32345" lon="-0.50523">
        <ele>40.3</ele>
        <time>2021-04-04T09:12:54Z</time>
      </trkpt>
      <trkpt lat="49.32362" lon="-0.50508">
        <ele>40.1</ele>
        <time>2021-04-04T09:13:00Z</time>
      </trkpt>
      <trkpt lat="49.32372" lon="-0.50499">
        <ele>40.1</ele>
        <time>2021-04-04T09:13:04Z</time>
      </trkpt>
      <trkpt lat="49.32388" lon="-0.50485">
        <ele>39.9</ele>
        <time>2021-04-04T09:13:10Z</time>
      </trkpt>
      <trkpt lat="49.32391" lon="-0.50482">
        <ele>39.8</ele>
        <time>2021-04-04T09:13:12Z</time>
      </trkpt>
      <trkpt lat="49.32402" lon="-0.50473">
        <ele>39.8</ele>
        <time>2021-04-04T09:13:15Z</time>
      </trkpt>
      <trkpt lat="49.32417" lon="-0.5046">
        <ele>39.6</ele>
        <time>2021-04-04T09:13:21Z</time>
      </trkpt>
      <trkpt lat="49.32435" lon="-0.50444">
        <ele>39.3</ele>
        <time>2021-04-04T09:13:28Z</time>
      </trkpt>
      <trkpt lat="49.32443" lon="-0.50437">
        <ele>39.1</ele>
        <time>2021-04-04T09:13:31Z</time>
      </trkpt>
      <trkpt lat="49.32459" lon="-0.50424">
        <ele>38.9</ele>
        <time>2021-04-04T09:13:37Z</time>
      </trkpt>
      <trkpt lat="49.32468" lon="-0.50417">
        <ele>38.9</ele>
        <time>2021-04-04T09:13:40Z</time>
      </trkpt>
      <trkpt lat="49.32477" lon="-0.50409">
        <ele>38.9</ele>
        <time>2021-04-04T09:13:44Z</time>
      </trkpt>
      <trkpt lat="49.32488" lon="-0.504">
        <ele>38.8</ele>
        <time>2021-04-04T09:13:48Z</time>
      </trkpt>
      <trkpt lat="49.32506" lon="-0.50385">
        <ele>38.8</ele>
        <time>2021-04-04T09:13:55Z</time>
      </trkpt>
      <trkpt lat="49.32515" lon="-0.50377">
        <ele>38.8</ele>
        <time>2021-04-04T09:13:59Z</time>
      </trkpt>
      <trkpt lat="49.32534" lon="-0.5036">
        <ele>38.8</ele>
        <time>2021-04-04T09:14:06Z</time>
      </trkpt>
      <trkpt lat="49.32541" lon="-0.50353">
        <ele>38.9</ele>
        <time>2021-04-04T09:14:09Z</time>
      </trkpt>
      <trkpt lat="49.32559" lon="-0.50339">
        <ele>39</ele>
        <time>2021-04-04T09:14:16Z</time>
      </trkpt>
      <trkpt lat="49.32564" lon="-0.50334">
        <ele>39</ele>
        <time>2021-04-04T09:14:18Z</time>
      </trkpt>
      <trkpt lat="49.32582" lon="-0.50318">
        <ele>39.1</ele>
        <time>2021-04-04T09:14:25Z</time>
      </trkpt>
      <trkpt lat="49.3259" lon="-0.50313">
        <ele>39.1</ele>
        <time>2021-04-04T09:14:28Z</time>
      </trkpt>
      <trkpt lat="49.32608" lon="-0.50296">
        <ele>38.8</ele>
        <time>2021-04-04T09:14:35Z</time>
      </trkpt>
      <trkpt lat="49.32616" lon="-0.50289">
        <ele>38.6</ele>
        <time>2021-04-04T09:14:38Z</time>
      </trkpt>
      <trkpt lat="49.3263" lon="-0.50275">
        <ele>38.5</ele>
        <time>2021-04-04T09:14:44Z</time>
      </trkpt>
      <trkpt lat="49.3264" lon="-0.50266">
        <ele>38.5</ele>
        <time>2021-04-04T09:14:48Z</time>
      </trkpt>
      <trkpt lat="49.32658" lon="-0.50251">
        <ele>38.4</ele>
        <time>2021-04-04T09:14:55Z</time>
      </trkpt>
      <trkpt lat="49.32669" lon="-0.50242">
        <ele>38.3</ele>
        <time>2021-04-04T09:14:59Z</time>
      </trkpt>
      <trkpt lat="49.32673" lon="-0.50238">
        <ele>38.3</ele>
        <time>2021-04-04T09:15:01Z</time>
      </trkpt>
      <trkpt lat="49.32682" lon="-0.5023">
        <ele>38.2</ele>
        <time>2021-04-04T09:15:04Z</time>
      </trkpt>
      <trkpt lat="49.32694" lon="-0.50219">
        <ele>38.2</ele>
        <time>2021-04-04T09:15:09Z</time>
      </trkpt>
      <trkpt lat="49.32712" lon="-0.50203">
        <ele>38</ele>
        <time>2021-04-04T09:15:16Z</time>
      </trkpt>
      <trkpt lat="49.32728" lon="-0.50189">
        <ele>37.7</ele>
        <time>2021-04-04T09:15:22Z</time>
      </trkpt>
      <trkpt lat="49.32734" lon="-0.50184">
        <ele>37.7</ele>
        <time>2021-04-04T09:15:24Z</time>
      </trkpt>
      <trkpt lat="49.3275" lon="-0.50171">
        <ele>37.6</ele>
        <time>2021-04-04T09:15:30Z</time>
      </trkpt>
      <trkpt lat="49.32756" lon="-0.50166">
        <ele>37.6</ele>
        <time>2021-04-04T09:15:32Z</time>
      </trkpt>
      <trkpt lat="49.32773" lon="-0.50152">
        <ele>37.3</ele>
        <time>2021-04-04T09:15:39Z</time>
      </trkpt>
      <trkpt lat="49.32779" lon="-0.50147">
        <ele>37.2</ele>
        <time>2021-04-04T09:15:41Z</time>
      </trkpt>
      <trkpt lat="49.32792" lon="-0.50135">
        <ele>37.1</ele>
        <time>2021-04-04T09:15:46Z</time>
      </trkpt>
      <trkpt lat="49.32806" lon="-0.50124">
        <ele>37.1</ele>
        <time>2021-04-04T09:15:51Z</time>
      </trkpt>
      <trkpt lat="49.32822" lon="-0.5011">
        <ele>37</ele>
        <time>2021-04-04T09:15:57Z</time>
      </trkpt>
      <trkpt lat="49.3284" lon="-0.50095">
        <ele>36.8</ele>
        <time>2021-04-04T09:16:04Z</time>
      </trkpt>
      <trkpt lat="49.32845" lon="-0.5009">
        <ele>36.8</ele>
        <time>2021-04-04T09:16:06Z</time>
      </trkpt>
      <trkpt lat="49.32863" lon="-0.50075">
        <ele>36.7</ele>
        <time>2021-04-04T09:16:13Z</time>
      </trkpt>
      <trkpt lat="49.32868" lon="-0.5007">
        <ele>36.7</ele>
        <time>2021-04-04T09:16:15Z</time>
      </trkpt>
      <trkpt lat="49.32884" lon="-0.50056">
        <ele>36.6</ele>
        <time>2021-04-04T09:16:21Z</time>
      </trkpt>
      <trkpt lat="49.32892" lon="-0.5005">
        <ele>36.6</ele>
        <time>2021-04-04T09:16:24Z</time>
      </trkpt>
      <trkpt lat="49.3291" lon="-0.50035">
        <ele>36.2</ele>
        <time>2021-04-04T09:16:31Z</time>
      </trkpt>
      <trkpt lat="49.32926" lon="-0.50022">
        <ele>35.8</ele>
        <time>2021-04-04T09:16:37Z</time>
      </trkpt>
      <trkpt lat="49.32929" lon="-0.5002">
        <ele>35.8</ele>
        <time>2021-04-04T09:16:38Z</time>
      </trkpt>
      <trkpt lat="49.32946" lon="-0.50004">
        <ele>35.4</ele>
        <time>2021-04-04T09:16:45Z</time>
      </trkpt>
      <trkpt lat="49.32952" lon="-0.5">
        <ele>35.4</ele>
        <time>2021-04-04T09:16:47Z</time>
      </trkpt>
      <trkpt lat="49.32968" lon="-0.49982">
        <ele>35.1</ele>
        <time>2021-04-04T09:16:54Z</time>
      </trkpt>
      <trkpt lat="49.32984" lon="-0.49962">
        <ele>34.8</ele>
        <time>2021-04-04T09:17:01Z</time>
      </trkpt>
      <trkpt lat="49.32988" lon="-0.49955">
        <ele>34.7</ele>
        <time>2021-04-04T09:17:03Z</time>
      </trkpt>
      <trkpt lat="49.32995" lon="-0.49945">
        <ele>34.6</ele>
        <time>2021-04-04T09:17:06Z</time>
      </trkpt>
      <trkpt lat="49.33001" lon="-0.49935">
        <ele>34.5</ele>
        <time>2021-04-04T09:17:09Z</time>
      </trkpt>
      <trkpt lat="49.33016" lon="-0.49914">
        <ele>34.2</ele>
        <time>2021-04-04T09:17:16Z</time>
      </trkpt>
      <trkpt lat="49.33029" lon="-0.49896">
        <ele>34</ele>
        <time>2021-04-04T09:17:22Z</time>
      </trkpt>
      <trkpt lat="49.33042" lon="-0.49878">
        <ele>33.8</ele>
        <time>2021-04-04T09:17:28Z</time>
      </trkpt>
      <trkpt lat="49.33053" lon="-0.49862">
        <ele>33.5</ele>
        <time>2021-04-04T09:17:33Z</time>
      </trkpt>
      <trkpt lat="49.33064" lon="-0.49847">
        <ele>33.2</ele>
        <time>2021-04-04T09:17:38Z</time>
      </trkpt>
      <trkpt lat="49.33069" lon="-0.49841">
        <ele>33.1</ele>
        <time>2021-04-04T09:17:40Z</time>
      </trkpt>
      <trkpt lat="49.33073" lon="-0.49835">
        <ele>32.9</ele>
        <time>2021-04-04T09:17:42Z</time>
      </trkpt>
      <trkpt lat="49.33077" lon="-0.49828">
        <ele>32.7</ele>
        <time>2021-04-04T09:17:44Z</time>
      </trkpt>
      <trkpt lat="49.3308" lon="-0.49825">
        <ele>32.7</ele>
        <time>2021-04-04T09:17:45Z</time>
      </trkpt>
      <trkpt lat="49.33084" lon="-0.49819">
        <ele>32.5</ele>
        <time>2021-04-04T09:17:47Z</time>
      </trkpt>
      <trkpt lat="49.33098" lon="-0.49801">
        <ele>32.2</ele>
        <time>2021-04-04T09:17:53Z</time>
      </trkpt>
      <trkpt lat="49.33113" lon="-0.49782">
        <ele>32</ele>
        <time>2021-04-04T09:17:59Z</time>
      </trkpt>
      <trkpt lat="49.33118" lon="-0.49777">
        <ele>31.9</ele>
        <time>2021-04-04T09:18:01Z</time>
      </trkpt>
      <trkpt lat="49.33131" lon="-0.49759">
        <ele>31.7</ele>
        <time>2021-04-04T09:18:07Z</time>
      </trkpt>
      <trkpt lat="49.33144" lon="-0.4974">
        <ele>31.6</ele>
        <time>2021-04-04T09:18:13Z</time>
      </trkpt>
      <trkpt lat="49.33157" lon="-0.49722">
        <ele>31.2</ele>
        <time>2021-04-04T09:18:19Z</time>
      </trkpt>
      <trkpt lat="49.33171" lon="-0.49703">
        <ele>30.9</ele>
        <time>2021-04-04T09:18:25Z</time>
      </trkpt>
      <trkpt lat="49.33173" lon="-0.497">
        <ele>30.9</ele>
        <time>2021-04-04T09:18:26Z</time>
      </trkpt>
      <trkpt lat="49.33184" lon="-0.49682">
        <ele>30.7</ele>
        <time>2021-04-04T09:18:31Z</time>
      </trkpt>
      <trkpt lat="49.33186" lon="-0.49678">
        <ele>30.7</ele>
        <time>2021-04-04T09:18:32Z</time>
      </trkpt>
      <trkpt lat="49.33199" lon="-0.49656">
        <ele>30.4</ele>
        <time>2021-04-04T09:18:38Z</time>
      </trkpt>
      <trkpt lat="49.33209" lon="-0.49639">
        <ele>30</ele>
        <time>2021-04-04T09:18:43Z</time>
      </trkpt>
      <trkpt lat="49.33213" lon="-0.49632">
        <ele>29.8</ele>
        <time>2021-04-04T09:18:45Z</time>
      </trkpt>
      <trkpt lat="49.33224" lon="-0.49611">
        <ele>29.4</ele>
        <time>2021-04-04T09:18:51Z</time>
      </trkpt>
      <trkpt lat="49.33237" lon="-0.49587">
        <ele>28.9</ele>
        <time>2021-04-04T09:18:58Z</time>
      </trkpt>
      <trkpt lat="49.33251" lon="-0.49564">
        <ele>28.4</ele>
        <time>2021-04-04T09:19:05Z</time>
      </trkpt>
      <trkpt lat="49.33255" lon="-0.49557">
        <ele>28.3</ele>
        <time>2021-04-04T09:19:07Z</time>
      </trkpt>
      <trkpt lat="49.33267" lon="-0.49536">
        <ele>28</ele>
        <time>2021-04-04T09:19:13Z</time>
      </trkpt>
      <trkpt lat="49.33279" lon="-0.49516">
        <ele>27.6</ele>
        <time>2021-04-04T09:19:19Z</time>
      </trkpt>
      <trkpt lat="49.33284" lon="-0.49509">
        <ele>27.4</ele>
        <time>2021-04-04T09:19:21Z</time>
      </trkpt>
      <trkpt lat="49.33297" lon="-0.4949">
        <ele>26.6</ele>
        <time>2021-04-04T09:19:27Z</time>
      </trkpt>
      <trkpt lat="49.33299" lon="-0.49486">
        <ele>26.5</ele>
        <time>2021-04-04T09:19:28Z</time>
      </trkpt>
      <trkpt lat="49.33313" lon="-0.4947">
        <ele>25.8</ele>
        <time>2021-04-04T09:19:34Z</time>
      </trkpt>
      <trkpt lat="49.33316" lon="-0.49467">
        <ele>25.7</ele>
        <time>2021-04-04T09:19:35Z</time>
      </trkpt>
      <trkpt lat="49.3333" lon="-0.49452">
        <ele>25.1</ele>
        <time>2021-04-04T09:19:41Z</time>
      </trkpt>
      <trkpt lat="49.33347" lon="-0.49436">
        <ele>24.4</ele>
        <time>2021-04-04T09:19:48Z</time>
      </trkpt>
      <trkpt lat="49.33364" lon="-0.49423">
        <ele>23.6</ele>
        <time>2021-04-04T09:19:54Z</time>
      </trkpt>
      <trkpt lat="49.33371" lon="-0.49419">
        <ele>23.3</ele>
        <time>2021-04-04T09:19:57Z</time>
      </trkpt>
      <trkpt lat="49.33387" lon="-0.49409">
        <ele>22.3</ele>
        <time>2021-04-04T09:20:03Z</time>
      </trkpt>
      <trkpt lat="49.334" lon="-0.49394">
        <ele>21.5</ele>
        <time>2021-04-04T09:20:09Z</time>
      </trkpt>
      <trkpt lat="49.33415" lon="-0.49376">
        <ele>20.4</ele>
        <time>2021-04-04T09:20:16Z</time>
      </trkpt>
      <trkpt lat="49.33418" lon="-0.49373">
        <ele>20.1</ele>
        <time>2021-04-04T09:20:17Z</time>
      </trkpt>
      <trkpt lat="49.33431" lon="-0.4936">
        <ele>18.8</ele>
        <time>2021-04-04T09:20:23Z</time>
      </trkpt>
      <trkpt lat="49.33447" lon="-0.49345">
        <ele>17.1</ele>
        <time>2021-04-04T09:20:30Z</time>
      </trkpt>
      <trkpt lat="49.3345" lon="-0.49342">
        <ele>16.9</ele>
        <time>2021-04-04T09:20:31Z</time>
      </trkpt>
      <trkpt lat="49.33461" lon="-0.49331">
        <ele>15.7</ele>
        <time>2021-04-04T09:20:36Z</time>
      </trkpt>
      <trkpt lat="49.33475" lon="-0.4932">
        <ele>14.4</ele>
        <time>2021-04-04T09:20:42Z</time>
      </trkpt>
      <trkpt lat="49.3348" lon="-0.49314">
        <ele>13.9</ele>
        <time>2021-04-04T09:20:44Z</time>
      </trkpt>
      <trkpt lat="49.33486" lon="-0.49306">
        <ele>13.3</ele>
        <time>2021-04-04T09:20:46Z</time>
      </trkpt>
      <trkpt lat="49.33499" lon="-0.49283">
        <ele>12</ele>
        <time>2021-04-04T09:20:53Z</time>
      </trkpt>
      <trkpt lat="49.33501" lon="-0.49275">
        <ele>11.6</ele>
        <time>2021-04-04T09:20:55Z</time>
      </trkpt>
      <trkpt lat="49.33588" lon="-0.4912">
        <ele>6.9</ele>
        <time>2021-04-04T09:23:36Z</time>
      </trkpt>
      <trkpt lat="49.3359" lon="-0.49119">
        <ele>6.8</ele>
        <time>2021-04-04T09:23:37Z</time>
      </trkpt>
      <trkpt lat="49.33599" lon="-0.49116">
        <ele>6.4</ele>
        <time>2021-04-04T09:23:41Z</time>
      </trkpt>
      <trkpt lat="49.33613" lon="-0.49109">
        <ele>5.8</ele>
        <time>2021-04-04T09:23:46Z</time>
      </trkpt>
      <trkpt lat="49.33615" lon="-0.49108">
        <ele>5.7</ele>
        <time>2021-04-04T09:23:47Z</time>
      </trkpt>
      <trkpt lat="49.33618" lon="-0.49106">
        <ele>5.6</ele>
        <time>2021-04-04T09:23:48Z</time>
      </trkpt>
      <trkpt lat="49.33623" lon="-0.49102">
        <ele>5.3</ele>
        <time>2021-04-04T09:23:50Z</time>
      </trkpt>
      <trkpt lat="49.33628" lon="-0.49098">
        <ele>5.1</ele>
        <time>2021-04-04T09:23:52Z</time>
      </trkpt>
      <trkpt lat="49.33633" lon="-0.49094">
        <ele>4.9</ele>
        <time>2021-04-04T09:23:54Z</time>
      </trkpt>
      <trkpt lat="49.33636" lon="-0.49093">
        <ele>4.9</ele>
        <time>2021-04-04T09:23:55Z</time>
      </trkpt>
      <trkpt lat="49.33643" lon="-0.49086">
        <ele>4.6</ele>
        <time>2021-04-04T09:23:58Z</time>
      </trkpt>
      <trkpt lat="49.33655" lon="-0.4908">
        <ele>4.3</ele>
        <time>2021-04-04T09:24:02Z</time>
      </trkpt>
      <trkpt lat="49.33666" lon="-0.4907">
        <ele>4</ele>
        <time>2021-04-04T09:24:06Z</time>
      </trkpt>
      <trkpt lat="49.33674" lon="-0.49056">
        <ele>3.9</ele>
        <time>2021-04-04T09:24:10Z</time>
      </trkpt>
      <trkpt lat="49.3368" lon="-0.49035">
        <ele>3.7</ele>
        <time>2021-04-04T09:24:15Z</time>
      </trkpt>
      <trkpt lat="49.3368" lon="-0.49031">
        <ele>3.7</ele>
        <time>2021-04-04T09:24:16Z</time>
      </trkpt>
      <trkpt lat="49.33678" lon="-0.49009">
        <ele>3.7</ele>
        <time>2021-04-04T09:24:21Z</time>
      </trkpt>
      <trkpt lat="49.33675" lon="-0.49001">
        <ele>3.7</ele>
        <time>2021-04-04T09:24:23Z</time>
      </trkpt>
      <trkpt lat="49.33671" lon="-0.48974">
        <ele>3.6</ele>
        <time>2021-04-04T09:24:30Z</time>
      </trkpt>
      <trkpt lat="49.3367" lon="-0.48969">
        <ele>3.6</ele>
        <time>2021-04-04T09:24:31Z</time>
      </trkpt>
      <trkpt lat="49.33664" lon="-0.48938">
        <ele>3.5</ele>
        <time>2021-04-04T09:24:38Z</time>
      </trkpt>
      <trkpt lat="49.33663" lon="-0.4893">
        <ele>3.5</ele>
        <time>2021-04-04T09:24:40Z</time>
      </trkpt>
      <trkpt lat="49.33657" lon="-0.48904">
        <ele>3.3</ele>
        <time>2021-04-04T09:24:46Z</time>
      </trkpt>
      <trkpt lat="49.33654" lon="-0.48884">
        <ele>3</ele>
        <time>2021-04-04T09:24:50Z</time>
      </trkpt>
      <trkpt lat="49.33654" lon="-0.48874">
        <ele>2.9</ele>
        <time>2021-04-04T09:24:52Z</time>
      </trkpt>
      <trkpt lat="49.33658" lon="-0.48867">
        <ele>2.8</ele>
        <time>2021-04-04T09:24:54Z</time>
      </trkpt>
      <trkpt lat="49.33667" lon="-0.48858">
        <ele>2.7</ele>
        <time>2021-04-04T09:24:57Z</time>
      </trkpt>
      <trkpt lat="49.33675" lon="-0.4885">
        <ele>2.6</ele>
        <time>2021-04-04T09:25:00Z</time>
      </trkpt>
      <trkpt lat="49.33687" lon="-0.4884">
        <ele>2.6</ele>
        <time>2021-04-04T09:25:05Z</time>
      </trkpt>
      <trkpt lat="49.33698" lon="-0.48828">
        <ele>2.5</ele>
        <time>2021-04-04T09:25:10Z</time>
      </trkpt>
      <trkpt lat="49.33702" lon="-0.48806">
        <ele>3.1</ele>
        <time>2021-04-04T09:25:16Z</time>
      </trkpt>
      <trkpt lat="49.33702" lon="-0.48777">
        <ele>3.6</ele>
        <time>2021-04-04T09:25:22Z</time>
      </trkpt>
      <trkpt lat="49.33699" lon="-0.48755">
        <ele>3.9</ele>
        <time>2021-04-04T09:25:27Z</time>
      </trkpt>
      <trkpt lat="49.33697" lon="-0.48738">
        <ele>4.2</ele>
        <time>2021-04-04T09:25:31Z</time>
      </trkpt>
      <trkpt lat="49.33695" lon="-0.4872">
        <ele>4.4</ele>
        <time>2021-04-04T09:25:35Z</time>
      </trkpt>
      <trkpt lat="49.33694" lon="-0.48704">
        <ele>4.6</ele>
        <time>2021-04-04T09:25:39Z</time>
      </trkpt>
      <trkpt lat="49.33694" lon="-0.48691">
        <ele>4.7</ele>
        <time>2021-04-04T09:25:42Z</time>
      </trkpt>
      <trkpt lat="49.33692" lon="-0.48667">
        <ele>5</ele>
        <time>2021-04-04T09:25:48Z</time>
      </trkpt>
      <trkpt lat="49.33691" lon="-0.48646">
        <ele>5</ele>
        <time>2021-04-04T09:25:53Z</time>
      </trkpt>
      <trkpt lat="49.33691" lon="-0.48633">
        <ele>5</ele>
        <time>2021-04-04T09:25:56Z</time>
      </trkpt>
      <trkpt lat="49.33689" lon="-0.48613">
        <ele>5</ele>
        <time>2021-04-04T09:26:00Z</time>
      </trkpt>
      <trkpt lat="49.33688" lon="-0.48591">
        <ele>4.9</ele>
        <time>2021-04-04T09:26:05Z</time>
      </trkpt>
      <trkpt lat="49.33686" lon="-0.48562">
        <ele>4.8</ele>
        <time>2021-04-04T09:26:13Z</time>
      </trkpt>
      <trkpt lat="49.33684" lon="-0.48535">
        <ele>4.4</ele>
        <time>2021-04-04T09:26:19Z</time>
      </trkpt>
      <trkpt lat="49.33683" lon="-0.48523">
        <ele>4.2</ele>
        <time>2021-04-04T09:26:22Z</time>
      </trkpt>
      <trkpt lat="49.33679" lon="-0.48493">
        <ele>3.8</ele>
        <time>2021-04-04T09:26:29Z</time>
      </trkpt>
      <trkpt lat="49.33678" lon="-0.48488">
        <ele>4</ele>
        <time>2021-04-04T09:26:30Z</time>
      </trkpt>
      <trkpt lat="49.33673" lon="-0.48462">
        <ele>3.9</ele>
        <time>2021-04-04T09:26:36Z</time>
      </trkpt>
      <trkpt lat="49.33669" lon="-0.48437">
        <ele>3.9</ele>
        <time>2021-04-04T09:26:42Z</time>
      </trkpt>
      <trkpt lat="49.33666" lon="-0.48417">
        <ele>3.8</ele>
        <time>2021-04-04T09:26:47Z</time>
      </trkpt>
      <trkpt lat="49.33665" lon="-0.4841">
        <ele>3.7</ele>
        <time>2021-04-04T09:26:49Z</time>
      </trkpt>
      <trkpt lat="49.33662" lon="-0.48397">
        <ele>3.6</ele>
        <time>2021-04-04T09:26:52Z</time>
      </trkpt>
      <trkpt lat="49.33659" lon="-0.4838">
        <ele>3.5</ele>
        <time>2021-04-04T09:26:56Z</time>
      </trkpt>
      <trkpt lat="49.33656" lon="-0.4836">
        <ele>3.4</ele>
        <time>2021-04-04T09:27:01Z</time>
      </trkpt>
      <trkpt lat="49.33655" lon="-0.48355">
        <ele>3.4</ele>
        <time>2021-04-04T09:27:02Z</time>
      </trkpt>
      <trkpt lat="49.3365" lon="-0.48328">
        <ele>3.1</ele>
        <time>2021-04-04T09:27:09Z</time>
      </trkpt>
      <trkpt lat="49.33649" lon="-0.48324">
        <ele>3.1</ele>
        <time>2021-04-04T09:27:10Z</time>
      </trkpt>
      <trkpt lat="49.33643" lon="-0.48305">
        <ele>2.8</ele>
        <time>2021-04-04T09:27:15Z</time>
      </trkpt>
      <trkpt lat="49.33638" lon="-0.48289">
        <ele>2.7</ele>
        <time>2021-04-04T09:27:19Z</time>
      </trkpt>
      <trkpt lat="49.33632" lon="-0.48263">
        <ele>2.3</ele>
        <time>2021-04-04T09:27:25Z</time>
      </trkpt>
      <trkpt lat="49.3363" lon="-0.48257">
        <ele>2.2</ele>
        <time>2021-04-04T09:27:26Z</time>
      </trkpt>
      <trkpt lat="49.33623" lon="-0.48232">
        <ele>1.8</ele>
        <time>2021-04-04T09:27:32Z</time>
      </trkpt>
      <trkpt lat="49.33622" lon="-0.48228">
        <ele>1.9</ele>
        <time>2021-04-04T09:27:33Z</time>
      </trkpt>
      <trkpt lat="49.33616" lon="-0.48201">
        <ele>1.5</ele>
        <time>2021-04-04T09:27:40Z</time>
      </trkpt>
      <trkpt lat="49.33609" lon="-0.48173">
        <ele>1.3</ele>
        <time>2021-04-04T09:27:47Z</time>
      </trkpt>
      <trkpt lat="49.33601" lon="-0.48146">
        <ele>1.3</ele>
        <time>2021-04-04T09:27:54Z</time>
      </trkpt>
      <trkpt lat="49.33597" lon="-0.48126">
        <ele>1.4</ele>
        <time>2021-04-04T09:28:00Z</time>
      </trkpt>
      <trkpt lat="49.33594" lon="-0.4812">
        <ele>1.5</ele>
        <time>2021-04-04T09:28:02Z</time>
      </trkpt>
      <trkpt lat="49.33588" lon="-0.48118">
        <ele>1.8</ele>
        <time>2021-04-04T09:28:04Z</time>
      </trkpt>
      <trkpt lat="49.33587" lon="-0.48116">
        <ele>1.9</ele>
        <time>2021-04-04T09:28:05Z</time>
      </trkpt>
      <trkpt lat="49.33585" lon="-0.48107">
        <ele>2</ele>
        <time>2021-04-04T09:28:08Z</time>
      </trkpt>
      <trkpt lat="49.3358" lon="-0.4808">
        <ele>2.2</ele>
        <time>2021-04-04T09:28:14Z</time>
      </trkpt>
      <trkpt lat="49.33573" lon="-0.4805">
        <ele>2.2</ele>
        <time>2021-04-04T09:28:21Z</time>
      </trkpt>
      <trkpt lat="49.3357" lon="-0.48044">
        <ele>2.3</ele>
        <time>2021-04-04T09:28:23Z</time>
      </trkpt>
      <trkpt lat="49.33564" lon="-0.48026">
        <ele>2.2</ele>
        <time>2021-04-04T09:28:28Z</time>
      </trkpt>
      <trkpt lat="49.33563" lon="-0.48022">
        <ele>2.2</ele>
        <time>2021-04-04T09:28:29Z</time>
      </trkpt>
      <trkpt lat="49.33562" lon="-0.48013">
        <ele>2.2</ele>
        <time>2021-04-04T09:28:31Z</time>
      </trkpt>
      <trkpt lat="49.33557" lon="-0.47996">
        <ele>2.2</ele>
        <time>2021-04-04T09:28:35Z</time>
      </trkpt>
      <trkpt lat="49.33551" lon="-0.47971">
        <ele>2.1</ele>
        <time>2021-04-04T09:28:41Z</time>
      </trkpt>
      <trkpt lat="49.33547" lon="-0.47959">
        <ele>2.1</ele>
        <time>2021-04-04T09:28:44Z</time>
      </trkpt>
      <trkpt lat="49.33539" lon="-0.47932">
        <ele>2.2</ele>
        <time>2021-04-04T09:28:51Z</time>
      </trkpt>
      <trkpt lat="49.33539" lon="-0.47925">
        <ele>2.2</ele>
        <time>2021-04-04T09:28:53Z</time>
      </trkpt>
      <trkpt lat="49.33547" lon="-0.47913">
        <ele>2.1</ele>
        <time>2021-04-04T09:28:57Z</time>
      </trkpt>
      <trkpt lat="49.33566" lon="-0.479">
        <ele>2.1</ele>
        <time>2021-04-04T09:29:04Z</time>
      </trkpt>
      <trkpt lat="49.33569" lon="-0.47899">
        <ele>2</ele>
        <time>2021-04-04T09:29:05Z</time>
      </trkpt>
      <trkpt lat="49.33588" lon="-0.47887">
        <ele>2.1</ele>
        <time>2021-04-04T09:29:12Z</time>
      </trkpt>
      <trkpt lat="49.33606" lon="-0.47876">
        <ele>2.2</ele>
        <time>2021-04-04T09:29:19Z</time>
      </trkpt>
      <trkpt lat="49.33609" lon="-0.47875">
        <ele>2.2</ele>
        <time>2021-04-04T09:29:20Z</time>
      </trkpt>
      <trkpt lat="49.33627" lon="-0.47864">
        <ele>2.2</ele>
        <time>2021-04-04T09:29:27Z</time>
      </trkpt>
      <trkpt lat="49.33643" lon="-0.47854">
        <ele>2.3</ele>
        <time>2021-04-04T09:29:33Z</time>
      </trkpt>
      <trkpt lat="49.33646" lon="-0.47852">
        <ele>2.3</ele>
        <time>2021-04-04T09:29:34Z</time>
      </trkpt>
      <trkpt lat="49.33665" lon="-0.47839">
        <ele>2.3</ele>
        <time>2021-04-04T09:29:41Z</time>
      </trkpt>
      <trkpt lat="49.33667" lon="-0.47838">
        <ele>2.4</ele>
        <time>2021-04-04T09:29:42Z</time>
      </trkpt>
      <trkpt lat="49.33685" lon="-0.47825">
        <ele>2.5</ele>
        <time>2021-04-04T09:29:49Z</time>
      </trkpt>
      <trkpt lat="49.33693" lon="-0.4782">
        <ele>2.7</ele>
        <time>2021-04-04T09:29:52Z</time>
      </trkpt>
      <trkpt lat="49.337" lon="-0.47814">
        <ele>2.8</ele>
        <time>2021-04-04T09:29:55Z</time>
      </trkpt>
      <trkpt lat="49.33761" lon="-0.47775">
        <ele>2.4</ele>
        <time>2021-04-04T09:30:41Z</time>
      </trkpt>
      <trkpt lat="49.33762" lon="-0.47774">
        <ele>2.4</ele>
        <time>2021-04-04T09:30:42Z</time>
      </trkpt>
      <trkpt lat="49.33764" lon="-0.47773">
        <ele>2.4</ele>
        <time>2021-04-04T09:30:43Z</time>
      </trkpt>
      <trkpt lat="49.3378" lon="-0.47762">
        <ele>2.4</ele>
        <time>2021-04-04T09:30:49Z</time>
      </trkpt>
      <trkpt lat="49.33797" lon="-0.47751">
        <ele>2.4</ele>
        <time>2021-04-04T09:30:56Z</time>
      </trkpt>
      <trkpt lat="49.338" lon="-0.47749">
        <ele>2.4</ele>
        <time>2021-04-04T09:30:57Z</time>
      </trkpt>
      <trkpt lat="49.33802" lon="-0.47747">
        <ele>2.4</ele>
        <time>2021-04-04T09:30:58Z</time>
      </trkpt>
      <trkpt lat="49.3381" lon="-0.47742">
        <ele>2.5</ele>
        <time>2021-04-04T09:31:01Z</time>
      </trkpt>
      <trkpt lat="49.33817" lon="-0.47737">
        <ele>2.5</ele>
        <time>2021-04-04T09:31:04Z</time>
      </trkpt>
      <trkpt lat="49.33821" lon="-0.47732">
        <ele>2.5</ele>
        <time>2021-04-04T09:31:06Z</time>
      </trkpt>
      <trkpt lat="49.33829" lon="-0.47717">
        <ele>2.5</ele>
        <time>2021-04-04T09:31:11Z</time>
      </trkpt>
      <trkpt lat="49.33831" lon="-0.47714">
        <ele>2.5</ele>
        <time>2021-04-04T09:31:12Z</time>
      </trkpt>
      <trkpt lat="49.33836" lon="-0.47699">
        <ele>2.8</ele>
        <time>2021-04-04T09:31:16Z</time>
      </trkpt>
      <trkpt lat="49.33839" lon="-0.47678">
        <ele>3</ele>
        <time>2021-04-04T09:31:21Z</time>
      </trkpt>
      <trkpt lat="49.33841" lon="-0.47661">
        <ele>3.1</ele>
        <time>2021-04-04T09:31:25Z</time>
      </trkpt>
      <trkpt lat="49.33843" lon="-0.47653">
        <ele>3.1</ele>
        <time>2021-04-04T09:31:27Z</time>
      </trkpt>
      <trkpt lat="49.33845" lon="-0.47633">
        <ele>3.1</ele>
        <time>2021-04-04T09:31:32Z</time>
      </trkpt>
      <trkpt lat="49.33846" lon="-0.47629">
        <ele>3.1</ele>
        <time>2021-04-04T09:31:33Z</time>
      </trkpt>
      <trkpt lat="49.33848" lon="-0.47626">
        <ele>3.1</ele>
        <time>2021-04-04T09:31:34Z</time>
      </trkpt>
      <trkpt lat="49.33854" lon="-0.47618">
        <ele>3</ele>
        <time>2021-04-04T09:31:37Z</time>
      </trkpt>
      <trkpt lat="49.33853" lon="-0.476">
        <ele>3</ele>
        <time>2021-04-04T09:31:41Z</time>
      </trkpt>
      <trkpt lat="49.33847" lon="-0.47574">
        <ele>3.1</ele>
        <time>2021-04-04T09:31:48Z</time>
      </trkpt>
      <trkpt lat="49.33845" lon="-0.47544">
        <ele>3.2</ele>
        <time>2021-04-04T09:31:55Z</time>
      </trkpt>
      <trkpt lat="49.33845" lon="-0.4754">
        <ele>3.2</ele>
        <time>2021-04-04T09:31:56Z</time>
      </trkpt>
      <trkpt lat="49.33842" lon="-0.47511">
        <ele>3.3</ele>
        <time>2021-04-04T09:32:03Z</time>
      </trkpt>
      <trkpt lat="49.3384" lon="-0.47496">
        <ele>3.4</ele>
        <time>2021-04-04T09:32:07Z</time>
      </trkpt>
      <trkpt lat="49.33838" lon="-0.47483">
        <ele>3.5</ele>
        <time>2021-04-04T09:32:10Z</time>
      </trkpt>
      <trkpt lat="49.33833" lon="-0.47465">
        <ele>3.7</ele>
        <time>2021-04-04T09:32:15Z</time>
      </trkpt>
      <trkpt lat="49.33827" lon="-0.47438">
        <ele>3.8</ele>
        <time>2021-04-04T09:32:22Z</time>
      </trkpt>
      <trkpt lat="49.33826" lon="-0.47408">
        <ele>3.9</ele>
        <time>2021-04-04T09:32:29Z</time>
      </trkpt>
      <trkpt lat="49.3382" lon="-0.47382">
        <ele>4</ele>
        <time>2021-04-04T09:32:36Z</time>
      </trkpt>
      <trkpt lat="49.33819" lon="-0.47378">
        <ele>4</ele>
        <time>2021-04-04T09:32:37Z</time>
      </trkpt>
      <trkpt lat="49.33813" lon="-0.47353">
        <ele>3.8</ele>
        <time>2021-04-04T09:32:44Z</time>
      </trkpt>
      <trkpt lat="49.33813" lon="-0.47342">
        <ele>3.8</ele>
        <time>2021-04-04T09:32:47Z</time>
      </trkpt>
      <trkpt lat="49.33815" lon="-0.47334">
        <ele>3.8</ele>
        <time>2021-04-04T09:32:49Z</time>
      </trkpt>
      <trkpt lat="49.33813" lon="-0.47313">
        <ele>4.2</ele>
        <time>2021-04-04T09:32:54Z</time>
      </trkpt>
      <trkpt lat="49.33807" lon="-0.47284">
        <ele>4.6</ele>
        <time>2021-04-04T09:33:02Z</time>
      </trkpt>
      <trkpt lat="49.33805" lon="-0.47277">
        <ele>4.5</ele>
        <time>2021-04-04T09:33:04Z</time>
      </trkpt>
      <trkpt lat="49.33802" lon="-0.47267">
        <ele>4.5</ele>
        <time>2021-04-04T09:33:07Z</time>
      </trkpt>
      <trkpt lat="49.33801" lon="-0.47254">
        <ele>4.5</ele>
        <time>2021-04-04T09:33:10Z</time>
      </trkpt>
      <trkpt lat="49.338" lon="-0.47233">
        <ele>4.9</ele>
        <time>2021-04-04T09:33:15Z</time>
      </trkpt>
      <trkpt lat="49.33799" lon="-0.47226">
        <ele>5.1</ele>
        <time>2021-04-04T09:33:17Z</time>
      </trkpt>
      <trkpt lat="49.33796" lon="-0.47205">
        <ele>5.8</ele>
        <time>2021-04-04T09:33:23Z</time>
      </trkpt>
      <trkpt lat="49.33793" lon="-0.47184">
        <ele>6.6</ele>
        <time>2021-04-04T09:33:29Z</time>
      </trkpt>
      <trkpt lat="49.33789" lon="-0.47176">
        <ele>7</ele>
        <time>2021-04-04T09:33:32Z</time>
      </trkpt>
      <trkpt lat="49.33787" lon="-0.47165">
        <ele>7.4</ele>
        <time>2021-04-04T09:33:35Z</time>
      </trkpt>
      <trkpt lat="49.33783" lon="-0.47135">
        <ele>7.9</ele>
        <time>2021-04-04T09:33:43Z</time>
      </trkpt>
      <trkpt lat="49.33783" lon="-0.47128">
        <ele>7.9</ele>
        <time>2021-04-04T09:33:45Z</time>
      </trkpt>
      <trkpt lat="49.33784" lon="-0.4712">
        <ele>8</ele>
        <time>2021-04-04T09:33:47Z</time>
      </trkpt>
      <trkpt lat="49.33782" lon="-0.47113">
        <ele>8.1</ele>
        <time>2021-04-04T09:33:49Z</time>
      </trkpt>
      <trkpt lat="49.33779" lon="-0.47086">
        <ele>8.3</ele>
        <time>2021-04-04T09:33:56Z</time>
      </trkpt>
      <trkpt lat="49.33778" lon="-0.47057">
        <ele>8.1</ele>
        <time>2021-04-04T09:34:03Z</time>
      </trkpt>
      <trkpt lat="49.33777" lon="-0.4705">
        <ele>8</ele>
        <time>2021-04-04T09:34:05Z</time>
      </trkpt>
      <trkpt lat="49.33769" lon="-0.4703">
        <ele>7.4</ele>
        <time>2021-04-04T09:34:11Z</time>
      </trkpt>
      <trkpt lat="49.33766" lon="-0.47015">
        <ele>6.9</ele>
        <time>2021-04-04T09:34:15Z</time>
      </trkpt>
      <trkpt lat="49.3377" lon="-0.46994">
        <ele>6.2</ele>
        <time>2021-04-04T09:34:20Z</time>
      </trkpt>
      <trkpt lat="49.33769" lon="-0.46991">
        <ele>6.1</ele>
        <time>2021-04-04T09:34:21Z</time>
      </trkpt>
      <trkpt lat="49.33763" lon="-0.46982">
        <ele>5.6</ele>
        <time>2021-04-04T09:34:24Z</time>
      </trkpt>
      <trkpt lat="49.33758" lon="-0.46961">
        <ele>4.9</ele>
        <time>2021-04-04T09:34:29Z</time>
      </trkpt>
      <trkpt lat="49.33751" lon="-0.46946">
        <ele>4.4</ele>
        <time>2021-04-04T09:34:33Z</time>
      </trkpt>
      <trkpt lat="49.33736" lon="-0.46943">
        <ele>3.7</ele>
        <time>2021-04-04T09:34:38Z</time>
      </trkpt>
      <trkpt lat="49.33722" lon="-0.46937">
        <ele>3</ele>
        <time>2021-04-04T09:34:44Z</time>
      </trkpt>
      <trkpt lat="49.33721" lon="-0.46935">
        <ele>2.9</ele>
        <time>2021-04-04T09:34:45Z</time>
      </trkpt>
      <trkpt lat="49.33718" lon="-0.46927">
        <ele>2.7</ele>
        <time>2021-04-04T09:34:48Z</time>
      </trkpt>
      <trkpt lat="49.33716" lon="-0.46924">
        <ele>2.7</ele>
        <time>2021-04-04T09:34:49Z</time>
      </trkpt>
      <trkpt lat="49.33693" lon="-0.46852">
        <ele>2.9</ele>
        <time>2021-04-04T09:35:34Z</time>
      </trkpt>
      <trkpt lat="49.33689" lon="-0.46847">
        <ele>2.8</ele>
        <time>2021-04-04T09:35:37Z</time>
      </trkpt>
      <trkpt lat="49.33676" lon="-0.46836">
        <ele>2.7</ele>
        <time>2021-04-04T09:35:42Z</time>
      </trkpt>
      <trkpt lat="49.33658" lon="-0.46823">
        <ele>3.1</ele>
        <time>2021-04-04T09:35:49Z</time>
      </trkpt>
      <trkpt lat="49.33656" lon="-0.46822">
        <ele>3.1</ele>
        <time>2021-04-04T09:35:50Z</time>
      </trkpt>
      <trkpt lat="49.3364" lon="-0.46821">
        <ele>3.4</ele>
        <time>2021-04-04T09:35:56Z</time>
      </trkpt>
      <trkpt lat="49.33632" lon="-0.46821">
        <ele>3.5</ele>
        <time>2021-04-04T09:35:59Z</time>
      </trkpt>
      <trkpt lat="49.3363" lon="-0.46822">
        <ele>3.6</ele>
        <time>2021-04-04T09:36:00Z</time>
      </trkpt>
      <trkpt lat="49.33624" lon="-0.46823">
        <ele>3.6</ele>
        <time>2021-04-04T09:36:02Z</time>
      </trkpt>
      <trkpt lat="49.33614" lon="-0.46822">
        <ele>3.6</ele>
        <time>2021-04-04T09:36:06Z</time>
      </trkpt>
      <trkpt lat="49.33603" lon="-0.46821">
        <ele>3.6</ele>
        <time>2021-04-04T09:36:10Z</time>
      </trkpt>
      <trkpt lat="49.33584" lon="-0.46821">
        <ele>3.6</ele>
        <time>2021-04-04T09:36:18Z</time>
      </trkpt>
      <trkpt lat="49.3357" lon="-0.4682">
        <ele>3.6</ele>
        <time>2021-04-04T09:36:23Z</time>
      </trkpt>
      <trkpt lat="49.33565" lon="-0.46821">
        <ele>3.6</ele>
        <time>2021-04-04T09:36:25Z</time>
      </trkpt>
      <trkpt lat="49.33551" lon="-0.46821">
        <ele>3.6</ele>
        <time>2021-04-04T09:36:30Z</time>
      </trkpt>
      <trkpt lat="49.33548" lon="-0.46821">
        <ele>3.6</ele>
        <time>2021-04-04T09:36:31Z</time>
      </trkpt>
      <trkpt lat="49.33545" lon="-0.4682">
        <ele>3.6</ele>
        <time>2021-04-04T09:36:32Z</time>
      </trkpt>
      <trkpt lat="49.3354" lon="-0.4682">
        <ele>3.7</ele>
        <time>2021-04-04T09:36:34Z</time>
      </trkpt>
      <trkpt lat="49.3353" lon="-0.46819">
        <ele>3.7</ele>
        <time>2021-04-04T09:36:38Z</time>
      </trkpt>
      <trkpt lat="49.33512" lon="-0.46821">
        <ele>3.9</ele>
        <time>2021-04-04T09:36:45Z</time>
      </trkpt>
      <trkpt lat="49.33494" lon="-0.46821">
        <ele>4.2</ele>
        <time>2021-04-04T09:36:52Z</time>
      </trkpt>
      <trkpt lat="49.33489" lon="-0.46821">
        <ele>4.3</ele>
        <time>2021-04-04T09:36:54Z</time>
      </trkpt>
      <trkpt lat="49.33482" lon="-0.46815">
        <ele>4.4</ele>
        <time>2021-04-04T09:36:58Z</time>
      </trkpt>
      <trkpt lat="49.33483" lon="-0.46799">
        <ele>4.5</ele>
        <time>2021-04-04T09:37:02Z</time>
      </trkpt>
      <trkpt lat="49.33483" lon="-0.4677">
        <ele>4.4</ele>
        <time>2021-04-04T09:37:09Z</time>
      </trkpt>
      <trkpt lat="49.33483" lon="-0.46762">
        <ele>4.4</ele>
        <time>2021-04-04T09:37:11Z</time>
      </trkpt>
      <trkpt lat="49.33483" lon="-0.46749">
        <ele>4.4</ele>
        <time>2021-04-04T09:37:15Z</time>
      </trkpt>
      <trkpt lat="49.33482" lon="-0.46747">
        <ele>4.3</ele>
        <time>2021-04-04T09:37:16Z</time>
      </trkpt>
      <trkpt lat="49.3348" lon="-0.46746">
        <ele>4.3</ele>
        <time>2021-04-04T09:37:17Z</time>
      </trkpt>
      <trkpt lat="49.33474" lon="-0.4674">
        <ele>4.3</ele>
        <time>2021-04-04T09:37:20Z</time>
      </trkpt>
      <trkpt lat="49.33472" lon="-0.46734">
        <ele>4.3</ele>
        <time>2021-04-04T09:37:22Z</time>
      </trkpt>
      <trkpt lat="49.33473" lon="-0.46722">
        <ele>4.2</ele>
        <time>2021-04-04T09:37:25Z</time>
      </trkpt>
      <trkpt lat="49.33472" lon="-0.46697">
        <ele>4.1</ele>
        <time>2021-04-04T09:37:31Z</time>
      </trkpt>
      <trkpt lat="49.33472" lon="-0.46684">
        <ele>4</ele>
        <time>2021-04-04T09:37:34Z</time>
      </trkpt>
      <trkpt lat="49.33471" lon="-0.46668">
        <ele>3.9</ele>
        <time>2021-04-04T09:37:38Z</time>
      </trkpt>
      <trkpt lat="49.33469" lon="-0.4666">
        <ele>3.9</ele>
        <time>2021-04-04T09:37:40Z</time>
      </trkpt>
      <trkpt lat="49.33465" lon="-0.46656">
        <ele>3.9</ele>
        <time>2021-04-04T09:37:42Z</time>
      </trkpt>
      <trkpt lat="49.33451" lon="-0.46653">
        <ele>3.2</ele>
        <time>2021-04-04T09:37:47Z</time>
      </trkpt>
      <trkpt lat="49.33442" lon="-0.46639">
        <ele>3</ele>
        <time>2021-04-04T09:37:52Z</time>
      </trkpt>
      <trkpt lat="49.33436" lon="-0.4663">
        <ele>2.9</ele>
        <time>2021-04-04T09:37:55Z</time>
      </trkpt>
      <trkpt lat="49.33419" lon="-0.46614">
        <ele>2.5</ele>
        <time>2021-04-04T09:38:02Z</time>
      </trkpt>
      <trkpt lat="49.33416" lon="-0.46612">
        <ele>2.4</ele>
        <time>2021-04-04T09:38:03Z</time>
      </trkpt>
      <trkpt lat="49.33397" lon="-0.46604">
        <ele>2</ele>
        <time>2021-04-04T09:38:10Z</time>
      </trkpt>
      <trkpt lat="49.33395" lon="-0.46604">
        <ele>1.9</ele>
        <time>2021-04-04T09:38:11Z</time>
      </trkpt>
      <trkpt lat="49.33375" lon="-0.46599">
        <ele>1.8</ele>
        <time>2021-04-04T09:38:18Z</time>
      </trkpt>
      <trkpt lat="49.33373" lon="-0.46599">
        <ele>1.8</ele>
        <time>2021-04-04T09:38:19Z</time>
      </trkpt>
      <trkpt lat="49.33353" lon="-0.466">
        <ele>1.8</ele>
        <time>2021-04-04T09:38:26Z</time>
      </trkpt>
      <trkpt lat="49.33334" lon="-0.46607">
        <ele>1.8</ele>
        <time>2021-04-04T09:38:33Z</time>
      </trkpt>
      <trkpt lat="49.3333" lon="-0.46606">
        <ele>1.8</ele>
        <time>2021-04-04T09:38:35Z</time>
      </trkpt>
      <trkpt lat="49.33319" lon="-0.46595">
        <ele>2.2</ele>
        <time>2021-04-04T09:38:40Z</time>
      </trkpt>
      <trkpt lat="49.33306" lon="-0.46574">
        <ele>2.4</ele>
        <time>2021-04-04T09:38:46Z</time>
      </trkpt>
      <trkpt lat="49.33301" lon="-0.46565">
        <ele>2.4</ele>
        <time>2021-04-04T09:38:49Z</time>
      </trkpt>
      <trkpt lat="49.33291" lon="-0.46551">
        <ele>2.4</ele>
        <time>2021-04-04T09:38:54Z</time>
      </trkpt>
      <trkpt lat="49.33276" lon="-0.46529">
        <ele>2.4</ele>
        <time>2021-04-04T09:39:01Z</time>
      </trkpt>
      <trkpt lat="49.33273" lon="-0.46523">
        <ele>2.4</ele>
        <time>2021-04-04T09:39:03Z</time>
      </trkpt>
      <trkpt lat="49.33259" lon="-0.46503">
        <ele>2.5</ele>
        <time>2021-04-04T09:39:10Z</time>
      </trkpt>
      <trkpt lat="49.33257" lon="-0.46497">
        <ele>2.6</ele>
        <time>2021-04-04T09:39:12Z</time>
      </trkpt>
      <trkpt lat="49.33247" lon="-0.46481">
        <ele>3.4</ele>
        <time>2021-04-04T09:39:18Z</time>
      </trkpt>
      <trkpt lat="49.33236" lon="-0.46475">
        <ele>3.8</ele>
        <time>2021-04-04T09:39:22Z</time>
      </trkpt>
      <trkpt lat="49.3322" lon="-0.46472">
        <ele>3.9</ele>
        <time>2021-04-04T09:39:28Z</time>
      </trkpt>
      <trkpt lat="49.33218" lon="-0.46474">
        <ele>3.9</ele>
        <time>2021-04-04T09:39:29Z</time>
      </trkpt>
      <trkpt lat="49.33204" lon="-0.46484">
        <ele>3.9</ele>
        <time>2021-04-04T09:39:34Z</time>
      </trkpt>
      <trkpt lat="49.33186" lon="-0.46492">
        <ele>3.9</ele>
        <time>2021-04-04T09:39:41Z</time>
      </trkpt>
      <trkpt lat="49.33175" lon="-0.46484">
        <ele>3.9</ele>
        <time>2021-04-04T09:39:46Z</time>
      </trkpt>
      <trkpt lat="49.33166" lon="-0.46469">
        <ele>3.9</ele>
        <time>2021-04-04T09:39:51Z</time>
      </trkpt>
      <trkpt lat="49.33164" lon="-0.46466">
        <ele>3.9</ele>
        <time>2021-04-04T09:39:52Z</time>
      </trkpt>
      <trkpt lat="49.3316" lon="-0.46459">
        <ele>3.9</ele>
        <time>2021-04-04T09:39:54Z</time>
      </trkpt>
      <trkpt lat="49.33149" lon="-0.46435">
        <ele>3.9</ele>
        <time>2021-04-04T09:40:01Z</time>
      </trkpt>
      <trkpt lat="49.33142" lon="-0.46409">
        <ele>4</ele>
        <time>2021-04-04T09:40:08Z</time>
      </trkpt>
      <trkpt lat="49.33136" lon="-0.46404">
        <ele>4</ele>
        <time>2021-04-04T09:40:11Z</time>
      </trkpt>
      <trkpt lat="49.33134" lon="-0.46404">
        <ele>4</ele>
        <time>2021-04-04T09:40:12Z</time>
      </trkpt>
      <trkpt lat="49.3312" lon="-0.46396">
        <ele>4.1</ele>
        <time>2021-04-04T09:40:18Z</time>
      </trkpt>
      <trkpt lat="49.33104" lon="-0.46393">
        <ele>4</ele>
        <time>2021-04-04T09:40:24Z</time>
      </trkpt>
      <trkpt lat="49.33086" lon="-0.46387">
        <ele>4</ele>
        <time>2021-04-04T09:40:30Z</time>
      </trkpt>
      <trkpt lat="49.33084" lon="-0.46385">
        <ele>4</ele>
        <time>2021-04-04T09:40:31Z</time>
      </trkpt>
      <trkpt lat="49.33072" lon="-0.46366">
        <ele>3.9</ele>
        <time>2021-04-04T09:40:38Z</time>
      </trkpt>
      <trkpt lat="49.33062" lon="-0.46353">
        <ele>3.7</ele>
        <time>2021-04-04T09:40:44Z</time>
      </trkpt>
      <trkpt lat="49.33046" lon="-0.46341">
        <ele>3.6</ele>
        <time>2021-04-04T09:40:50Z</time>
      </trkpt>
      <trkpt lat="49.33028" lon="-0.46332">
        <ele>3.9</ele>
        <time>2021-04-04T09:40:57Z</time>
      </trkpt>
      <trkpt lat="49.33025" lon="-0.4633">
        <ele>3.9</ele>
        <time>2021-04-04T09:40:58Z</time>
      </trkpt>
      <trkpt lat="49.33016" lon="-0.46316">
        <ele>4</ele>
        <time>2021-04-04T09:41:03Z</time>
      </trkpt>
      <trkpt lat="49.33003" lon="-0.46301">
        <ele>4</ele>
        <time>2021-04-04T09:41:09Z</time>
      </trkpt>
      <trkpt lat="49.32993" lon="-0.46283">
        <ele>3.9</ele>
        <time>2021-04-04T09:41:15Z</time>
      </trkpt>
      <trkpt lat="49.32989" lon="-0.46277">
        <ele>3.9</ele>
        <time>2021-04-04T09:41:17Z</time>
      </trkpt>
      <trkpt lat="49.32984" lon="-0.46268">
        <ele>3.8</ele>
        <time>2021-04-04T09:41:20Z</time>
      </trkpt>
      <trkpt lat="49.32976" lon="-0.46253">
        <ele>3.8</ele>
        <time>2021-04-04T09:41:24Z</time>
      </trkpt>
      <trkpt lat="49.32959" lon="-0.46235">
        <ele>3.9</ele>
        <time>2021-04-04T09:41:31Z</time>
      </trkpt>
      <trkpt lat="49.3295" lon="-0.46229">
        <ele>3.9</ele>
        <time>2021-04-04T09:41:35Z</time>
      </trkpt>
      <trkpt lat="49.32948" lon="-0.46227">
        <ele>3.8</ele>
        <time>2021-04-04T09:41:36Z</time>
      </trkpt>
      <trkpt lat="49.32942" lon="-0.46209">
        <ele>3.8</ele>
        <time>2021-04-04T09:41:41Z</time>
      </trkpt>
      <trkpt lat="49.32937" lon="-0.46183">
        <ele>3.7</ele>
        <time>2021-04-04T09:41:47Z</time>
      </trkpt>
      <trkpt lat="49.32934" lon="-0.46164">
        <ele>3.7</ele>
        <time>2021-04-04T09:41:52Z</time>
      </trkpt>
      <trkpt lat="49.32935" lon="-0.46161">
        <ele>3.7</ele>
        <time>2021-04-04T09:41:53Z</time>
      </trkpt>
      <trkpt lat="49.32943" lon="-0.46145">
        <ele>3.8</ele>
        <time>2021-04-04T09:41:58Z</time>
      </trkpt>
      <trkpt lat="49.32961" lon="-0.4613">
        <ele>4.1</ele>
        <time>2021-04-04T09:42:06Z</time>
      </trkpt>
      <trkpt lat="49.32965" lon="-0.46126">
        <ele>4.2</ele>
        <time>2021-04-04T09:42:08Z</time>
      </trkpt>
      <trkpt lat="49.32971" lon="-0.46118">
        <ele>4.5</ele>
        <time>2021-04-04T09:42:11Z</time>
      </trkpt>
      <trkpt lat="49.32975" lon="-0.46105">
        <ele>4.9</ele>
        <time>2021-04-04T09:42:14Z</time>
      </trkpt>
      <trkpt lat="49.32975" lon="-0.46073">
        <ele>6.4</ele>
        <time>2021-04-04T09:42:21Z</time>
      </trkpt>
      <trkpt lat="49.32973" lon="-0.46056">
        <ele>7.4</ele>
        <time>2021-04-04T09:42:25Z</time>
      </trkpt>
      <trkpt lat="49.32971" lon="-0.46042">
        <ele>8.3</ele>
        <time>2021-04-04T09:42:29Z</time>
      </trkpt>
      <trkpt lat="49.32971" lon="-0.46038">
        <ele>8.5</ele>
        <time>2021-04-04T09:42:30Z</time>
      </trkpt>
      <trkpt lat="49.32966" lon="-0.4602">
        <ele>9.7</ele>
        <time>2021-04-04T09:42:35Z</time>
      </trkpt>
      <trkpt lat="49.32957" lon="-0.45995">
        <ele>11.2</ele>
        <time>2021-04-04T09:42:41Z</time>
      </trkpt>
      <trkpt lat="49.32954" lon="-0.45987">
        <ele>11.6</ele>
        <time>2021-04-04T09:42:43Z</time>
      </trkpt>
      <trkpt lat="49.32952" lon="-0.45981">
        <ele>12</ele>
        <time>2021-04-04T09:42:45Z</time>
      </trkpt>
      <trkpt lat="49.3293" lon="-0.46016">
        <ele>13.2</ele>
        <time>2021-04-04T09:43:17Z</time>
      </trkpt>
      <trkpt lat="49.32928" lon="-0.46017">
        <ele>13.2</ele>
        <time>2021-04-04T09:43:18Z</time>
      </trkpt>
      <trkpt lat="49.32921" lon="-0.4602">
        <ele>13.3</ele>
        <time>2021-04-04T09:43:21Z</time>
      </trkpt>
      <trkpt lat="49.32919" lon="-0.46022">
        <ele>13.4</ele>
        <time>2021-04-04T09:43:23Z</time>
      </trkpt>
      <trkpt lat="49.32905" lon="-0.46031">
        <ele>13.7</ele>
        <time>2021-04-04T09:43:27Z</time>
      </trkpt>
      <trkpt lat="49.32893" lon="-0.46036">
        <ele>14</ele>
        <time>2021-04-04T09:43:32Z</time>
      </trkpt>
      <trkpt lat="49.32888" lon="-0.46039">
        <ele>14.1</ele>
        <time>2021-04-04T09:43:34Z</time>
      </trkpt>
      <trkpt lat="49.32869" lon="-0.46043">
        <ele>14.6</ele>
        <time>2021-04-04T09:43:41Z</time>
      </trkpt>
      <trkpt lat="49.3286" lon="-0.46042">
        <ele>14.9</ele>
        <time>2021-04-04T09:43:46Z</time>
      </trkpt>
      <trkpt lat="49.32855" lon="-0.46044">
        <ele>15.1</ele>
        <time>2021-04-04T09:43:47Z</time>
      </trkpt>
      <trkpt lat="49.32851" lon="-0.46048">
        <ele>15.2</ele>
        <time>2021-04-04T09:43:49Z</time>
      </trkpt>
      <trkpt lat="49.32838" lon="-0.4607">
        <ele>15.6</ele>
        <time>2021-04-04T09:43:56Z</time>
      </trkpt>
      <trkpt lat="49.32836" lon="-0.46073">
        <ele>15.7</ele>
        <time>2021-04-04T09:43:57Z</time>
      </trkpt>
      <trkpt lat="49.32824" lon="-0.46093">
        <ele>16</ele>
        <time>2021-04-04T09:44:04Z</time>
      </trkpt>
      <trkpt lat="49.32812" lon="-0.46107">
        <ele>16.2</ele>
        <time>2021-04-04T09:44:11Z</time>
      </trkpt>
      <trkpt lat="49.32798" lon="-0.46113">
        <ele>16.5</ele>
        <time>2021-04-04T09:44:16Z</time>
      </trkpt>
      <trkpt lat="49.32795" lon="-0.46111">
        <ele>16.5</ele>
        <time>2021-04-04T09:44:17Z</time>
      </trkpt>
      <trkpt lat="49.3279" lon="-0.46103">
        <ele>16.7</ele>
        <time>2021-04-04T09:44:20Z</time>
      </trkpt>
      <trkpt lat="49.32781" lon="-0.46079">
        <ele>16.8</ele>
        <time>2021-04-04T09:44:26Z</time>
      </trkpt>
      <trkpt lat="49.32776" lon="-0.46055">
        <ele>16.7</ele>
        <time>2021-04-04T09:44:32Z</time>
      </trkpt>
      <trkpt lat="49.32772" lon="-0.46032">
        <ele>16.4</ele>
        <time>2021-04-04T09:44:38Z</time>
      </trkpt>
      <trkpt lat="49.32768" lon="-0.46025">
        <ele>16.3</ele>
        <time>2021-04-04T09:44:40Z</time>
      </trkpt>
      <trkpt lat="49.32756" lon="-0.46018">
        <ele>16.5</ele>
        <time>2021-04-04T09:44:45Z</time>
      </trkpt>
      <trkpt lat="49.32754" lon="-0.46016">
        <ele>16.5</ele>
        <time>2021-04-04T09:44:46Z</time>
      </trkpt>
      <trkpt lat="49.32738" lon="-0.45998">
        <ele>16.8</ele>
        <time>2021-04-04T09:44:53Z</time>
      </trkpt>
      <trkpt lat="49.32736" lon="-0.45996">
        <ele>16.9</ele>
        <time>2021-04-04T09:44:54Z</time>
      </trkpt>
      <trkpt lat="49.32721" lon="-0.45977">
        <ele>17.2</ele>
        <time>2021-04-04T09:45:01Z</time>
      </trkpt>
      <trkpt lat="49.32709" lon="-0.45964">
        <ele>17.4</ele>
        <time>2021-04-04T09:45:06Z</time>
      </trkpt>
      <trkpt lat="49.327" lon="-0.45954">
        <ele>17.5</ele>
        <time>2021-04-04T09:45:10Z</time>
      </trkpt>
      <trkpt lat="49.32694" lon="-0.45946">
        <ele>17.7</ele>
        <time>2021-04-04T09:45:13Z</time>
      </trkpt>
      <trkpt lat="49.32684" lon="-0.45937">
        <ele>17.8</ele>
        <time>2021-04-04T09:45:17Z</time>
      </trkpt>
      <trkpt lat="49.32668" lon="-0.45925">
        <ele>18.1</ele>
        <time>2021-04-04T09:45:23Z</time>
      </trkpt>
      <trkpt lat="49.32657" lon="-0.45917">
        <ele>18.3</ele>
        <time>2021-04-04T09:45:28Z</time>
      </trkpt>
      <trkpt lat="49.32651" lon="-0.4591">
        <ele>18.4</ele>
        <time>2021-04-04T09:45:31Z</time>
      </trkpt>
      <trkpt lat="49.32635" lon="-0.45893">
        <ele>18.7</ele>
        <time>2021-04-04T09:45:38Z</time>
      </trkpt>
      <trkpt lat="49.32627" lon="-0.45883">
        <ele>18.8</ele>
        <time>2021-04-04T09:45:42Z</time>
      </trkpt>
      <trkpt lat="49.32613" lon="-0.45868">
        <ele>19.1</ele>
        <time>2021-04-04T09:45:48Z</time>
      </trkpt>
      <trkpt lat="49.32606" lon="-0.4586">
        <ele>19.2</ele>
        <time>2021-04-04T09:45:51Z</time>
      </trkpt>
      <trkpt lat="49.3259" lon="-0.45841">
        <ele>19.5</ele>
        <time>2021-04-04T09:45:58Z</time>
      </trkpt>
      <trkpt lat="49.32578" lon="-0.45828">
        <ele>19.7</ele>
        <time>2021-04-04T09:46:04Z</time>
      </trkpt>
      <trkpt lat="49.32567" lon="-0.45815">
        <ele>20</ele>
        <time>2021-04-04T09:46:10Z</time>
      </trkpt>
      <trkpt lat="49.32564" lon="-0.45806">
        <ele>20</ele>
        <time>2021-04-04T09:46:13Z</time>
      </trkpt>
      <trkpt lat="49.32565" lon="-0.45803">
        <ele>19.9</ele>
        <time>2021-04-04T09:46:14Z</time>
      </trkpt>
      <trkpt lat="49.32567" lon="-0.45801">
        <ele>19.9</ele>
        <time>2021-04-04T09:46:15Z</time>
      </trkpt>
      <trkpt lat="49.32571" lon="-0.45798">
        <ele>19.8</ele>
        <time>2021-04-04T09:46:17Z</time>
      </trkpt>
      <trkpt lat="49.32573" lon="-0.45797">
        <ele>19.8</ele>
        <time>2021-04-04T09:46:18Z</time>
      </trkpt>
      <trkpt lat="49.32591" lon="-0.45794">
        <ele>19.1</ele>
        <time>2021-04-04T09:46:25Z</time>
      </trkpt>
      <trkpt lat="49.32594" lon="-0.45794">
        <ele>19</ele>
        <time>2021-04-04T09:46:26Z</time>
      </trkpt>
      <trkpt lat="49.32615" lon="-0.45792">
        <ele>18.5</ele>
        <time>2021-04-04T09:46:33Z</time>
      </trkpt>
      <trkpt lat="49.3262" lon="-0.45792">
        <ele>18.4</ele>
        <time>2021-04-04T09:46:35Z</time>
      </trkpt>
      <trkpt lat="49.3264" lon="-0.4579">
        <ele>17.9</ele>
        <time>2021-04-04T09:46:42Z</time>
      </trkpt>
      <trkpt lat="49.32642" lon="-0.4579">
        <ele>17.9</ele>
        <time>2021-04-04T09:46:43Z</time>
      </trkpt>
      <trkpt lat="49.32658" lon="-0.45792">
        <ele>17.6</ele>
        <time>2021-04-04T09:46:49Z</time>
      </trkpt>
      <trkpt lat="49.32668" lon="-0.45808">
        <ele>17.5</ele>
        <time>2021-04-04T09:46:54Z</time>
      </trkpt>
      <trkpt lat="49.32683" lon="-0.45829">
        <ele>17.4</ele>
        <time>2021-04-04T09:47:01Z</time>
      </trkpt>
      <trkpt lat="49.32698" lon="-0.45845">
        <ele>17.3</ele>
        <time>2021-04-04T09:47:07Z</time>
      </trkpt>
      <trkpt lat="49.32708" lon="-0.45856">
        <ele>17.2</ele>
        <time>2021-04-04T09:47:11Z</time>
      </trkpt>
      <trkpt lat="49.32721" lon="-0.45858">
        <ele>16.9</ele>
        <time>2021-04-04T09:47:16Z</time>
      </trkpt>
      <trkpt lat="49.3274" lon="-0.45853">
        <ele>16.2</ele>
        <time>2021-04-04T09:47:23Z</time>
      </trkpt>
      <trkpt lat="49.32759" lon="-0.45851">
        <ele>16</ele>
        <time>2021-04-04T09:47:29Z</time>
      </trkpt>
      <trkpt lat="49.32769" lon="-0.4585">
        <ele>16</ele>
        <time>2021-04-04T09:47:32Z</time>
      </trkpt>
      <trkpt lat="49.32789" lon="-0.45847">
        <ele>16</ele>
        <time>2021-04-04T09:47:39Z</time>
      </trkpt>
      <trkpt lat="49.32807" lon="-0.45844">
        <ele>16.1</ele>
        <time>2021-04-04T09:47:45Z</time>
      </trkpt>
      <trkpt lat="49.32813" lon="-0.45843">
        <ele>16.1</ele>
        <time>2021-04-04T09:47:47Z</time>
      </trkpt>
      <trkpt lat="49.32827" lon="-0.45841">
        <ele>16.1</ele>
        <time>2021-04-04T09:47:52Z</time>
      </trkpt>
      <trkpt lat="49.32832" lon="-0.45843">
        <ele>16.1</ele>
        <time>2021-04-04T09:47:54Z</time>
      </trkpt>
      <trkpt lat="49.32836" lon="-0.45848">
        <ele>16.1</ele>
        <time>2021-04-04T09:47:56Z</time>
      </trkpt>
      <trkpt lat="49.32838" lon="-0.45855">
        <ele>16.1</ele>
        <time>2021-04-04T09:47:58Z</time>
      </trkpt>
      <trkpt lat="49.32839" lon="-0.45875">
        <ele>16.1</ele>
        <time>2021-04-04T09:48:03Z</time>
      </trkpt>
      <trkpt lat="49.32839" lon="-0.45887">
        <ele>16.1</ele>
        <time>2021-04-04T09:48:06Z</time>
      </trkpt>
      <trkpt lat="49.32837" lon="-0.45917">
        <ele>16.1</ele>
        <time>2021-04-04T09:48:13Z</time>
      </trkpt>
      <trkpt lat="49.32836" lon="-0.45925">
        <ele>16.1</ele>
        <time>2021-04-04T09:48:15Z</time>
      </trkpt>
      <trkpt lat="49.32833" lon="-0.45953">
        <ele>16.2</ele>
        <time>2021-04-04T09:48:22Z</time>
      </trkpt>
      <trkpt lat="49.32831" lon="-0.45984">
        <ele>16.2</ele>
        <time>2021-04-04T09:48:29Z</time>
      </trkpt>
      <trkpt lat="49.32825" lon="-0.46004">
        <ele>16.2</ele>
        <time>2021-04-04T09:48:34Z</time>
      </trkpt>
      <trkpt lat="49.32814" lon="-0.46009">
        <ele>16.2</ele>
        <time>2021-04-04T09:48:39Z</time>
      </trkpt>
      <trkpt lat="49.32808" lon="-0.46009">
        <ele>16.2</ele>
        <time>2021-04-04T09:48:41Z</time>
      </trkpt>
      <trkpt lat="49.32796" lon="-0.46008">
        <ele>16.2</ele>
        <time>2021-04-04T09:48:45Z</time>
      </trkpt>
      <trkpt lat="49.32777" lon="-0.46008">
        <ele>16.3</ele>
        <time>2021-04-04T09:48:52Z</time>
      </trkpt>
      <trkpt lat="49.32773" lon="-0.45997">
        <ele>16.4</ele>
        <time>2021-04-04T09:48:55Z</time>
      </trkpt>
      <trkpt lat="49.32771" lon="-0.45985">
        <ele>16.4</ele>
        <time>2021-04-04T09:48:58Z</time>
      </trkpt>
      <trkpt lat="49.32769" lon="-0.45962">
        <ele>16.4</ele>
        <time>2021-04-04T09:49:04Z</time>
      </trkpt>
      <trkpt lat="49.32768" lon="-0.45945">
        <ele>16.4</ele>
        <time>2021-04-04T09:49:08Z</time>
      </trkpt>
      <trkpt lat="49.32766" lon="-0.45922">
        <ele>16.3</ele>
        <time>2021-04-04T09:49:13Z</time>
      </trkpt>
      <trkpt lat="49.32761" lon="-0.459">
        <ele>16.2</ele>
        <time>2021-04-04T09:49:18Z</time>
      </trkpt>
      <trkpt lat="49.32761" lon="-0.45897">
        <ele>16.2</ele>
        <time>2021-04-04T09:49:19Z</time>
      </trkpt>
      <trkpt lat="49.32758" lon="-0.45883">
        <ele>16.2</ele>
        <time>2021-04-04T09:49:22Z</time>
      </trkpt>
      <trkpt lat="49.32754" lon="-0.45853">
        <ele>16</ele>
        <time>2021-04-04T09:49:28Z</time>
      </trkpt>
      <trkpt lat="49.32746" lon="-0.45826">
        <ele>16</ele>
        <time>2021-04-04T09:49:34Z</time>
      </trkpt>
      <trkpt lat="49.32745" lon="-0.45816">
        <ele>15.9</ele>
        <time>2021-04-04T09:49:36Z</time>
      </trkpt>
      <trkpt lat="49.32744" lon="-0.45797">
        <ele>15.9</ele>
        <time>2021-04-04T09:49:40Z</time>
      </trkpt>
      <trkpt lat="49.32743" lon="-0.45792">
        <ele>15.9</ele>
        <time>2021-04-04T09:49:41Z</time>
      </trkpt>
      <trkpt lat="49.32741" lon="-0.45785">
        <ele>15.8</ele>
        <time>2021-04-04T09:49:43Z</time>
      </trkpt>
    </trkseg>
  </trk>
</gpx>